<?xml version="1.0" encoding="UTF-8" standalone="no" ?>
<gpx xmlns="http://www.topografix.com/GPX/1/1" xmlns:xsi="http://www.w3.org/2001/XMLSchema-instance" xsi:schemaLocation="http://www.topografix.com/GPX/1/1 http://www.topografix.com/GPX/1/1/gpx.xsd" version="1.1" creator="VisuGPX - https://www.visugpx.com">
  <metadata>
    <name>St Cergue J1</name>
    <desc><![CDATA[St Cergue J1]]></desc>
  </metadata>
  <trk>
    <name><![CDATA[2016-07-02 17:29:47]]></name>
    <trkseg>
      <trkpt lat="46.49139" lon="6.09469">
        <ele>1093.83</ele>
        <time>2016-07-02T08:30:24Z</time>
      </trkpt>
      <trkpt lat="46.49139" lon="6.09467">
        <ele>1090.57</ele>
        <time>2016-07-02T08:30:25Z</time>
      </trkpt>
      <trkpt lat="46.49137" lon="6.0947">
        <ele>1087.55</ele>
        <time>2016-07-02T08:30:28Z</time>
      </trkpt>
      <trkpt lat="46.49127" lon="6.09485">
        <ele>1087.41</ele>
        <time>2016-07-02T08:30:43Z</time>
      </trkpt>
      <trkpt lat="46.49126" lon="6.09486">
        <ele>1087.41</ele>
        <time>2016-07-02T08:30:44Z</time>
      </trkpt>
      <trkpt lat="46.49113" lon="6.0951">
        <ele>1088.6</ele>
        <time>2016-07-02T08:31:02Z</time>
      </trkpt>
      <trkpt lat="46.49099" lon="6.09534">
        <ele>1089.9</ele>
        <time>2016-07-02T08:31:21Z</time>
      </trkpt>
      <trkpt lat="46.49084" lon="6.09557">
        <ele>1091.56</ele>
        <time>2016-07-02T08:31:39Z</time>
      </trkpt>
      <trkpt lat="46.49076" lon="6.09572">
        <ele>1092.58</ele>
        <time>2016-07-02T08:31:53Z</time>
      </trkpt>
      <trkpt lat="46.49063" lon="6.09592">
        <ele>1093.45</ele>
        <time>2016-07-02T08:32:12Z</time>
      </trkpt>
      <trkpt lat="46.49044" lon="6.09619">
        <ele>1096.01</ele>
        <time>2016-07-02T08:32:38Z</time>
      </trkpt>
      <trkpt lat="46.49021" lon="6.09642">
        <ele>1099.04</ele>
        <time>2016-07-02T08:33:02Z</time>
      </trkpt>
      <trkpt lat="46.48996" lon="6.09656">
        <ele>1101.51</ele>
        <time>2016-07-02T08:33:25Z</time>
      </trkpt>
      <trkpt lat="46.48966" lon="6.09663">
        <ele>1104.12</ele>
        <time>2016-07-02T08:33:49Z</time>
      </trkpt>
      <trkpt lat="46.48949" lon="6.09665">
        <ele>1104.8</ele>
        <time>2016-07-02T08:34:03Z</time>
      </trkpt>
      <trkpt lat="46.48948" lon="6.09664">
        <ele>1104.74</ele>
        <time>2016-07-02T08:34:04Z</time>
      </trkpt>
      <trkpt lat="46.48937" lon="6.09663">
        <ele>1105.79</ele>
        <time>2016-07-02T08:34:15Z</time>
      </trkpt>
      <trkpt lat="46.48931" lon="6.09668">
        <ele>1107.14</ele>
        <time>2016-07-02T08:34:26Z</time>
      </trkpt>
      <trkpt lat="46.48903" lon="6.09663">
        <ele>1110.23</ele>
        <time>2016-07-02T08:34:49Z</time>
      </trkpt>
      <trkpt lat="46.48906" lon="6.09673">
        <ele>1109.83</ele>
        <time>2016-07-02T08:35:03Z</time>
      </trkpt>
      <trkpt lat="46.48929" lon="6.0967">
        <ele>1107.94</ele>
        <time>2016-07-02T08:35:17Z</time>
      </trkpt>
      <trkpt lat="46.48943" lon="6.09669">
        <ele>1106.08</ele>
        <time>2016-07-02T08:35:28Z</time>
      </trkpt>
      <trkpt lat="46.48961" lon="6.0968">
        <ele>1106.91</ele>
        <time>2016-07-02T08:35:43Z</time>
      </trkpt>
      <trkpt lat="46.48967" lon="6.0969">
        <ele>1107.25</ele>
        <time>2016-07-02T08:35:50Z</time>
      </trkpt>
      <trkpt lat="46.48968" lon="6.09693">
        <ele>1107.65</ele>
        <time>2016-07-02T08:35:52Z</time>
      </trkpt>
      <trkpt lat="46.48959" lon="6.09724">
        <ele>1110.81</ele>
        <time>2016-07-02T08:36:10Z</time>
      </trkpt>
      <trkpt lat="46.48951" lon="6.09743">
        <ele>1113.96</ele>
        <time>2016-07-02T08:36:25Z</time>
      </trkpt>
      <trkpt lat="46.48947" lon="6.0976">
        <ele>1116.49</ele>
        <time>2016-07-02T08:36:38Z</time>
      </trkpt>
      <trkpt lat="46.48939" lon="6.0977">
        <ele>1117.71</ele>
        <time>2016-07-02T08:36:49Z</time>
      </trkpt>
      <trkpt lat="46.48936" lon="6.0977">
        <ele>1117.57</ele>
        <time>2016-07-02T08:36:51Z</time>
      </trkpt>
      <trkpt lat="46.4893" lon="6.0977">
        <ele>1118.38</ele>
        <time>2016-07-02T08:36:56Z</time>
      </trkpt>
      <trkpt lat="46.48917" lon="6.09776">
        <ele>1120.06</ele>
        <time>2016-07-02T08:37:13Z</time>
      </trkpt>
      <trkpt lat="46.48901" lon="6.09769">
        <ele>1122</ele>
        <time>2016-07-02T08:37:34Z</time>
      </trkpt>
      <trkpt lat="46.48884" lon="6.09758">
        <ele>1122.12</ele>
        <time>2016-07-02T08:37:49Z</time>
      </trkpt>
      <trkpt lat="46.48876" lon="6.09747">
        <ele>1122.77</ele>
        <time>2016-07-02T08:37:58Z</time>
      </trkpt>
      <trkpt lat="46.48858" lon="6.09742">
        <ele>1123.54</ele>
        <time>2016-07-02T08:38:14Z</time>
      </trkpt>
      <trkpt lat="46.48842" lon="6.09746">
        <ele>1126.72</ele>
        <time>2016-07-02T08:38:30Z</time>
      </trkpt>
      <trkpt lat="46.48831" lon="6.09749">
        <ele>1129.73</ele>
        <time>2016-07-02T08:38:46Z</time>
      </trkpt>
      <trkpt lat="46.48821" lon="6.09751">
        <ele>1132.9</ele>
        <time>2016-07-02T08:39:03Z</time>
      </trkpt>
      <trkpt lat="46.48811" lon="6.09752">
        <ele>1135.95</ele>
        <time>2016-07-02T08:39:17Z</time>
      </trkpt>
      <trkpt lat="46.48804" lon="6.09757">
        <ele>1138.99</ele>
        <time>2016-07-02T08:39:30Z</time>
      </trkpt>
      <trkpt lat="46.48797" lon="6.0977">
        <ele>1142.04</ele>
        <time>2016-07-02T08:39:48Z</time>
      </trkpt>
      <trkpt lat="46.48789" lon="6.09782">
        <ele>1145.19</ele>
        <time>2016-07-02T08:40:04Z</time>
      </trkpt>
      <trkpt lat="46.48784" lon="6.09796">
        <ele>1148.34</ele>
        <time>2016-07-02T08:40:20Z</time>
      </trkpt>
      <trkpt lat="46.48784" lon="6.09812">
        <ele>1151.4</ele>
        <time>2016-07-02T08:40:36Z</time>
      </trkpt>
      <trkpt lat="46.48787" lon="6.09819">
        <ele>1152.86</ele>
        <time>2016-07-02T08:40:44Z</time>
      </trkpt>
      <trkpt lat="46.48792" lon="6.09822">
        <ele>1154.61</ele>
        <time>2016-07-02T08:41:07Z</time>
      </trkpt>
      <trkpt lat="46.48792" lon="6.09822">
        <ele>1154.45</ele>
        <time>2016-07-02T08:41:23Z</time>
      </trkpt>
      <trkpt lat="46.48789" lon="6.09928">
        <ele>1172.41</ele>
        <time>2016-07-02T08:43:53Z</time>
      </trkpt>
      <trkpt lat="46.48796" lon="6.09953">
        <ele>1175.42</ele>
        <time>2016-07-02T08:44:16Z</time>
      </trkpt>
      <trkpt lat="46.48802" lon="6.09973">
        <ele>1178.47</ele>
        <time>2016-07-02T08:44:35Z</time>
      </trkpt>
      <trkpt lat="46.48813" lon="6.09997">
        <ele>1180.07</ele>
        <time>2016-07-02T08:45:01Z</time>
      </trkpt>
      <trkpt lat="46.48808" lon="6.10012">
        <ele>1182.81</ele>
        <time>2016-07-02T08:45:23Z</time>
      </trkpt>
      <trkpt lat="46.48806" lon="6.10017">
        <ele>1184.63</ele>
        <time>2016-07-02T08:45:47Z</time>
      </trkpt>
      <trkpt lat="46.488" lon="6.10015">
        <ele>1185.22</ele>
        <time>2016-07-02T08:46:02Z</time>
      </trkpt>
      <trkpt lat="46.48778" lon="6.10014">
        <ele>1186.9</ele>
        <time>2016-07-02T08:46:18Z</time>
      </trkpt>
      <trkpt lat="46.48763" lon="6.10016">
        <ele>1188.22</ele>
        <time>2016-07-02T08:46:33Z</time>
      </trkpt>
      <trkpt lat="46.48762" lon="6.10017">
        <ele>1188.49</ele>
        <time>2016-07-02T08:46:34Z</time>
      </trkpt>
      <trkpt lat="46.48746" lon="6.10017">
        <ele>1191.74</ele>
        <time>2016-07-02T08:46:49Z</time>
      </trkpt>
      <trkpt lat="46.48733" lon="6.10011">
        <ele>1193.72</ele>
        <time>2016-07-02T08:47:02Z</time>
      </trkpt>
      <trkpt lat="46.48725" lon="6.10005">
        <ele>1194.75</ele>
        <time>2016-07-02T08:47:08Z</time>
      </trkpt>
      <trkpt lat="46.48718" lon="6.10002">
        <ele>1195.18</ele>
        <time>2016-07-02T08:47:13Z</time>
      </trkpt>
      <trkpt lat="46.48714" lon="6.10001">
        <ele>1195.71</ele>
        <time>2016-07-02T08:47:17Z</time>
      </trkpt>
      <trkpt lat="46.48709" lon="6.1">
        <ele>1196.18</ele>
        <time>2016-07-02T08:47:22Z</time>
      </trkpt>
      <trkpt lat="46.48706" lon="6.09995">
        <ele>1196.71</ele>
        <time>2016-07-02T08:47:27Z</time>
      </trkpt>
      <trkpt lat="46.48694" lon="6.09984">
        <ele>1197.83</ele>
        <time>2016-07-02T08:47:43Z</time>
      </trkpt>
      <trkpt lat="46.48676" lon="6.0997">
        <ele>1199.23</ele>
        <time>2016-07-02T08:48:05Z</time>
      </trkpt>
      <trkpt lat="46.48675" lon="6.0997">
        <ele>1199.54</ele>
        <time>2016-07-02T08:48:08Z</time>
      </trkpt>
      <trkpt lat="46.48645" lon="6.09956">
        <ele>1202.75</ele>
        <time>2016-07-02T08:48:52Z</time>
      </trkpt>
      <trkpt lat="46.48627" lon="6.09948">
        <ele>1205.78</ele>
        <time>2016-07-02T08:49:13Z</time>
      </trkpt>
      <trkpt lat="46.48605" lon="6.09941">
        <ele>1207.26</ele>
        <time>2016-07-02T08:49:33Z</time>
      </trkpt>
      <trkpt lat="46.4859" lon="6.09937">
        <ele>1209.76</ele>
        <time>2016-07-02T08:49:50Z</time>
      </trkpt>
      <trkpt lat="46.48575" lon="6.09935">
        <ele>1212.88</ele>
        <time>2016-07-02T08:50:06Z</time>
      </trkpt>
      <trkpt lat="46.48562" lon="6.0993">
        <ele>1215.02</ele>
        <time>2016-07-02T08:50:25Z</time>
      </trkpt>
      <trkpt lat="46.48544" lon="6.09925">
        <ele>1218.03</ele>
        <time>2016-07-02T08:50:47Z</time>
      </trkpt>
      <trkpt lat="46.48532" lon="6.09923">
        <ele>1220.16</ele>
        <time>2016-07-02T08:51:04Z</time>
      </trkpt>
      <trkpt lat="46.48517" lon="6.09916">
        <ele>1222.22</ele>
        <time>2016-07-02T08:51:26Z</time>
      </trkpt>
      <trkpt lat="46.48498" lon="6.09908">
        <ele>1224.51</ele>
        <time>2016-07-02T08:51:47Z</time>
      </trkpt>
      <trkpt lat="46.48483" lon="6.09908">
        <ele>1226.46</ele>
        <time>2016-07-02T08:52:06Z</time>
      </trkpt>
      <trkpt lat="46.48477" lon="6.09909">
        <ele>1227.52</ele>
        <time>2016-07-02T08:52:16Z</time>
      </trkpt>
      <trkpt lat="46.48447" lon="6.09893">
        <ele>1229.27</ele>
        <time>2016-07-02T08:53:01Z</time>
      </trkpt>
      <trkpt lat="46.48436" lon="6.09877">
        <ele>1228.9</ele>
        <time>2016-07-02T08:53:25Z</time>
      </trkpt>
      <trkpt lat="46.48436" lon="6.09876">
        <ele>1228.75</ele>
        <time>2016-07-02T08:53:26Z</time>
      </trkpt>
      <trkpt lat="46.48418" lon="6.09878">
        <ele>1230.57</ele>
        <time>2016-07-02T08:54:15Z</time>
      </trkpt>
      <trkpt lat="46.48391" lon="6.09856">
        <ele>1229.01</ele>
        <time>2016-07-02T08:54:37Z</time>
      </trkpt>
      <trkpt lat="46.48367" lon="6.09843">
        <ele>1226.82</ele>
        <time>2016-07-02T08:54:58Z</time>
      </trkpt>
      <trkpt lat="46.4836" lon="6.09842">
        <ele>1226.09</ele>
        <time>2016-07-02T08:55:02Z</time>
      </trkpt>
      <trkpt lat="46.48352" lon="6.09836">
        <ele>1226.04</ele>
        <time>2016-07-02T08:55:13Z</time>
      </trkpt>
      <trkpt lat="46.48343" lon="6.09824">
        <ele>1224.44</ele>
        <time>2016-07-02T08:55:25Z</time>
      </trkpt>
      <trkpt lat="46.48324" lon="6.09809">
        <ele>1223.51</ele>
        <time>2016-07-02T08:55:40Z</time>
      </trkpt>
      <trkpt lat="46.48319" lon="6.09798">
        <ele>1222.47</ele>
        <time>2016-07-02T08:55:56Z</time>
      </trkpt>
      <trkpt lat="46.48315" lon="6.09797">
        <ele>1224.02</ele>
        <time>2016-07-02T08:56:38Z</time>
      </trkpt>
      <trkpt lat="46.48301" lon="6.09791">
        <ele>1223.24</ele>
        <time>2016-07-02T08:56:50Z</time>
      </trkpt>
      <trkpt lat="46.48289" lon="6.09788">
        <ele>1223.14</ele>
        <time>2016-07-02T08:57:04Z</time>
      </trkpt>
      <trkpt lat="46.48282" lon="6.09785">
        <ele>1223.75</ele>
        <time>2016-07-02T08:57:11Z</time>
      </trkpt>
      <trkpt lat="46.48271" lon="6.09776">
        <ele>1223.17</ele>
        <time>2016-07-02T08:57:24Z</time>
      </trkpt>
      <trkpt lat="46.48267" lon="6.09769">
        <ele>1222.06</ele>
        <time>2016-07-02T08:57:30Z</time>
      </trkpt>
      <trkpt lat="46.48258" lon="6.0976">
        <ele>1220.97</ele>
        <time>2016-07-02T08:57:42Z</time>
      </trkpt>
      <trkpt lat="46.4824" lon="6.09747">
        <ele>1218.43</ele>
        <time>2016-07-02T08:58:00Z</time>
      </trkpt>
      <trkpt lat="46.48234" lon="6.09742">
        <ele>1217.55</ele>
        <time>2016-07-02T08:58:07Z</time>
      </trkpt>
      <trkpt lat="46.4822" lon="6.09718">
        <ele>1215.38</ele>
        <time>2016-07-02T08:58:30Z</time>
      </trkpt>
      <trkpt lat="46.48219" lon="6.09717">
        <ele>1215.24</ele>
        <time>2016-07-02T08:58:34Z</time>
      </trkpt>
      <trkpt lat="46.48215" lon="6.09709">
        <ele>1217.71</ele>
        <time>2016-07-02T08:59:02Z</time>
      </trkpt>
      <trkpt lat="46.48211" lon="6.09703">
        <ele>1218</ele>
        <time>2016-07-02T08:59:07Z</time>
      </trkpt>
      <trkpt lat="46.48198" lon="6.09693">
        <ele>1218.77</ele>
        <time>2016-07-02T08:59:18Z</time>
      </trkpt>
      <trkpt lat="46.48185" lon="6.09687">
        <ele>1218.52</ele>
        <time>2016-07-02T08:59:33Z</time>
      </trkpt>
      <trkpt lat="46.48175" lon="6.09672">
        <ele>1216.13</ele>
        <time>2016-07-02T08:59:46Z</time>
      </trkpt>
      <trkpt lat="46.48164" lon="6.09662">
        <ele>1214.24</ele>
        <time>2016-07-02T08:59:57Z</time>
      </trkpt>
      <trkpt lat="46.48152" lon="6.09646">
        <ele>1212.68</ele>
        <time>2016-07-02T09:00:11Z</time>
      </trkpt>
      <trkpt lat="46.48147" lon="6.09641">
        <ele>1211.8</ele>
        <time>2016-07-02T09:00:20Z</time>
      </trkpt>
      <trkpt lat="46.48124" lon="6.09647">
        <ele>1215.02</ele>
        <time>2016-07-02T09:01:24Z</time>
      </trkpt>
      <trkpt lat="46.48093" lon="6.09654">
        <ele>1218.07</ele>
        <time>2016-07-02T09:01:51Z</time>
      </trkpt>
      <trkpt lat="46.4807" lon="6.09657">
        <ele>1220.17</ele>
        <time>2016-07-02T09:02:17Z</time>
      </trkpt>
      <trkpt lat="46.48068" lon="6.09659">
        <ele>1220.64</ele>
        <time>2016-07-02T09:02:22Z</time>
      </trkpt>
      <trkpt lat="46.48061" lon="6.09661">
        <ele>1221.21</ele>
        <time>2016-07-02T09:02:30Z</time>
      </trkpt>
      <trkpt lat="46.48033" lon="6.09672">
        <ele>1223.43</ele>
        <time>2016-07-02T09:02:58Z</time>
      </trkpt>
      <trkpt lat="46.48014" lon="6.09696">
        <ele>1226.49</ele>
        <time>2016-07-02T09:03:20Z</time>
      </trkpt>
      <trkpt lat="46.48009" lon="6.0971">
        <ele>1229.6</ele>
        <time>2016-07-02T09:03:37Z</time>
      </trkpt>
      <trkpt lat="46.47997" lon="6.09724">
        <ele>1232.73</ele>
        <time>2016-07-02T09:03:58Z</time>
      </trkpt>
      <trkpt lat="46.47964" lon="6.09736">
        <ele>1235.81</ele>
        <time>2016-07-02T09:04:26Z</time>
      </trkpt>
      <trkpt lat="46.47932" lon="6.09754">
        <ele>1238.83</ele>
        <time>2016-07-02T09:04:54Z</time>
      </trkpt>
      <trkpt lat="46.47905" lon="6.09767">
        <ele>1240.52</ele>
        <time>2016-07-02T09:05:19Z</time>
      </trkpt>
      <trkpt lat="46.47878" lon="6.09781">
        <ele>1243.54</ele>
        <time>2016-07-02T09:05:44Z</time>
      </trkpt>
      <trkpt lat="46.47853" lon="6.0979">
        <ele>1246.59</ele>
        <time>2016-07-02T09:06:06Z</time>
      </trkpt>
      <trkpt lat="46.47826" lon="6.098">
        <ele>1247.46</ele>
        <time>2016-07-02T09:06:34Z</time>
      </trkpt>
      <trkpt lat="46.47795" lon="6.09813">
        <ele>1248.95</ele>
        <time>2016-07-02T09:07:01Z</time>
      </trkpt>
      <trkpt lat="46.4777" lon="6.09816">
        <ele>1249.69</ele>
        <time>2016-07-02T09:07:30Z</time>
      </trkpt>
      <trkpt lat="46.47738" lon="6.09825">
        <ele>1249.57</ele>
        <time>2016-07-02T09:07:56Z</time>
      </trkpt>
      <trkpt lat="46.47715" lon="6.09825">
        <ele>1252.36</ele>
        <time>2016-07-02T09:08:20Z</time>
      </trkpt>
      <trkpt lat="46.47692" lon="6.09829">
        <ele>1253.38</ele>
        <time>2016-07-02T09:08:44Z</time>
      </trkpt>
      <trkpt lat="46.47675" lon="6.09827">
        <ele>1253.89</ele>
        <time>2016-07-02T09:09:07Z</time>
      </trkpt>
      <trkpt lat="46.47648" lon="6.09834">
        <ele>1256.69</ele>
        <time>2016-07-02T09:09:31Z</time>
      </trkpt>
      <trkpt lat="46.47624" lon="6.09829">
        <ele>1259.78</ele>
        <time>2016-07-02T09:09:56Z</time>
      </trkpt>
      <trkpt lat="46.47611" lon="6.09839">
        <ele>1263.07</ele>
        <time>2016-07-02T09:10:16Z</time>
      </trkpt>
      <trkpt lat="46.47603" lon="6.09835">
        <ele>1264.52</ele>
        <time>2016-07-02T09:10:34Z</time>
      </trkpt>
      <trkpt lat="46.47597" lon="6.0983">
        <ele>1264.56</ele>
        <time>2016-07-02T09:10:42Z</time>
      </trkpt>
      <trkpt lat="46.47586" lon="6.09837">
        <ele>1267.93</ele>
        <time>2016-07-02T09:10:58Z</time>
      </trkpt>
      <trkpt lat="46.47585" lon="6.09839">
        <ele>1269.37</ele>
        <time>2016-07-02T09:11:03Z</time>
      </trkpt>
      <trkpt lat="46.47581" lon="6.09859">
        <ele>1273.9</ele>
        <time>2016-07-02T09:11:27Z</time>
      </trkpt>
      <trkpt lat="46.4758" lon="6.09867">
        <ele>1275.19</ele>
        <time>2016-07-02T09:11:36Z</time>
      </trkpt>
      <trkpt lat="46.47579" lon="6.09868">
        <ele>1275.38</ele>
        <time>2016-07-02T09:11:38Z</time>
      </trkpt>
      <trkpt lat="46.47572" lon="6.09871">
        <ele>1276.36</ele>
        <time>2016-07-02T09:11:48Z</time>
      </trkpt>
      <trkpt lat="46.47548" lon="6.09868">
        <ele>1279.39</ele>
        <time>2016-07-02T09:12:09Z</time>
      </trkpt>
      <trkpt lat="46.47527" lon="6.09879">
        <ele>1282.46</ele>
        <time>2016-07-02T09:12:32Z</time>
      </trkpt>
      <trkpt lat="46.47511" lon="6.09892">
        <ele>1285.55</ele>
        <time>2016-07-02T09:12:52Z</time>
      </trkpt>
      <trkpt lat="46.47499" lon="6.09899">
        <ele>1287.04</ele>
        <time>2016-07-02T09:13:17Z</time>
      </trkpt>
      <trkpt lat="46.47485" lon="6.09902">
        <ele>1287.9</ele>
        <time>2016-07-02T09:13:33Z</time>
      </trkpt>
      <trkpt lat="46.47456" lon="6.09903">
        <ele>1289.89</ele>
        <time>2016-07-02T09:13:49Z</time>
      </trkpt>
      <trkpt lat="46.47432" lon="6.09899">
        <ele>1292.61</ele>
        <time>2016-07-02T09:14:08Z</time>
      </trkpt>
      <trkpt lat="46.47426" lon="6.09909">
        <ele>1295.53</ele>
        <time>2016-07-02T09:14:23Z</time>
      </trkpt>
      <trkpt lat="46.47413" lon="6.09927">
        <ele>1298.66</ele>
        <time>2016-07-02T09:14:38Z</time>
      </trkpt>
      <trkpt lat="46.47404" lon="6.09942">
        <ele>1301.22</ele>
        <time>2016-07-02T09:14:53Z</time>
      </trkpt>
      <trkpt lat="46.47403" lon="6.09944">
        <ele>1301.58</ele>
        <time>2016-07-02T09:14:54Z</time>
      </trkpt>
      <trkpt lat="46.47397" lon="6.0995">
        <ele>1302.33</ele>
        <time>2016-07-02T09:15:07Z</time>
      </trkpt>
      <trkpt lat="46.47396" lon="6.09942">
        <ele>1301.94</ele>
        <time>2016-07-02T09:15:30Z</time>
      </trkpt>
      <trkpt lat="46.47381" lon="6.09929">
        <ele>1298.94</ele>
        <time>2016-07-02T09:15:47Z</time>
      </trkpt>
      <trkpt lat="46.47378" lon="6.0993">
        <ele>1297.89</ele>
        <time>2016-07-02T09:15:52Z</time>
      </trkpt>
      <trkpt lat="46.47373" lon="6.09938">
        <ele>1297.91</ele>
        <time>2016-07-02T09:16:04Z</time>
      </trkpt>
      <trkpt lat="46.47359" lon="6.09954">
        <ele>1297.08</ele>
        <time>2016-07-02T09:16:32Z</time>
      </trkpt>
      <trkpt lat="46.47355" lon="6.09963">
        <ele>1297.67</ele>
        <time>2016-07-02T09:16:37Z</time>
      </trkpt>
      <trkpt lat="46.47345" lon="6.09978">
        <ele>1298.87</ele>
        <time>2016-07-02T09:16:50Z</time>
      </trkpt>
      <trkpt lat="46.47344" lon="6.0998">
        <ele>1298.87</ele>
        <time>2016-07-02T09:16:52Z</time>
      </trkpt>
      <trkpt lat="46.47334" lon="6.09995">
        <ele>1297.84</ele>
        <time>2016-07-02T09:17:05Z</time>
      </trkpt>
      <trkpt lat="46.47331" lon="6.10001">
        <ele>1296.38</ele>
        <time>2016-07-02T09:17:10Z</time>
      </trkpt>
      <trkpt lat="46.47323" lon="6.10012">
        <ele>1294.36</ele>
        <time>2016-07-02T09:17:16Z</time>
      </trkpt>
      <trkpt lat="46.47312" lon="6.10008">
        <ele>1290.53</ele>
        <time>2016-07-02T09:17:28Z</time>
      </trkpt>
      <trkpt lat="46.47301" lon="6.10012">
        <ele>1287.27</ele>
        <time>2016-07-02T09:17:38Z</time>
      </trkpt>
      <trkpt lat="46.47301" lon="6.10013">
        <ele>1287.02</ele>
        <time>2016-07-02T09:17:39Z</time>
      </trkpt>
      <trkpt lat="46.4729" lon="6.10016">
        <ele>1285.1</ele>
        <time>2016-07-02T09:17:51Z</time>
      </trkpt>
      <trkpt lat="46.47281" lon="6.09986">
        <ele>1282.62</ele>
        <time>2016-07-02T09:18:12Z</time>
      </trkpt>
      <trkpt lat="46.47275" lon="6.09969">
        <ele>1280.86</ele>
        <time>2016-07-02T09:18:25Z</time>
      </trkpt>
      <trkpt lat="46.47263" lon="6.09946">
        <ele>1278.83</ele>
        <time>2016-07-02T09:18:39Z</time>
      </trkpt>
      <trkpt lat="46.47254" lon="6.09926">
        <ele>1276.97</ele>
        <time>2016-07-02T09:18:53Z</time>
      </trkpt>
      <trkpt lat="46.47245" lon="6.09909">
        <ele>1274.85</ele>
        <time>2016-07-02T09:19:02Z</time>
      </trkpt>
      <trkpt lat="46.47243" lon="6.09904">
        <ele>1274.6</ele>
        <time>2016-07-02T09:19:06Z</time>
      </trkpt>
      <trkpt lat="46.47222" lon="6.09883">
        <ele>1271.62</ele>
        <time>2016-07-02T09:19:25Z</time>
      </trkpt>
      <trkpt lat="46.4721" lon="6.0987">
        <ele>1271.55</ele>
        <time>2016-07-02T09:19:39Z</time>
      </trkpt>
      <trkpt lat="46.47202" lon="6.0986">
        <ele>1272.04</ele>
        <time>2016-07-02T09:19:53Z</time>
      </trkpt>
      <trkpt lat="46.47199" lon="6.09858">
        <ele>1271.9</ele>
        <time>2016-07-02T09:19:55Z</time>
      </trkpt>
      <trkpt lat="46.47185" lon="6.09839">
        <ele>1270.9</ele>
        <time>2016-07-02T09:20:13Z</time>
      </trkpt>
      <trkpt lat="46.47165" lon="6.09831">
        <ele>1268.46</ele>
        <time>2016-07-02T09:20:35Z</time>
      </trkpt>
      <trkpt lat="46.47164" lon="6.0983">
        <ele>1268.11</ele>
        <time>2016-07-02T09:20:39Z</time>
      </trkpt>
      <trkpt lat="46.47157" lon="6.09822">
        <ele>1267.75</ele>
        <time>2016-07-02T09:21:38Z</time>
      </trkpt>
      <trkpt lat="46.47156" lon="6.09818">
        <ele>1268.15</ele>
        <time>2016-07-02T09:21:40Z</time>
      </trkpt>
      <trkpt lat="46.47154" lon="6.09777">
        <ele>1269.47</ele>
        <time>2016-07-02T09:22:04Z</time>
      </trkpt>
      <trkpt lat="46.4714" lon="6.09743">
        <ele>1268.52</ele>
        <time>2016-07-02T09:22:24Z</time>
      </trkpt>
      <trkpt lat="46.47133" lon="6.09701">
        <ele>1265.39</ele>
        <time>2016-07-02T09:22:48Z</time>
      </trkpt>
      <trkpt lat="46.47126" lon="6.09681">
        <ele>1263.36</ele>
        <time>2016-07-02T09:23:00Z</time>
      </trkpt>
      <trkpt lat="46.47124" lon="6.09678">
        <ele>1262.84</ele>
        <time>2016-07-02T09:23:02Z</time>
      </trkpt>
      <trkpt lat="46.4712" lon="6.09664">
        <ele>1262.48</ele>
        <time>2016-07-02T09:23:10Z</time>
      </trkpt>
      <trkpt lat="46.47119" lon="6.09658">
        <ele>1262.62</ele>
        <time>2016-07-02T09:23:13Z</time>
      </trkpt>
      <trkpt lat="46.47109" lon="6.09635">
        <ele>1261.67</ele>
        <time>2016-07-02T09:23:26Z</time>
      </trkpt>
      <trkpt lat="46.47101" lon="6.09613">
        <ele>1261.13</ele>
        <time>2016-07-02T09:23:42Z</time>
      </trkpt>
      <trkpt lat="46.47095" lon="6.09585">
        <ele>1259.9</ele>
        <time>2016-07-02T09:23:56Z</time>
      </trkpt>
      <trkpt lat="46.47092" lon="6.09564">
        <ele>1259.14</ele>
        <time>2016-07-02T09:24:08Z</time>
      </trkpt>
      <trkpt lat="46.47092" lon="6.09552">
        <ele>1258.21</ele>
        <time>2016-07-02T09:24:15Z</time>
      </trkpt>
      <trkpt lat="46.47086" lon="6.09537">
        <ele>1258.46</ele>
        <time>2016-07-02T09:24:24Z</time>
      </trkpt>
      <trkpt lat="46.4708" lon="6.09512">
        <ele>1258.13</ele>
        <time>2016-07-02T09:24:39Z</time>
      </trkpt>
      <trkpt lat="46.47079" lon="6.09495">
        <ele>1257</ele>
        <time>2016-07-02T09:24:49Z</time>
      </trkpt>
      <trkpt lat="46.47078" lon="6.09484">
        <ele>1257.3</ele>
        <time>2016-07-02T09:25:01Z</time>
      </trkpt>
      <trkpt lat="46.47078" lon="6.09465">
        <ele>1256.47</ele>
        <time>2016-07-02T09:25:22Z</time>
      </trkpt>
      <trkpt lat="46.47062" lon="6.0943">
        <ele>1255.76</ele>
        <time>2016-07-02T09:25:44Z</time>
      </trkpt>
      <trkpt lat="46.47051" lon="6.09388">
        <ele>1253.91</ele>
        <time>2016-07-02T09:26:10Z</time>
      </trkpt>
      <trkpt lat="46.47044" lon="6.09361">
        <ele>1251.22</ele>
        <time>2016-07-02T09:26:28Z</time>
      </trkpt>
      <trkpt lat="46.4703" lon="6.09343">
        <ele>1249.8</ele>
        <time>2016-07-02T09:26:40Z</time>
      </trkpt>
      <trkpt lat="46.47015" lon="6.09322">
        <ele>1246.64</ele>
        <time>2016-07-02T09:26:57Z</time>
      </trkpt>
      <trkpt lat="46.47014" lon="6.09294">
        <ele>1243.55</ele>
        <time>2016-07-02T09:27:11Z</time>
      </trkpt>
      <trkpt lat="46.46997" lon="6.09273">
        <ele>1241.46</ele>
        <time>2016-07-02T09:27:28Z</time>
      </trkpt>
      <trkpt lat="46.46982" lon="6.09245">
        <ele>1238.45</ele>
        <time>2016-07-02T09:27:46Z</time>
      </trkpt>
      <trkpt lat="46.46972" lon="6.0922">
        <ele>1237.08</ele>
        <time>2016-07-02T09:28:01Z</time>
      </trkpt>
      <trkpt lat="46.46962" lon="6.09196">
        <ele>1234.69</ele>
        <time>2016-07-02T09:28:16Z</time>
      </trkpt>
      <trkpt lat="46.46956" lon="6.09175">
        <ele>1233.2</ele>
        <time>2016-07-02T09:28:29Z</time>
      </trkpt>
      <trkpt lat="46.46954" lon="6.09163">
        <ele>1233.13</ele>
        <time>2016-07-02T09:28:34Z</time>
      </trkpt>
      <trkpt lat="46.46949" lon="6.09139">
        <ele>1233.36</ele>
        <time>2016-07-02T09:28:47Z</time>
      </trkpt>
      <trkpt lat="46.46948" lon="6.09134">
        <ele>1233.34</ele>
        <time>2016-07-02T09:28:50Z</time>
      </trkpt>
      <trkpt lat="46.46942" lon="6.09113">
        <ele>1233.61</ele>
        <time>2016-07-02T09:29:03Z</time>
      </trkpt>
      <trkpt lat="46.46939" lon="6.09103">
        <ele>1233.1</ele>
        <time>2016-07-02T09:29:09Z</time>
      </trkpt>
      <trkpt lat="46.46936" lon="6.09099">
        <ele>1232.93</ele>
        <time>2016-07-02T09:29:13Z</time>
      </trkpt>
      <trkpt lat="46.46929" lon="6.09081">
        <ele>1232.9</ele>
        <time>2016-07-02T09:29:26Z</time>
      </trkpt>
      <trkpt lat="46.46918" lon="6.09062">
        <ele>1232.97</ele>
        <time>2016-07-02T09:29:39Z</time>
      </trkpt>
      <trkpt lat="46.46917" lon="6.09056">
        <ele>1232.51</ele>
        <time>2016-07-02T09:29:44Z</time>
      </trkpt>
      <trkpt lat="46.46906" lon="6.0903">
        <ele>1231.58</ele>
        <time>2016-07-02T09:30:01Z</time>
      </trkpt>
      <trkpt lat="46.46902" lon="6.09006">
        <ele>1231.56</ele>
        <time>2016-07-02T09:30:15Z</time>
      </trkpt>
      <trkpt lat="46.46896" lon="6.08987">
        <ele>1232.02</ele>
        <time>2016-07-02T09:30:29Z</time>
      </trkpt>
      <trkpt lat="46.46888" lon="6.08961">
        <ele>1230.22</ele>
        <time>2016-07-02T09:30:44Z</time>
      </trkpt>
      <trkpt lat="46.46879" lon="6.08941">
        <ele>1229.69</ele>
        <time>2016-07-02T09:30:59Z</time>
      </trkpt>
      <trkpt lat="46.4687" lon="6.08914">
        <ele>1227.33</ele>
        <time>2016-07-02T09:31:16Z</time>
      </trkpt>
      <trkpt lat="46.46859" lon="6.08885">
        <ele>1224.81</ele>
        <time>2016-07-02T09:31:34Z</time>
      </trkpt>
      <trkpt lat="46.46847" lon="6.08858">
        <ele>1223.65</ele>
        <time>2016-07-02T09:31:51Z</time>
      </trkpt>
      <trkpt lat="46.4684" lon="6.08837">
        <ele>1223.79</ele>
        <time>2016-07-02T09:32:06Z</time>
      </trkpt>
      <trkpt lat="46.46831" lon="6.08807">
        <ele>1223.44</ele>
        <time>2016-07-02T09:32:25Z</time>
      </trkpt>
      <trkpt lat="46.4682" lon="6.08773">
        <ele>1223.38</ele>
        <time>2016-07-02T09:32:46Z</time>
      </trkpt>
      <trkpt lat="46.46808" lon="6.08744">
        <ele>1222.74</ele>
        <time>2016-07-02T09:33:04Z</time>
      </trkpt>
      <trkpt lat="46.46807" lon="6.08736">
        <ele>1222.62</ele>
        <time>2016-07-02T09:33:08Z</time>
      </trkpt>
      <trkpt lat="46.46799" lon="6.08708">
        <ele>1222.01</ele>
        <time>2016-07-02T09:33:24Z</time>
      </trkpt>
      <trkpt lat="46.46792" lon="6.08682">
        <ele>1221.76</ele>
        <time>2016-07-02T09:33:40Z</time>
      </trkpt>
      <trkpt lat="46.4679" lon="6.08673">
        <ele>1222.49</ele>
        <time>2016-07-02T09:33:46Z</time>
      </trkpt>
      <trkpt lat="46.46785" lon="6.08653">
        <ele>1223.52</ele>
        <time>2016-07-02T09:33:59Z</time>
      </trkpt>
      <trkpt lat="46.46781" lon="6.08638">
        <ele>1220.5</ele>
        <time>2016-07-02T09:34:14Z</time>
      </trkpt>
      <trkpt lat="46.46771" lon="6.08612">
        <ele>1219.41</ele>
        <time>2016-07-02T09:34:32Z</time>
      </trkpt>
      <trkpt lat="46.46767" lon="6.08597">
        <ele>1220.52</ele>
        <time>2016-07-02T09:34:44Z</time>
      </trkpt>
      <trkpt lat="46.46757" lon="6.08573">
        <ele>1218.5</ele>
        <time>2016-07-02T09:35:01Z</time>
      </trkpt>
      <trkpt lat="46.46756" lon="6.0857">
        <ele>1218.31</ele>
        <time>2016-07-02T09:35:03Z</time>
      </trkpt>
      <trkpt lat="46.46752" lon="6.08561">
        <ele>1218.13</ele>
        <time>2016-07-02T09:35:14Z</time>
      </trkpt>
      <trkpt lat="46.4674" lon="6.08529">
        <ele>1219.33</ele>
        <time>2016-07-02T09:35:47Z</time>
      </trkpt>
      <trkpt lat="46.46729" lon="6.08513">
        <ele>1219.21</ele>
        <time>2016-07-02T09:35:57Z</time>
      </trkpt>
      <trkpt lat="46.46717" lon="6.08493">
        <ele>1219.02</ele>
        <time>2016-07-02T09:36:15Z</time>
      </trkpt>
      <trkpt lat="46.46706" lon="6.08477">
        <ele>1217.49</ele>
        <time>2016-07-02T09:36:28Z</time>
      </trkpt>
      <trkpt lat="46.467" lon="6.08465">
        <ele>1216.77</ele>
        <time>2016-07-02T09:36:40Z</time>
      </trkpt>
      <trkpt lat="46.46688" lon="6.08443">
        <ele>1215.53</ele>
        <time>2016-07-02T09:36:59Z</time>
      </trkpt>
      <trkpt lat="46.46687" lon="6.08437">
        <ele>1215.31</ele>
        <time>2016-07-02T09:37:02Z</time>
      </trkpt>
      <trkpt lat="46.46683" lon="6.08429">
        <ele>1214.31</ele>
        <time>2016-07-02T09:37:07Z</time>
      </trkpt>
      <trkpt lat="46.4668" lon="6.08424">
        <ele>1213.92</ele>
        <time>2016-07-02T09:37:11Z</time>
      </trkpt>
      <trkpt lat="46.46668" lon="6.08405">
        <ele>1211.9</ele>
        <time>2016-07-02T09:37:25Z</time>
      </trkpt>
      <trkpt lat="46.46661" lon="6.08392">
        <ele>1211.06</ele>
        <time>2016-07-02T09:37:33Z</time>
      </trkpt>
      <trkpt lat="46.46649" lon="6.08373">
        <ele>1209.81</ele>
        <time>2016-07-02T09:37:47Z</time>
      </trkpt>
      <trkpt lat="46.46648" lon="6.08371">
        <ele>1209.81</ele>
        <time>2016-07-02T09:37:48Z</time>
      </trkpt>
      <trkpt lat="46.46644" lon="6.08368">
        <ele>1209.3</ele>
        <time>2016-07-02T09:37:52Z</time>
      </trkpt>
      <trkpt lat="46.46637" lon="6.08356">
        <ele>1208.07</ele>
        <time>2016-07-02T09:38:00Z</time>
      </trkpt>
      <trkpt lat="46.46627" lon="6.08337">
        <ele>1206.08</ele>
        <time>2016-07-02T09:38:12Z</time>
      </trkpt>
      <trkpt lat="46.46624" lon="6.08332">
        <ele>1205.94</ele>
        <time>2016-07-02T09:38:17Z</time>
      </trkpt>
      <trkpt lat="46.4662" lon="6.08324">
        <ele>1204.09</ele>
        <time>2016-07-02T09:38:22Z</time>
      </trkpt>
      <trkpt lat="46.46612" lon="6.08312">
        <ele>1201.16</ele>
        <time>2016-07-02T09:38:36Z</time>
      </trkpt>
      <trkpt lat="46.46604" lon="6.08289">
        <ele>1199.1</ele>
        <time>2016-07-02T09:38:49Z</time>
      </trkpt>
      <trkpt lat="46.46602" lon="6.08277">
        <ele>1199.57</ele>
        <time>2016-07-02T09:38:57Z</time>
      </trkpt>
      <trkpt lat="46.46606" lon="6.08262">
        <ele>1198.84</ele>
        <time>2016-07-02T09:39:10Z</time>
      </trkpt>
      <trkpt lat="46.46608" lon="6.08261">
        <ele>1198.58</ele>
        <time>2016-07-02T09:39:15Z</time>
      </trkpt>
      <trkpt lat="46.46606" lon="6.08222">
        <ele>1196.79</ele>
        <time>2016-07-02T09:39:44Z</time>
      </trkpt>
      <trkpt lat="46.466" lon="6.08208">
        <ele>1196.55</ele>
        <time>2016-07-02T09:39:52Z</time>
      </trkpt>
      <trkpt lat="46.46596" lon="6.08202">
        <ele>1196.95</ele>
        <time>2016-07-02T09:39:57Z</time>
      </trkpt>
      <trkpt lat="46.46594" lon="6.08181">
        <ele>1196.09</ele>
        <time>2016-07-02T09:40:09Z</time>
      </trkpt>
      <trkpt lat="46.46592" lon="6.08157">
        <ele>1195.4</ele>
        <time>2016-07-02T09:40:23Z</time>
      </trkpt>
      <trkpt lat="46.46592" lon="6.08147">
        <ele>1195.02</ele>
        <time>2016-07-02T09:40:28Z</time>
      </trkpt>
      <trkpt lat="46.46595" lon="6.08134">
        <ele>1194.77</ele>
        <time>2016-07-02T09:40:35Z</time>
      </trkpt>
      <trkpt lat="46.46599" lon="6.08123">
        <ele>1194.24</ele>
        <time>2016-07-02T09:40:41Z</time>
      </trkpt>
      <trkpt lat="46.46601" lon="6.08112">
        <ele>1193.88</ele>
        <time>2016-07-02T09:40:47Z</time>
      </trkpt>
      <trkpt lat="46.46608" lon="6.08094">
        <ele>1193.17</ele>
        <time>2016-07-02T09:41:00Z</time>
      </trkpt>
      <trkpt lat="46.46611" lon="6.08084">
        <ele>1193.52</ele>
        <time>2016-07-02T09:41:08Z</time>
      </trkpt>
      <trkpt lat="46.46613" lon="6.08057">
        <ele>1196.31</ele>
        <time>2016-07-02T09:41:28Z</time>
      </trkpt>
      <trkpt lat="46.46614" lon="6.08054">
        <ele>1196.46</ele>
        <time>2016-07-02T09:41:30Z</time>
      </trkpt>
      <trkpt lat="46.46615" lon="6.08027">
        <ele>1196.42</ele>
        <time>2016-07-02T09:41:49Z</time>
      </trkpt>
      <trkpt lat="46.46614" lon="6.08024">
        <ele>1196.3</ele>
        <time>2016-07-02T09:41:51Z</time>
      </trkpt>
      <trkpt lat="46.46606" lon="6.08002">
        <ele>1195.64</ele>
        <time>2016-07-02T09:42:08Z</time>
      </trkpt>
      <trkpt lat="46.46605" lon="6.07998">
        <ele>1195.64</ele>
        <time>2016-07-02T09:42:11Z</time>
      </trkpt>
      <trkpt lat="46.46603" lon="6.07994">
        <ele>1195.75</ele>
        <time>2016-07-02T09:42:17Z</time>
      </trkpt>
      <trkpt lat="46.46593" lon="6.07974">
        <ele>1196.31</ele>
        <time>2016-07-02T09:42:28Z</time>
      </trkpt>
      <trkpt lat="46.46588" lon="6.0795">
        <ele>1196.49</ele>
        <time>2016-07-02T09:42:42Z</time>
      </trkpt>
      <trkpt lat="46.46581" lon="6.07933">
        <ele>1196.23</ele>
        <time>2016-07-02T09:42:56Z</time>
      </trkpt>
      <trkpt lat="46.4658" lon="6.07917">
        <ele>1196.44</ele>
        <time>2016-07-02T09:43:09Z</time>
      </trkpt>
      <trkpt lat="46.46579" lon="6.07891">
        <ele>1196.9</ele>
        <time>2016-07-02T09:43:25Z</time>
      </trkpt>
      <trkpt lat="46.46577" lon="6.0788">
        <ele>1196.76</ele>
        <time>2016-07-02T09:43:31Z</time>
      </trkpt>
      <trkpt lat="46.46576" lon="6.07875">
        <ele>1196.68</ele>
        <time>2016-07-02T09:43:34Z</time>
      </trkpt>
      <trkpt lat="46.46576" lon="6.0787">
        <ele>1196.55</ele>
        <time>2016-07-02T09:43:37Z</time>
      </trkpt>
      <trkpt lat="46.46576" lon="6.07844">
        <ele>1195</ele>
        <time>2016-07-02T09:43:52Z</time>
      </trkpt>
      <trkpt lat="46.46577" lon="6.07816">
        <ele>1193.56</ele>
        <time>2016-07-02T09:44:06Z</time>
      </trkpt>
      <trkpt lat="46.46577" lon="6.07791">
        <ele>1193.25</ele>
        <time>2016-07-02T09:44:19Z</time>
      </trkpt>
      <trkpt lat="46.46574" lon="6.07781">
        <ele>1193.18</ele>
        <time>2016-07-02T09:44:26Z</time>
      </trkpt>
      <trkpt lat="46.46564" lon="6.07764">
        <ele>1192.01</ele>
        <time>2016-07-02T09:44:41Z</time>
      </trkpt>
      <trkpt lat="46.46563" lon="6.07763">
        <ele>1192.01</ele>
        <time>2016-07-02T09:44:42Z</time>
      </trkpt>
      <trkpt lat="46.46554" lon="6.07742">
        <ele>1191.49</ele>
        <time>2016-07-02T09:44:57Z</time>
      </trkpt>
      <trkpt lat="46.46542" lon="6.07722">
        <ele>1189.58</ele>
        <time>2016-07-02T09:45:13Z</time>
      </trkpt>
      <trkpt lat="46.46526" lon="6.077">
        <ele>1186.87</ele>
        <time>2016-07-02T09:45:28Z</time>
      </trkpt>
      <trkpt lat="46.46513" lon="6.07674">
        <ele>1184.56</ele>
        <time>2016-07-02T09:45:43Z</time>
      </trkpt>
      <trkpt lat="46.46511" lon="6.0767">
        <ele>1184.18</ele>
        <time>2016-07-02T09:45:46Z</time>
      </trkpt>
      <trkpt lat="46.46499" lon="6.07652">
        <ele>1181.92</ele>
        <time>2016-07-02T09:46:01Z</time>
      </trkpt>
      <trkpt lat="46.46498" lon="6.07651">
        <ele>1181.68</ele>
        <time>2016-07-02T09:46:02Z</time>
      </trkpt>
      <trkpt lat="46.46486" lon="6.07639">
        <ele>1178.85</ele>
        <time>2016-07-02T09:46:19Z</time>
      </trkpt>
      <trkpt lat="46.46475" lon="6.07624">
        <ele>1176.46</ele>
        <time>2016-07-02T09:46:36Z</time>
      </trkpt>
      <trkpt lat="46.46467" lon="6.076">
        <ele>1173.12</ele>
        <time>2016-07-02T09:46:53Z</time>
      </trkpt>
      <trkpt lat="46.46461" lon="6.07572">
        <ele>1170.65</ele>
        <time>2016-07-02T09:47:12Z</time>
      </trkpt>
      <trkpt lat="46.46449" lon="6.07547">
        <ele>1168.93</ele>
        <time>2016-07-02T09:47:27Z</time>
      </trkpt>
      <trkpt lat="46.46444" lon="6.07529">
        <ele>1167.08</ele>
        <time>2016-07-02T09:47:38Z</time>
      </trkpt>
      <trkpt lat="46.46442" lon="6.07519">
        <ele>1166.46</ele>
        <time>2016-07-02T09:47:43Z</time>
      </trkpt>
      <trkpt lat="46.46441" lon="6.07512">
        <ele>1165.87</ele>
        <time>2016-07-02T09:47:47Z</time>
      </trkpt>
      <trkpt lat="46.46435" lon="6.075">
        <ele>1165.21</ele>
        <time>2016-07-02T09:47:55Z</time>
      </trkpt>
      <trkpt lat="46.46429" lon="6.07495">
        <ele>1164.5</ele>
        <time>2016-07-02T09:48:00Z</time>
      </trkpt>
      <trkpt lat="46.46411" lon="6.07487">
        <ele>1163.59</ele>
        <time>2016-07-02T09:48:19Z</time>
      </trkpt>
      <trkpt lat="46.46386" lon="6.07482">
        <ele>1163.84</ele>
        <time>2016-07-02T09:48:40Z</time>
      </trkpt>
      <trkpt lat="46.46381" lon="6.07478">
        <ele>1164.11</ele>
        <time>2016-07-02T09:48:45Z</time>
      </trkpt>
      <trkpt lat="46.46361" lon="6.07468">
        <ele>1164.03</ele>
        <time>2016-07-02T09:48:59Z</time>
      </trkpt>
      <trkpt lat="46.46355" lon="6.07445">
        <ele>1163.38</ele>
        <time>2016-07-02T09:49:13Z</time>
      </trkpt>
      <trkpt lat="46.46356" lon="6.0743">
        <ele>1162.3</ele>
        <time>2016-07-02T09:49:26Z</time>
      </trkpt>
      <trkpt lat="46.46356" lon="6.07429">
        <ele>1162.31</ele>
        <time>2016-07-02T09:49:29Z</time>
      </trkpt>
      <trkpt lat="46.46353" lon="6.07424">
        <ele>1162.34</ele>
        <time>2016-07-02T09:50:00Z</time>
      </trkpt>
      <trkpt lat="46.46352" lon="6.07423">
        <ele>1162.35</ele>
        <time>2016-07-02T09:50:01Z</time>
      </trkpt>
      <trkpt lat="46.4634" lon="6.07409">
        <ele>1162.74</ele>
        <time>2016-07-02T09:50:12Z</time>
      </trkpt>
      <trkpt lat="46.46324" lon="6.07409">
        <ele>1163.61</ele>
        <time>2016-07-02T09:50:29Z</time>
      </trkpt>
      <trkpt lat="46.46304" lon="6.07424">
        <ele>1164.56</ele>
        <time>2016-07-02T09:50:47Z</time>
      </trkpt>
      <trkpt lat="46.46296" lon="6.07434">
        <ele>1164.94</ele>
        <time>2016-07-02T09:50:55Z</time>
      </trkpt>
      <trkpt lat="46.46287" lon="6.0745">
        <ele>1165.33</ele>
        <time>2016-07-02T09:51:06Z</time>
      </trkpt>
      <trkpt lat="46.46277" lon="6.07476">
        <ele>1165.99</ele>
        <time>2016-07-02T09:51:23Z</time>
      </trkpt>
      <trkpt lat="46.46275" lon="6.07484">
        <ele>1166.16</ele>
        <time>2016-07-02T09:51:29Z</time>
      </trkpt>
      <trkpt lat="46.46276" lon="6.07492">
        <ele>1166.41</ele>
        <time>2016-07-02T09:51:34Z</time>
      </trkpt>
      <trkpt lat="46.46272" lon="6.075">
        <ele>1165.97</ele>
        <time>2016-07-02T09:51:39Z</time>
      </trkpt>
      <trkpt lat="46.4626" lon="6.07517">
        <ele>1166.64</ele>
        <time>2016-07-02T09:51:54Z</time>
      </trkpt>
      <trkpt lat="46.46258" lon="6.07521">
        <ele>1166.73</ele>
        <time>2016-07-02T09:51:57Z</time>
      </trkpt>
      <trkpt lat="46.4625" lon="6.07539">
        <ele>1167.47</ele>
        <time>2016-07-02T09:52:15Z</time>
      </trkpt>
      <trkpt lat="46.46235" lon="6.07555">
        <ele>1168.57</ele>
        <time>2016-07-02T09:52:32Z</time>
      </trkpt>
      <trkpt lat="46.46203" lon="6.07568">
        <ele>1169.73</ele>
        <time>2016-07-02T09:52:55Z</time>
      </trkpt>
      <trkpt lat="46.46179" lon="6.07557">
        <ele>1170.5</ele>
        <time>2016-07-02T09:53:12Z</time>
      </trkpt>
      <trkpt lat="46.4616" lon="6.07542">
        <ele>1171.39</ele>
        <time>2016-07-02T09:53:29Z</time>
      </trkpt>
      <trkpt lat="46.46144" lon="6.07527">
        <ele>1172.47</ele>
        <time>2016-07-02T09:53:46Z</time>
      </trkpt>
      <trkpt lat="46.46133" lon="6.07513">
        <ele>1173.33</ele>
        <time>2016-07-02T09:53:58Z</time>
      </trkpt>
      <trkpt lat="46.46119" lon="6.07498">
        <ele>1174.11</ele>
        <time>2016-07-02T09:54:13Z</time>
      </trkpt>
      <trkpt lat="46.46116" lon="6.07496">
        <ele>1174.22</ele>
        <time>2016-07-02T09:54:15Z</time>
      </trkpt>
      <trkpt lat="46.46112" lon="6.07497">
        <ele>1174.51</ele>
        <time>2016-07-02T09:54:19Z</time>
      </trkpt>
      <trkpt lat="46.46095" lon="6.07505">
        <ele>1176.34</ele>
        <time>2016-07-02T09:54:37Z</time>
      </trkpt>
      <trkpt lat="46.46072" lon="6.07512">
        <ele>1179.35</ele>
        <time>2016-07-02T09:54:57Z</time>
      </trkpt>
      <trkpt lat="46.46055" lon="6.0752">
        <ele>1181.61</ele>
        <time>2016-07-02T09:55:13Z</time>
      </trkpt>
      <trkpt lat="46.46046" lon="6.07527">
        <ele>1182.72</ele>
        <time>2016-07-02T09:55:21Z</time>
      </trkpt>
      <trkpt lat="46.46032" lon="6.07543">
        <ele>1184.17</ele>
        <time>2016-07-02T09:55:34Z</time>
      </trkpt>
      <trkpt lat="46.46018" lon="6.07559">
        <ele>1185.02</ele>
        <time>2016-07-02T09:55:48Z</time>
      </trkpt>
      <trkpt lat="46.46003" lon="6.07572">
        <ele>1185.96</ele>
        <time>2016-07-02T09:56:04Z</time>
      </trkpt>
      <trkpt lat="46.45994" lon="6.0758">
        <ele>1186.37</ele>
        <time>2016-07-02T09:56:12Z</time>
      </trkpt>
      <trkpt lat="46.45987" lon="6.07592">
        <ele>1186.92</ele>
        <time>2016-07-02T09:56:23Z</time>
      </trkpt>
      <trkpt lat="46.45967" lon="6.07615">
        <ele>1187.17</ele>
        <time>2016-07-02T09:56:44Z</time>
      </trkpt>
      <trkpt lat="46.45953" lon="6.07626">
        <ele>1187.65</ele>
        <time>2016-07-02T09:56:59Z</time>
      </trkpt>
      <trkpt lat="46.45937" lon="6.07649">
        <ele>1189.19</ele>
        <time>2016-07-02T09:57:14Z</time>
      </trkpt>
      <trkpt lat="46.45926" lon="6.07665">
        <ele>1189.77</ele>
        <time>2016-07-02T09:57:28Z</time>
      </trkpt>
      <trkpt lat="46.45913" lon="6.0768">
        <ele>1190.2</ele>
        <time>2016-07-02T09:57:43Z</time>
      </trkpt>
      <trkpt lat="46.45898" lon="6.07694">
        <ele>1190.85</ele>
        <time>2016-07-02T09:57:57Z</time>
      </trkpt>
      <trkpt lat="46.45897" lon="6.07695">
        <ele>1191.02</ele>
        <time>2016-07-02T09:57:58Z</time>
      </trkpt>
      <trkpt lat="46.45893" lon="6.077">
        <ele>1191.24</ele>
        <time>2016-07-02T09:58:02Z</time>
      </trkpt>
      <trkpt lat="46.45877" lon="6.07721">
        <ele>1192.07</ele>
        <time>2016-07-02T09:58:18Z</time>
      </trkpt>
      <trkpt lat="46.45869" lon="6.0773">
        <ele>1192.58</ele>
        <time>2016-07-02T09:58:31Z</time>
      </trkpt>
      <trkpt lat="46.4585" lon="6.07749">
        <ele>1194.01</ele>
        <time>2016-07-02T09:58:49Z</time>
      </trkpt>
      <trkpt lat="46.45838" lon="6.07765">
        <ele>1195.4</ele>
        <time>2016-07-02T09:59:03Z</time>
      </trkpt>
      <trkpt lat="46.45828" lon="6.07786">
        <ele>1197.17</ele>
        <time>2016-07-02T09:59:19Z</time>
      </trkpt>
      <trkpt lat="46.45827" lon="6.07787">
        <ele>1197.39</ele>
        <time>2016-07-02T09:59:20Z</time>
      </trkpt>
      <trkpt lat="46.45818" lon="6.07809">
        <ele>1198.97</ele>
        <time>2016-07-02T09:59:36Z</time>
      </trkpt>
      <trkpt lat="46.45809" lon="6.07829">
        <ele>1199.87</ele>
        <time>2016-07-02T09:59:51Z</time>
      </trkpt>
      <trkpt lat="46.45796" lon="6.07847">
        <ele>1200.98</ele>
        <time>2016-07-02T10:00:07Z</time>
      </trkpt>
      <trkpt lat="46.45787" lon="6.07865">
        <ele>1200.92</ele>
        <time>2016-07-02T10:00:21Z</time>
      </trkpt>
      <trkpt lat="46.45788" lon="6.07873">
        <ele>1200.95</ele>
        <time>2016-07-02T10:00:32Z</time>
      </trkpt>
      <trkpt lat="46.45788" lon="6.07882">
        <ele>1201.54</ele>
        <time>2016-07-02T10:00:38Z</time>
      </trkpt>
      <trkpt lat="46.45769" lon="6.07911">
        <ele>1204.56</ele>
        <time>2016-07-02T10:01:01Z</time>
      </trkpt>
      <trkpt lat="46.45745" lon="6.07937">
        <ele>1207.78</ele>
        <time>2016-07-02T10:01:25Z</time>
      </trkpt>
      <trkpt lat="46.4574" lon="6.07959">
        <ele>1208.68</ele>
        <time>2016-07-02T10:01:43Z</time>
      </trkpt>
      <trkpt lat="46.45738" lon="6.07976">
        <ele>1205.43</ele>
        <time>2016-07-02T10:01:52Z</time>
      </trkpt>
      <trkpt lat="46.45737" lon="6.07986">
        <ele>1202.42</ele>
        <time>2016-07-02T10:01:57Z</time>
      </trkpt>
      <trkpt lat="46.45737" lon="6.0799">
        <ele>1203.02</ele>
        <time>2016-07-02T10:01:59Z</time>
      </trkpt>
      <trkpt lat="46.45736" lon="6.08006">
        <ele>1204.19</ele>
        <time>2016-07-02T10:02:05Z</time>
      </trkpt>
      <trkpt lat="46.45738" lon="6.08013">
        <ele>1204.03</ele>
        <time>2016-07-02T10:02:09Z</time>
      </trkpt>
      <trkpt lat="46.45734" lon="6.08022">
        <ele>1204.37</ele>
        <time>2016-07-02T10:02:15Z</time>
      </trkpt>
      <trkpt lat="46.45734" lon="6.08033">
        <ele>1204.4</ele>
        <time>2016-07-02T10:02:21Z</time>
      </trkpt>
      <trkpt lat="46.45733" lon="6.08036">
        <ele>1204.52</ele>
        <time>2016-07-02T10:02:23Z</time>
      </trkpt>
      <trkpt lat="46.45731" lon="6.08045">
        <ele>1204.72</ele>
        <time>2016-07-02T10:02:28Z</time>
      </trkpt>
      <trkpt lat="46.45726" lon="6.08053">
        <ele>1203.28</ele>
        <time>2016-07-02T10:02:40Z</time>
      </trkpt>
      <trkpt lat="46.45726" lon="6.08062">
        <ele>1203.07</ele>
        <time>2016-07-02T10:02:45Z</time>
      </trkpt>
      <trkpt lat="46.45725" lon="6.08064">
        <ele>1202.33</ele>
        <time>2016-07-02T10:02:46Z</time>
      </trkpt>
      <trkpt lat="46.45724" lon="6.0809">
        <ele>1202.29</ele>
        <time>2016-07-02T10:03:00Z</time>
      </trkpt>
      <trkpt lat="46.45722" lon="6.08093">
        <ele>1202.25</ele>
        <time>2016-07-02T10:03:02Z</time>
      </trkpt>
      <trkpt lat="46.45719" lon="6.08099">
        <ele>1202.46</ele>
        <time>2016-07-02T10:03:06Z</time>
      </trkpt>
      <trkpt lat="46.45718" lon="6.08104">
        <ele>1202.2</ele>
        <time>2016-07-02T10:03:09Z</time>
      </trkpt>
      <trkpt lat="46.45711" lon="6.08106">
        <ele>1201.8</ele>
        <time>2016-07-02T10:03:15Z</time>
      </trkpt>
      <trkpt lat="46.457" lon="6.08104">
        <ele>1198.31</ele>
        <time>2016-07-02T10:03:24Z</time>
      </trkpt>
      <trkpt lat="46.45673" lon="6.08094">
        <ele>1196.2</ele>
        <time>2016-07-02T10:03:46Z</time>
      </trkpt>
      <trkpt lat="46.45657" lon="6.08089">
        <ele>1196.65</ele>
        <time>2016-07-02T10:03:59Z</time>
      </trkpt>
      <trkpt lat="46.45647" lon="6.08085">
        <ele>1197.01</ele>
        <time>2016-07-02T10:04:14Z</time>
      </trkpt>
      <trkpt lat="46.4565" lon="6.08071">
        <ele>1194.47</ele>
        <time>2016-07-02T10:04:24Z</time>
      </trkpt>
      <trkpt lat="46.45649" lon="6.08067">
        <ele>1195.33</ele>
        <time>2016-07-02T10:04:26Z</time>
      </trkpt>
      <trkpt lat="46.45648" lon="6.08054">
        <ele>1195.85</ele>
        <time>2016-07-02T10:04:34Z</time>
      </trkpt>
      <trkpt lat="46.45649" lon="6.0805">
        <ele>1195.57</ele>
        <time>2016-07-02T10:04:36Z</time>
      </trkpt>
      <trkpt lat="46.4565" lon="6.08039">
        <ele>1195.07</ele>
        <time>2016-07-02T10:04:43Z</time>
      </trkpt>
      <trkpt lat="46.45649" lon="6.0803">
        <ele>1194.12</ele>
        <time>2016-07-02T10:04:48Z</time>
      </trkpt>
      <trkpt lat="46.45649" lon="6.08026">
        <ele>1201.57</ele>
        <time>2016-07-02T10:04:50Z</time>
      </trkpt>
      <trkpt lat="46.45649" lon="6.08022">
        <ele>1205.89</ele>
        <time>2016-07-02T10:04:52Z</time>
      </trkpt>
      <trkpt lat="46.4565" lon="6.08016">
        <ele>1207.29</ele>
        <time>2016-07-02T10:04:55Z</time>
      </trkpt>
      <trkpt lat="46.45641" lon="6.07992">
        <ele>1208</ele>
        <time>2016-07-02T10:05:09Z</time>
      </trkpt>
      <trkpt lat="46.45629" lon="6.07977">
        <ele>1208.73</ele>
        <time>2016-07-02T10:05:23Z</time>
      </trkpt>
      <trkpt lat="46.45611" lon="6.07988">
        <ele>1209.9</ele>
        <time>2016-07-02T10:05:40Z</time>
      </trkpt>
      <trkpt lat="46.45582" lon="6.07995">
        <ele>1211.05</ele>
        <time>2016-07-02T10:06:04Z</time>
      </trkpt>
      <trkpt lat="46.45568" lon="6.08002">
        <ele>1211.94</ele>
        <time>2016-07-02T10:06:18Z</time>
      </trkpt>
      <trkpt lat="46.45566" lon="6.08002">
        <ele>1212</ele>
        <time>2016-07-02T10:06:19Z</time>
      </trkpt>
      <trkpt lat="46.45549" lon="6.07997">
        <ele>1212.85</ele>
        <time>2016-07-02T10:06:32Z</time>
      </trkpt>
      <trkpt lat="46.45537" lon="6.07996">
        <ele>1213.66</ele>
        <time>2016-07-02T10:06:41Z</time>
      </trkpt>
      <trkpt lat="46.45518" lon="6.07988">
        <ele>1214.69</ele>
        <time>2016-07-02T10:06:58Z</time>
      </trkpt>
      <trkpt lat="46.45498" lon="6.07982">
        <ele>1215.98</ele>
        <time>2016-07-02T10:07:14Z</time>
      </trkpt>
      <trkpt lat="46.45488" lon="6.07981">
        <ele>1217.51</ele>
        <time>2016-07-02T10:07:29Z</time>
      </trkpt>
      <trkpt lat="46.45475" lon="6.07979">
        <ele>1218.84</ele>
        <time>2016-07-02T10:07:44Z</time>
      </trkpt>
      <trkpt lat="46.45451" lon="6.07989">
        <ele>1221.51</ele>
        <time>2016-07-02T10:08:10Z</time>
      </trkpt>
      <trkpt lat="46.45436" lon="6.07997">
        <ele>1224.53</ele>
        <time>2016-07-02T10:08:29Z</time>
      </trkpt>
      <trkpt lat="46.4541" lon="6.08008">
        <ele>1227.56</ele>
        <time>2016-07-02T10:08:55Z</time>
      </trkpt>
      <trkpt lat="46.45385" lon="6.08016">
        <ele>1230.26</ele>
        <time>2016-07-02T10:09:24Z</time>
      </trkpt>
      <trkpt lat="46.4538" lon="6.0802">
        <ele>1230.88</ele>
        <time>2016-07-02T10:09:33Z</time>
      </trkpt>
      <trkpt lat="46.45373" lon="6.08026">
        <ele>1231.26</ele>
        <time>2016-07-02T10:09:44Z</time>
      </trkpt>
      <trkpt lat="46.4536" lon="6.08036">
        <ele>1233.16</ele>
        <time>2016-07-02T10:09:55Z</time>
      </trkpt>
      <trkpt lat="46.45331" lon="6.0806">
        <ele>1234.48</ele>
        <time>2016-07-02T10:10:22Z</time>
      </trkpt>
      <trkpt lat="46.45303" lon="6.08088">
        <ele>1234.38</ele>
        <time>2016-07-02T10:10:46Z</time>
      </trkpt>
      <trkpt lat="46.45282" lon="6.08113">
        <ele>1234.22</ele>
        <time>2016-07-02T10:11:10Z</time>
      </trkpt>
      <trkpt lat="46.45263" lon="6.08122">
        <ele>1233.56</ele>
        <time>2016-07-02T10:11:34Z</time>
      </trkpt>
      <trkpt lat="46.45251" lon="6.08124">
        <ele>1233.41</ele>
        <time>2016-07-02T10:12:08Z</time>
      </trkpt>
      <trkpt lat="46.45224" lon="6.08155">
        <ele>1233.74</ele>
        <time>2016-07-02T10:12:33Z</time>
      </trkpt>
      <trkpt lat="46.4522" lon="6.08158">
        <ele>1233.72</ele>
        <time>2016-07-02T10:12:37Z</time>
      </trkpt>
      <trkpt lat="46.45192" lon="6.0817">
        <ele>1234.48</ele>
        <time>2016-07-02T10:13:01Z</time>
      </trkpt>
      <trkpt lat="46.45157" lon="6.08188">
        <ele>1234.15</ele>
        <time>2016-07-02T10:13:27Z</time>
      </trkpt>
      <trkpt lat="46.45145" lon="6.08202">
        <ele>1233.84</ele>
        <time>2016-07-02T10:13:39Z</time>
      </trkpt>
      <trkpt lat="46.45123" lon="6.08242">
        <ele>1233.73</ele>
        <time>2016-07-02T10:14:07Z</time>
      </trkpt>
      <trkpt lat="46.45105" lon="6.08286">
        <ele>1233.77</ele>
        <time>2016-07-02T10:14:35Z</time>
      </trkpt>
      <trkpt lat="46.45096" lon="6.08343">
        <ele>1233.61</ele>
        <time>2016-07-02T10:14:58Z</time>
      </trkpt>
      <trkpt lat="46.45094" lon="6.08348">
        <ele>1233.92</ele>
        <time>2016-07-02T10:15:01Z</time>
      </trkpt>
      <trkpt lat="46.45091" lon="6.0835">
        <ele>1233.96</ele>
        <time>2016-07-02T10:15:03Z</time>
      </trkpt>
      <trkpt lat="46.45078" lon="6.08376">
        <ele>1234.5</ele>
        <time>2016-07-02T10:15:18Z</time>
      </trkpt>
      <trkpt lat="46.45073" lon="6.08395">
        <ele>1234.74</ele>
        <time>2016-07-02T10:15:27Z</time>
      </trkpt>
      <trkpt lat="46.45065" lon="6.08413">
        <ele>1234.95</ele>
        <time>2016-07-02T10:15:39Z</time>
      </trkpt>
      <trkpt lat="46.45052" lon="6.08433">
        <ele>1234.84</ele>
        <time>2016-07-02T10:15:53Z</time>
      </trkpt>
      <trkpt lat="46.45045" lon="6.08442">
        <ele>1235.02</ele>
        <time>2016-07-02T10:16:00Z</time>
      </trkpt>
      <trkpt lat="46.4504" lon="6.08452">
        <ele>1235.23</ele>
        <time>2016-07-02T10:16:06Z</time>
      </trkpt>
      <trkpt lat="46.45031" lon="6.08469">
        <ele>1235.49</ele>
        <time>2016-07-02T10:16:21Z</time>
      </trkpt>
      <trkpt lat="46.45013" lon="6.08503">
        <ele>1235.32</ele>
        <time>2016-07-02T10:16:42Z</time>
      </trkpt>
      <trkpt lat="46.44999" lon="6.08544">
        <ele>1235.55</ele>
        <time>2016-07-02T10:17:09Z</time>
      </trkpt>
      <trkpt lat="46.44995" lon="6.08588">
        <ele>1236.37</ele>
        <time>2016-07-02T10:17:36Z</time>
      </trkpt>
      <trkpt lat="46.44972" lon="6.08619">
        <ele>1236</ele>
        <time>2016-07-02T10:18:00Z</time>
      </trkpt>
      <trkpt lat="46.44943" lon="6.08613">
        <ele>1234.51</ele>
        <time>2016-07-02T10:18:22Z</time>
      </trkpt>
      <trkpt lat="46.44941" lon="6.08612">
        <ele>1234.65</ele>
        <time>2016-07-02T10:18:24Z</time>
      </trkpt>
      <trkpt lat="46.44933" lon="6.08604">
        <ele>1233.13</ele>
        <time>2016-07-02T10:18:31Z</time>
      </trkpt>
      <trkpt lat="46.44928" lon="6.08597">
        <ele>1232.83</ele>
        <time>2016-07-02T10:18:36Z</time>
      </trkpt>
      <trkpt lat="46.44921" lon="6.08586">
        <ele>1232.53</ele>
        <time>2016-07-02T10:18:44Z</time>
      </trkpt>
      <trkpt lat="46.44908" lon="6.08572">
        <ele>1231.32</ele>
        <time>2016-07-02T10:18:57Z</time>
      </trkpt>
      <trkpt lat="46.44894" lon="6.08565">
        <ele>1230.61</ele>
        <time>2016-07-02T10:19:10Z</time>
      </trkpt>
      <trkpt lat="46.44884" lon="6.08557">
        <ele>1229.75</ele>
        <time>2016-07-02T10:19:18Z</time>
      </trkpt>
      <trkpt lat="46.44875" lon="6.08535">
        <ele>1228.61</ele>
        <time>2016-07-02T10:19:31Z</time>
      </trkpt>
      <trkpt lat="46.44872" lon="6.08509">
        <ele>1227.77</ele>
        <time>2016-07-02T10:19:46Z</time>
      </trkpt>
      <trkpt lat="46.44866" lon="6.08497">
        <ele>1227.74</ele>
        <time>2016-07-02T10:19:58Z</time>
      </trkpt>
      <trkpt lat="46.44863" lon="6.08492">
        <ele>1227.93</ele>
        <time>2016-07-02T10:20:06Z</time>
      </trkpt>
      <trkpt lat="46.44863" lon="6.08492">
        <ele>1228.68</ele>
        <time>2016-07-02T10:20:33Z</time>
      </trkpt>
      <trkpt lat="46.44864" lon="6.08499">
        <ele>1228.05</ele>
        <time>2016-07-02T10:20:41Z</time>
      </trkpt>
      <trkpt lat="46.44852" lon="6.08531">
        <ele>1224.91</ele>
        <time>2016-07-02T10:21:17Z</time>
      </trkpt>
      <trkpt lat="46.44842" lon="6.08558">
        <ele>1223.86</ele>
        <time>2016-07-02T10:21:37Z</time>
      </trkpt>
      <trkpt lat="46.44833" lon="6.08584">
        <ele>1222.35</ele>
        <time>2016-07-02T10:21:56Z</time>
      </trkpt>
      <trkpt lat="46.44829" lon="6.08592">
        <ele>1221.33</ele>
        <time>2016-07-02T10:22:03Z</time>
      </trkpt>
      <trkpt lat="46.44822" lon="6.08609">
        <ele>1217.81</ele>
        <time>2016-07-02T10:22:17Z</time>
      </trkpt>
      <trkpt lat="46.44815" lon="6.08621">
        <ele>1216.02</ele>
        <time>2016-07-02T10:22:27Z</time>
      </trkpt>
      <trkpt lat="46.44812" lon="6.08628">
        <ele>1215.22</ele>
        <time>2016-07-02T10:22:31Z</time>
      </trkpt>
      <trkpt lat="46.44812" lon="6.08636">
        <ele>1214.98</ele>
        <time>2016-07-02T10:22:35Z</time>
      </trkpt>
      <trkpt lat="46.44805" lon="6.08652">
        <ele>1215.81</ele>
        <time>2016-07-02T10:22:48Z</time>
      </trkpt>
      <trkpt lat="46.44805" lon="6.08653">
        <ele>1215.85</ele>
        <time>2016-07-02T10:22:49Z</time>
      </trkpt>
      <trkpt lat="46.44798" lon="6.08675">
        <ele>1216.76</ele>
        <time>2016-07-02T10:23:02Z</time>
      </trkpt>
      <trkpt lat="46.44797" lon="6.08684">
        <ele>1217.36</ele>
        <time>2016-07-02T10:23:08Z</time>
      </trkpt>
      <trkpt lat="46.44792" lon="6.08697">
        <ele>1218.34</ele>
        <time>2016-07-02T10:23:19Z</time>
      </trkpt>
      <trkpt lat="46.44787" lon="6.08722">
        <ele>1217.38</ele>
        <time>2016-07-02T10:23:35Z</time>
      </trkpt>
      <trkpt lat="46.44782" lon="6.08745">
        <ele>1215.16</ele>
        <time>2016-07-02T10:23:49Z</time>
      </trkpt>
      <trkpt lat="46.44777" lon="6.08754">
        <ele>1214.47</ele>
        <time>2016-07-02T10:23:55Z</time>
      </trkpt>
      <trkpt lat="46.44773" lon="6.08762">
        <ele>1214.02</ele>
        <time>2016-07-02T10:24:00Z</time>
      </trkpt>
      <trkpt lat="46.44771" lon="6.0877">
        <ele>1213.96</ele>
        <time>2016-07-02T10:24:05Z</time>
      </trkpt>
      <trkpt lat="46.44763" lon="6.08794">
        <ele>1215.09</ele>
        <time>2016-07-02T10:24:21Z</time>
      </trkpt>
      <trkpt lat="46.4475" lon="6.08814">
        <ele>1217.74</ele>
        <time>2016-07-02T10:24:39Z</time>
      </trkpt>
      <trkpt lat="46.44737" lon="6.0883">
        <ele>1220.42</ele>
        <time>2016-07-02T10:25:01Z</time>
      </trkpt>
      <trkpt lat="46.44736" lon="6.08833">
        <ele>1219.52</ele>
        <time>2016-07-02T10:26:12Z</time>
      </trkpt>
      <trkpt lat="46.44731" lon="6.08813">
        <ele>1221.09</ele>
        <time>2016-07-02T10:26:23Z</time>
      </trkpt>
      <trkpt lat="46.44732" lon="6.08795">
        <ele>1220.42</ele>
        <time>2016-07-02T10:26:37Z</time>
      </trkpt>
      <trkpt lat="46.44731" lon="6.08788">
        <ele>1220.61</ele>
        <time>2016-07-02T10:26:44Z</time>
      </trkpt>
      <trkpt lat="46.44731" lon="6.08766">
        <ele>1221.01</ele>
        <time>2016-07-02T10:27:04Z</time>
      </trkpt>
      <trkpt lat="46.4473" lon="6.08742">
        <ele>1221.41</ele>
        <time>2016-07-02T10:27:18Z</time>
      </trkpt>
      <trkpt lat="46.44732" lon="6.08721">
        <ele>1221.97</ele>
        <time>2016-07-02T10:27:36Z</time>
      </trkpt>
      <trkpt lat="46.44729" lon="6.08713">
        <ele>1221.84</ele>
        <time>2016-07-02T10:28:17Z</time>
      </trkpt>
      <trkpt lat="46.44725" lon="6.08679">
        <ele>1222.57</ele>
        <time>2016-07-02T10:28:36Z</time>
      </trkpt>
      <trkpt lat="46.44726" lon="6.08677">
        <ele>1222.84</ele>
        <time>2016-07-02T10:28:43Z</time>
      </trkpt>
      <trkpt lat="46.44731" lon="6.08699">
        <ele>1221.07</ele>
        <time>2016-07-02T10:29:05Z</time>
      </trkpt>
      <trkpt lat="46.44732" lon="6.08729">
        <ele>1221.46</ele>
        <time>2016-07-02T10:29:20Z</time>
      </trkpt>
      <trkpt lat="46.44734" lon="6.08742">
        <ele>1221.13</ele>
        <time>2016-07-02T10:29:27Z</time>
      </trkpt>
      <trkpt lat="46.44737" lon="6.08769">
        <ele>1220.73</ele>
        <time>2016-07-02T10:29:42Z</time>
      </trkpt>
      <trkpt lat="46.44737" lon="6.08779">
        <ele>1220.55</ele>
        <time>2016-07-02T10:29:47Z</time>
      </trkpt>
      <trkpt lat="46.44741" lon="6.08812">
        <ele>1219.48</ele>
        <time>2016-07-02T10:30:05Z</time>
      </trkpt>
      <trkpt lat="46.44741" lon="6.0882">
        <ele>1219.2</ele>
        <time>2016-07-02T10:30:09Z</time>
      </trkpt>
      <trkpt lat="46.44744" lon="6.08829">
        <ele>1219.24</ele>
        <time>2016-07-02T10:30:15Z</time>
      </trkpt>
      <trkpt lat="46.44748" lon="6.08846">
        <ele>1219.58</ele>
        <time>2016-07-02T10:30:24Z</time>
      </trkpt>
      <trkpt lat="46.44753" lon="6.08874">
        <ele>1219.89</ele>
        <time>2016-07-02T10:30:39Z</time>
      </trkpt>
      <trkpt lat="46.44749" lon="6.08901">
        <ele>1219.8</ele>
        <time>2016-07-02T10:30:53Z</time>
      </trkpt>
      <trkpt lat="46.44746" lon="6.08934">
        <ele>1222.16</ele>
        <time>2016-07-02T10:31:11Z</time>
      </trkpt>
      <trkpt lat="46.44744" lon="6.08961">
        <ele>1223.41</ele>
        <time>2016-07-02T10:31:27Z</time>
      </trkpt>
      <trkpt lat="46.44742" lon="6.08972">
        <ele>1223.86</ele>
        <time>2016-07-02T10:31:34Z</time>
      </trkpt>
      <trkpt lat="46.44739" lon="6.08998">
        <ele>1224.63</ele>
        <time>2016-07-02T10:31:50Z</time>
      </trkpt>
      <trkpt lat="46.44738" lon="6.09023">
        <ele>1225.4</ele>
        <time>2016-07-02T10:32:06Z</time>
      </trkpt>
      <trkpt lat="46.44739" lon="6.09029">
        <ele>1225.91</ele>
        <time>2016-07-02T10:32:09Z</time>
      </trkpt>
      <trkpt lat="46.44742" lon="6.09039">
        <ele>1226.99</ele>
        <time>2016-07-02T10:32:16Z</time>
      </trkpt>
      <trkpt lat="46.44745" lon="6.09053">
        <ele>1227.06</ele>
        <time>2016-07-02T10:32:24Z</time>
      </trkpt>
      <trkpt lat="46.44743" lon="6.0908">
        <ele>1227.64</ele>
        <time>2016-07-02T10:32:40Z</time>
      </trkpt>
      <trkpt lat="46.44743" lon="6.09096">
        <ele>1228.22</ele>
        <time>2016-07-02T10:32:50Z</time>
      </trkpt>
      <trkpt lat="46.44743" lon="6.09101">
        <ele>1228.4</ele>
        <time>2016-07-02T10:32:53Z</time>
      </trkpt>
      <trkpt lat="46.44742" lon="6.09119">
        <ele>1228.74</ele>
        <time>2016-07-02T10:33:04Z</time>
      </trkpt>
      <trkpt lat="46.44734" lon="6.09136">
        <ele>1227.33</ele>
        <time>2016-07-02T10:33:15Z</time>
      </trkpt>
      <trkpt lat="46.44731" lon="6.09163">
        <ele>1228.47</ele>
        <time>2016-07-02T10:33:31Z</time>
      </trkpt>
      <trkpt lat="46.44731" lon="6.09168">
        <ele>1228.64</ele>
        <time>2016-07-02T10:33:34Z</time>
      </trkpt>
      <trkpt lat="46.44726" lon="6.09193">
        <ele>1229.53</ele>
        <time>2016-07-02T10:33:49Z</time>
      </trkpt>
      <trkpt lat="46.44725" lon="6.09203">
        <ele>1229.85</ele>
        <time>2016-07-02T10:33:56Z</time>
      </trkpt>
      <trkpt lat="46.4472" lon="6.09217">
        <ele>1229.76</ele>
        <time>2016-07-02T10:34:10Z</time>
      </trkpt>
      <trkpt lat="46.4472" lon="6.09218">
        <ele>1229.8</ele>
        <time>2016-07-02T10:34:13Z</time>
      </trkpt>
      <trkpt lat="46.44718" lon="6.09235">
        <ele>1229.62</ele>
        <time>2016-07-02T10:34:26Z</time>
      </trkpt>
      <trkpt lat="46.44718" lon="6.09261">
        <ele>1228.67</ele>
        <time>2016-07-02T10:34:45Z</time>
      </trkpt>
      <trkpt lat="46.44719" lon="6.09263">
        <ele>1228.72</ele>
        <time>2016-07-02T10:34:48Z</time>
      </trkpt>
      <trkpt lat="46.4472" lon="6.09269">
        <ele>1228.76</ele>
        <time>2016-07-02T10:34:56Z</time>
      </trkpt>
      <trkpt lat="46.44712" lon="6.0925">
        <ele>1230.2</ele>
        <time>2016-07-02T10:35:25Z</time>
      </trkpt>
      <trkpt lat="46.44712" lon="6.09245">
        <ele>1230.36</ele>
        <time>2016-07-02T10:35:28Z</time>
      </trkpt>
      <trkpt lat="46.44711" lon="6.09242">
        <ele>1230.5</ele>
        <time>2016-07-02T10:35:30Z</time>
      </trkpt>
      <trkpt lat="46.44705" lon="6.09223">
        <ele>1231.17</ele>
        <time>2016-07-02T10:35:45Z</time>
      </trkpt>
      <trkpt lat="46.44702" lon="6.09224">
        <ele>1231.11</ele>
        <time>2016-07-02T10:35:52Z</time>
      </trkpt>
      <trkpt lat="46.44697" lon="6.09201">
        <ele>1232.79</ele>
        <time>2016-07-02T10:36:35Z</time>
      </trkpt>
      <trkpt lat="46.44697" lon="6.09195">
        <ele>1232.8</ele>
        <time>2016-07-02T10:36:39Z</time>
      </trkpt>
      <trkpt lat="46.44695" lon="6.09189">
        <ele>1233.35</ele>
        <time>2016-07-02T10:36:43Z</time>
      </trkpt>
      <trkpt lat="46.44689" lon="6.09181">
        <ele>1233.91</ele>
        <time>2016-07-02T10:36:49Z</time>
      </trkpt>
      <trkpt lat="46.44678" lon="6.0916">
        <ele>1234.29</ele>
        <time>2016-07-02T10:37:03Z</time>
      </trkpt>
      <trkpt lat="46.44671" lon="6.09145">
        <ele>1234.89</ele>
        <time>2016-07-02T10:37:13Z</time>
      </trkpt>
      <trkpt lat="46.44668" lon="6.09135">
        <ele>1235.44</ele>
        <time>2016-07-02T10:37:19Z</time>
      </trkpt>
      <trkpt lat="46.44661" lon="6.09125">
        <ele>1236.26</ele>
        <time>2016-07-02T10:37:27Z</time>
      </trkpt>
      <trkpt lat="46.4465" lon="6.09107">
        <ele>1236.26</ele>
        <time>2016-07-02T10:37:40Z</time>
      </trkpt>
      <trkpt lat="46.44638" lon="6.09096">
        <ele>1236.39</ele>
        <time>2016-07-02T10:37:51Z</time>
      </trkpt>
      <trkpt lat="46.44629" lon="6.0909">
        <ele>1235.93</ele>
        <time>2016-07-02T10:37:59Z</time>
      </trkpt>
      <trkpt lat="46.44626" lon="6.09087">
        <ele>1235.68</ele>
        <time>2016-07-02T10:38:02Z</time>
      </trkpt>
      <trkpt lat="46.44613" lon="6.09072">
        <ele>1235.12</ele>
        <time>2016-07-02T10:38:15Z</time>
      </trkpt>
      <trkpt lat="46.44608" lon="6.09062">
        <ele>1234.85</ele>
        <time>2016-07-02T10:38:23Z</time>
      </trkpt>
      <trkpt lat="46.44593" lon="6.09042">
        <ele>1233.56</ele>
        <time>2016-07-02T10:38:38Z</time>
      </trkpt>
      <trkpt lat="46.44588" lon="6.09037">
        <ele>1233.29</ele>
        <time>2016-07-02T10:38:43Z</time>
      </trkpt>
      <trkpt lat="46.44575" lon="6.09018">
        <ele>1233.49</ele>
        <time>2016-07-02T10:38:59Z</time>
      </trkpt>
      <trkpt lat="46.44564" lon="6.08993">
        <ele>1233.28</ele>
        <time>2016-07-02T10:39:15Z</time>
      </trkpt>
      <trkpt lat="46.44556" lon="6.08969">
        <ele>1232.43</ele>
        <time>2016-07-02T10:39:30Z</time>
      </trkpt>
      <trkpt lat="46.44554" lon="6.08963">
        <ele>1232.35</ele>
        <time>2016-07-02T10:39:33Z</time>
      </trkpt>
      <trkpt lat="46.4455" lon="6.08946">
        <ele>1232.44</ele>
        <time>2016-07-02T10:39:43Z</time>
      </trkpt>
      <trkpt lat="46.4454" lon="6.08916">
        <ele>1231.98</ele>
        <time>2016-07-02T10:40:02Z</time>
      </trkpt>
      <trkpt lat="46.4453" lon="6.08888">
        <ele>1232.43</ele>
        <time>2016-07-02T10:40:19Z</time>
      </trkpt>
      <trkpt lat="46.44518" lon="6.08859">
        <ele>1232.44</ele>
        <time>2016-07-02T10:40:37Z</time>
      </trkpt>
      <trkpt lat="46.44511" lon="6.08849">
        <ele>1231.61</ele>
        <time>2016-07-02T10:40:45Z</time>
      </trkpt>
      <trkpt lat="46.44497" lon="6.08826">
        <ele>1232.74</ele>
        <time>2016-07-02T10:41:03Z</time>
      </trkpt>
      <trkpt lat="46.44497" lon="6.08826">
        <ele>1232.95</ele>
        <time>2016-07-02T10:41:06Z</time>
      </trkpt>
      <trkpt lat="46.44485" lon="6.08825">
        <ele>1232.78</ele>
        <time>2016-07-02T10:41:20Z</time>
      </trkpt>
      <trkpt lat="46.44464" lon="6.08828">
        <ele>1231.93</ele>
        <time>2016-07-02T10:41:36Z</time>
      </trkpt>
      <trkpt lat="46.44444" lon="6.08816">
        <ele>1232.2</ele>
        <time>2016-07-02T10:41:52Z</time>
      </trkpt>
      <trkpt lat="46.44442" lon="6.08815">
        <ele>1232.21</ele>
        <time>2016-07-02T10:41:53Z</time>
      </trkpt>
      <trkpt lat="46.44426" lon="6.088">
        <ele>1231.56</ele>
        <time>2016-07-02T10:42:09Z</time>
      </trkpt>
      <trkpt lat="46.44412" lon="6.08787">
        <ele>1230.58</ele>
        <time>2016-07-02T10:42:22Z</time>
      </trkpt>
      <trkpt lat="46.44399" lon="6.08782">
        <ele>1230.58</ele>
        <time>2016-07-02T10:42:32Z</time>
      </trkpt>
      <trkpt lat="46.4439" lon="6.08781">
        <ele>1230.88</ele>
        <time>2016-07-02T10:42:42Z</time>
      </trkpt>
      <trkpt lat="46.44385" lon="6.0878">
        <ele>1231.38</ele>
        <time>2016-07-02T10:42:47Z</time>
      </trkpt>
      <trkpt lat="46.44383" lon="6.0878">
        <ele>1231.53</ele>
        <time>2016-07-02T10:42:49Z</time>
      </trkpt>
      <trkpt lat="46.44374" lon="6.08787">
        <ele>1232.82</ele>
        <time>2016-07-02T10:42:58Z</time>
      </trkpt>
      <trkpt lat="46.44367" lon="6.08793">
        <ele>1234.53</ele>
        <time>2016-07-02T10:43:05Z</time>
      </trkpt>
      <trkpt lat="46.44359" lon="6.088">
        <ele>1236.72</ele>
        <time>2016-07-02T10:43:17Z</time>
      </trkpt>
      <trkpt lat="46.44351" lon="6.08812">
        <ele>1238.43</ele>
        <time>2016-07-02T10:43:29Z</time>
      </trkpt>
      <trkpt lat="46.44341" lon="6.08832">
        <ele>1239.92</ele>
        <time>2016-07-02T10:43:43Z</time>
      </trkpt>
      <trkpt lat="46.44326" lon="6.08848">
        <ele>1241.46</ele>
        <time>2016-07-02T10:43:59Z</time>
      </trkpt>
      <trkpt lat="46.44322" lon="6.08853">
        <ele>1241.5</ele>
        <time>2016-07-02T10:44:04Z</time>
      </trkpt>
      <trkpt lat="46.44316" lon="6.08858">
        <ele>1241.71</ele>
        <time>2016-07-02T10:44:15Z</time>
      </trkpt>
      <trkpt lat="46.44315" lon="6.0886">
        <ele>1241.77</ele>
        <time>2016-07-02T10:44:17Z</time>
      </trkpt>
      <trkpt lat="46.44309" lon="6.08878">
        <ele>1243.07</ele>
        <time>2016-07-02T10:44:31Z</time>
      </trkpt>
      <trkpt lat="46.44304" lon="6.08897">
        <ele>1243.81</ele>
        <time>2016-07-02T10:44:43Z</time>
      </trkpt>
      <trkpt lat="46.44296" lon="6.08919">
        <ele>1245.67</ele>
        <time>2016-07-02T10:45:00Z</time>
      </trkpt>
      <trkpt lat="46.44296" lon="6.08921">
        <ele>1245.7</ele>
        <time>2016-07-02T10:45:01Z</time>
      </trkpt>
      <trkpt lat="46.44288" lon="6.08944">
        <ele>1247.11</ele>
        <time>2016-07-02T10:45:16Z</time>
      </trkpt>
      <trkpt lat="46.44287" lon="6.08949">
        <ele>1247.26</ele>
        <time>2016-07-02T10:45:19Z</time>
      </trkpt>
      <trkpt lat="46.44285" lon="6.08959">
        <ele>1247.66</ele>
        <time>2016-07-02T10:45:24Z</time>
      </trkpt>
      <trkpt lat="46.44281" lon="6.08966">
        <ele>1248.05</ele>
        <time>2016-07-02T10:45:29Z</time>
      </trkpt>
      <trkpt lat="46.44265" lon="6.08973">
        <ele>1248.28</ele>
        <time>2016-07-02T10:45:41Z</time>
      </trkpt>
      <trkpt lat="46.4426" lon="6.08979">
        <ele>1248.65</ele>
        <time>2016-07-02T10:45:46Z</time>
      </trkpt>
      <trkpt lat="46.44256" lon="6.08981">
        <ele>1248.79</ele>
        <time>2016-07-02T10:45:51Z</time>
      </trkpt>
      <trkpt lat="46.4425" lon="6.08987">
        <ele>1249.95</ele>
        <time>2016-07-02T10:45:57Z</time>
      </trkpt>
      <trkpt lat="46.4424" lon="6.09002">
        <ele>1250.57</ele>
        <time>2016-07-02T10:46:11Z</time>
      </trkpt>
      <trkpt lat="46.44223" lon="6.09013">
        <ele>1250.74</ele>
        <time>2016-07-02T10:46:27Z</time>
      </trkpt>
      <trkpt lat="46.44211" lon="6.0902">
        <ele>1251.6</ele>
        <time>2016-07-02T10:46:39Z</time>
      </trkpt>
      <trkpt lat="46.44192" lon="6.09034">
        <ele>1253.29</ele>
        <time>2016-07-02T10:46:58Z</time>
      </trkpt>
      <trkpt lat="46.44176" lon="6.09045">
        <ele>1255.39</ele>
        <time>2016-07-02T10:47:13Z</time>
      </trkpt>
      <trkpt lat="46.44172" lon="6.09051">
        <ele>1256.42</ele>
        <time>2016-07-02T10:47:19Z</time>
      </trkpt>
      <trkpt lat="46.44164" lon="6.09071">
        <ele>1259.68</ele>
        <time>2016-07-02T10:47:38Z</time>
      </trkpt>
      <trkpt lat="46.44156" lon="6.09085">
        <ele>1261.97</ele>
        <time>2016-07-02T10:47:57Z</time>
      </trkpt>
      <trkpt lat="46.44121" lon="6.0912">
        <ele>1270.88</ele>
        <time>2016-07-02T10:48:52Z</time>
      </trkpt>
      <trkpt lat="46.44115" lon="6.09126">
        <ele>1271.6</ele>
        <time>2016-07-02T10:49:03Z</time>
      </trkpt>
      <trkpt lat="46.44108" lon="6.09136">
        <ele>1272.36</ele>
        <time>2016-07-02T10:49:12Z</time>
      </trkpt>
      <trkpt lat="46.44094" lon="6.09152">
        <ele>1275.43</ele>
        <time>2016-07-02T10:49:31Z</time>
      </trkpt>
      <trkpt lat="46.44084" lon="6.09162">
        <ele>1278.51</ele>
        <time>2016-07-02T10:49:46Z</time>
      </trkpt>
      <trkpt lat="46.44065" lon="6.09173">
        <ele>1281.26</ele>
        <time>2016-07-02T10:50:11Z</time>
      </trkpt>
      <trkpt lat="46.44065" lon="6.09173">
        <ele>1281.3</ele>
        <time>2016-07-02T10:50:13Z</time>
      </trkpt>
      <trkpt lat="46.44041" lon="6.09199">
        <ele>1285.34</ele>
        <time>2016-07-02T10:50:49Z</time>
      </trkpt>
      <trkpt lat="46.44032" lon="6.09214">
        <ele>1286.92</ele>
        <time>2016-07-02T10:51:05Z</time>
      </trkpt>
      <trkpt lat="46.44013" lon="6.09233">
        <ele>1288.52</ele>
        <time>2016-07-02T10:51:28Z</time>
      </trkpt>
      <trkpt lat="46.43997" lon="6.09242">
        <ele>1291.67</ele>
        <time>2016-07-02T10:51:46Z</time>
      </trkpt>
      <trkpt lat="46.43997" lon="6.09243">
        <ele>1291.83</ele>
        <time>2016-07-02T10:51:49Z</time>
      </trkpt>
      <trkpt lat="46.43972" lon="6.09225">
        <ele>1296.28</ele>
        <time>2016-07-02T10:52:51Z</time>
      </trkpt>
      <trkpt lat="46.4396" lon="6.09223">
        <ele>1299.3</ele>
        <time>2016-07-02T10:53:09Z</time>
      </trkpt>
      <trkpt lat="46.43957" lon="6.0922">
        <ele>1300.05</ele>
        <time>2016-07-02T10:53:18Z</time>
      </trkpt>
      <trkpt lat="46.43953" lon="6.09217">
        <ele>1299.92</ele>
        <time>2016-07-02T10:53:23Z</time>
      </trkpt>
      <trkpt lat="46.43944" lon="6.09208">
        <ele>1300.87</ele>
        <time>2016-07-02T10:53:34Z</time>
      </trkpt>
      <trkpt lat="46.43932" lon="6.092">
        <ele>1302.29</ele>
        <time>2016-07-02T10:53:46Z</time>
      </trkpt>
      <trkpt lat="46.43918" lon="6.09194">
        <ele>1304.07</ele>
        <time>2016-07-02T10:54:00Z</time>
      </trkpt>
      <trkpt lat="46.43907" lon="6.09189">
        <ele>1306.19</ele>
        <time>2016-07-02T10:54:16Z</time>
      </trkpt>
      <trkpt lat="46.43906" lon="6.09189">
        <ele>1306.29</ele>
        <time>2016-07-02T10:54:17Z</time>
      </trkpt>
      <trkpt lat="46.439" lon="6.09188">
        <ele>1307.63</ele>
        <time>2016-07-02T10:54:28Z</time>
      </trkpt>
      <trkpt lat="46.43893" lon="6.09182">
        <ele>1309.07</ele>
        <time>2016-07-02T10:54:40Z</time>
      </trkpt>
      <trkpt lat="46.43882" lon="6.0918">
        <ele>1312.08</ele>
        <time>2016-07-02T10:54:58Z</time>
      </trkpt>
      <trkpt lat="46.43882" lon="6.0918">
        <ele>1312.34</ele>
        <time>2016-07-02T10:55:01Z</time>
      </trkpt>
      <trkpt lat="46.43864" lon="6.09179">
        <ele>1316.79</ele>
        <time>2016-07-02T10:55:27Z</time>
      </trkpt>
      <trkpt lat="46.43849" lon="6.09181">
        <ele>1319.81</ele>
        <time>2016-07-02T10:55:46Z</time>
      </trkpt>
      <trkpt lat="46.43849" lon="6.09176">
        <ele>1320.72</ele>
        <time>2016-07-02T10:55:56Z</time>
      </trkpt>
      <trkpt lat="46.43812" lon="6.0913">
        <ele>1330.02</ele>
        <time>2016-07-02T10:57:16Z</time>
      </trkpt>
      <trkpt lat="46.43791" lon="6.09137">
        <ele>1331.99</ele>
        <time>2016-07-02T10:57:39Z</time>
      </trkpt>
      <trkpt lat="46.43788" lon="6.09143">
        <ele>1332.88</ele>
        <time>2016-07-02T10:57:47Z</time>
      </trkpt>
      <trkpt lat="46.43778" lon="6.09161">
        <ele>1335.87</ele>
        <time>2016-07-02T10:58:08Z</time>
      </trkpt>
      <trkpt lat="46.43764" lon="6.09158">
        <ele>1338.59</ele>
        <time>2016-07-02T10:58:23Z</time>
      </trkpt>
      <trkpt lat="46.43763" lon="6.09156">
        <ele>1339.17</ele>
        <time>2016-07-02T10:58:26Z</time>
      </trkpt>
      <trkpt lat="46.43744" lon="6.09134">
        <ele>1344.24</ele>
        <time>2016-07-02T10:59:00Z</time>
      </trkpt>
      <trkpt lat="46.43739" lon="6.09133">
        <ele>1344.98</ele>
        <time>2016-07-02T10:59:03Z</time>
      </trkpt>
      <trkpt lat="46.4373" lon="6.09128">
        <ele>1346.28</ele>
        <time>2016-07-02T10:59:11Z</time>
      </trkpt>
      <trkpt lat="46.43723" lon="6.09121">
        <ele>1347.4</ele>
        <time>2016-07-02T10:59:25Z</time>
      </trkpt>
      <trkpt lat="46.43704" lon="6.09116">
        <ele>1348.49</ele>
        <time>2016-07-02T10:59:53Z</time>
      </trkpt>
      <trkpt lat="46.43698" lon="6.09103">
        <ele>1350.05</ele>
        <time>2016-07-02T11:00:06Z</time>
      </trkpt>
      <trkpt lat="46.43696" lon="6.09093">
        <ele>1349.3</ele>
        <time>2016-07-02T11:00:15Z</time>
      </trkpt>
      <trkpt lat="46.4369" lon="6.09085">
        <ele>1349.37</ele>
        <time>2016-07-02T11:00:24Z</time>
      </trkpt>
      <trkpt lat="46.43686" lon="6.09078">
        <ele>1349.26</ele>
        <time>2016-07-02T11:00:29Z</time>
      </trkpt>
      <trkpt lat="46.43684" lon="6.09063">
        <ele>1348.26</ele>
        <time>2016-07-02T11:00:38Z</time>
      </trkpt>
      <trkpt lat="46.43679" lon="6.09057">
        <ele>1348.19</ele>
        <time>2016-07-02T11:00:43Z</time>
      </trkpt>
      <trkpt lat="46.43678" lon="6.09053">
        <ele>1348.09</ele>
        <time>2016-07-02T11:00:46Z</time>
      </trkpt>
      <trkpt lat="46.43671" lon="6.09037">
        <ele>1347.84</ele>
        <time>2016-07-02T11:00:59Z</time>
      </trkpt>
      <trkpt lat="46.4367" lon="6.09032">
        <ele>1348.57</ele>
        <time>2016-07-02T11:01:03Z</time>
      </trkpt>
      <trkpt lat="46.43666" lon="6.09022">
        <ele>1349.85</ele>
        <time>2016-07-02T11:01:10Z</time>
      </trkpt>
      <trkpt lat="46.4366" lon="6.09013">
        <ele>1351.37</ele>
        <time>2016-07-02T11:01:19Z</time>
      </trkpt>
      <trkpt lat="46.43645" lon="6.09002">
        <ele>1353.1</ele>
        <time>2016-07-02T11:01:33Z</time>
      </trkpt>
      <trkpt lat="46.43633" lon="6.08993">
        <ele>1354.42</ele>
        <time>2016-07-02T11:01:45Z</time>
      </trkpt>
      <trkpt lat="46.43618" lon="6.08981">
        <ele>1355.23</ele>
        <time>2016-07-02T11:02:02Z</time>
      </trkpt>
      <trkpt lat="46.43614" lon="6.0898">
        <ele>1355.62</ele>
        <time>2016-07-02T11:02:07Z</time>
      </trkpt>
      <trkpt lat="46.43601" lon="6.08984">
        <ele>1357.82</ele>
        <time>2016-07-02T11:02:23Z</time>
      </trkpt>
      <trkpt lat="46.43596" lon="6.08986">
        <ele>1359.64</ele>
        <time>2016-07-02T11:02:31Z</time>
      </trkpt>
      <trkpt lat="46.43583" lon="6.08987">
        <ele>1361.81</ele>
        <time>2016-07-02T11:02:45Z</time>
      </trkpt>
      <trkpt lat="46.4356" lon="6.08977">
        <ele>1362.83</ele>
        <time>2016-07-02T11:03:07Z</time>
      </trkpt>
      <trkpt lat="46.43549" lon="6.08982">
        <ele>1364.26</ele>
        <time>2016-07-02T11:03:22Z</time>
      </trkpt>
      <trkpt lat="46.43548" lon="6.08996">
        <ele>1367.26</ele>
        <time>2016-07-02T11:03:36Z</time>
      </trkpt>
      <trkpt lat="46.43553" lon="6.09011">
        <ele>1370.41</ele>
        <time>2016-07-02T11:03:50Z</time>
      </trkpt>
      <trkpt lat="46.43557" lon="6.09028">
        <ele>1373.43</ele>
        <time>2016-07-02T11:04:05Z</time>
      </trkpt>
      <trkpt lat="46.43551" lon="6.09046">
        <ele>1376.5</ele>
        <time>2016-07-02T11:04:22Z</time>
      </trkpt>
      <trkpt lat="46.43548" lon="6.09048">
        <ele>1376.58</ele>
        <time>2016-07-02T11:04:33Z</time>
      </trkpt>
      <trkpt lat="46.43553" lon="6.09048">
        <ele>1376.97</ele>
        <time>2016-07-02T11:07:37Z</time>
      </trkpt>
      <trkpt lat="46.43562" lon="6.09041">
        <ele>1376.92</ele>
        <time>2016-07-02T11:07:44Z</time>
      </trkpt>
      <trkpt lat="46.43565" lon="6.09035">
        <ele>1376.1</ele>
        <time>2016-07-02T11:07:53Z</time>
      </trkpt>
      <trkpt lat="46.43561" lon="6.09037">
        <ele>1377.08</ele>
        <time>2016-07-02T11:08:28Z</time>
      </trkpt>
      <trkpt lat="46.4356" lon="6.09039">
        <ele>1377.16</ele>
        <time>2016-07-02T11:08:29Z</time>
      </trkpt>
      <trkpt lat="46.43554" lon="6.09056">
        <ele>1377.67</ele>
        <time>2016-07-02T11:08:44Z</time>
      </trkpt>
      <trkpt lat="46.43551" lon="6.09055">
        <ele>1379.37</ele>
        <time>2016-07-02T11:14:05Z</time>
      </trkpt>
      <trkpt lat="46.4355" lon="6.09054">
        <ele>1379.41</ele>
        <time>2016-07-02T11:14:08Z</time>
      </trkpt>
      <trkpt lat="46.43534" lon="6.09056">
        <ele>1381.05</ele>
        <time>2016-07-02T11:14:39Z</time>
      </trkpt>
      <trkpt lat="46.4353" lon="6.09057">
        <ele>1382.61</ele>
        <time>2016-07-02T11:14:44Z</time>
      </trkpt>
      <trkpt lat="46.43519" lon="6.09065">
        <ele>1385.72</ele>
        <time>2016-07-02T11:15:00Z</time>
      </trkpt>
      <trkpt lat="46.43507" lon="6.09078">
        <ele>1388.86</ele>
        <time>2016-07-02T11:15:17Z</time>
      </trkpt>
      <trkpt lat="46.43499" lon="6.09091">
        <ele>1391.98</ele>
        <time>2016-07-02T11:15:35Z</time>
      </trkpt>
      <trkpt lat="46.43488" lon="6.09105">
        <ele>1395.04</ele>
        <time>2016-07-02T11:15:50Z</time>
      </trkpt>
      <trkpt lat="46.43477" lon="6.09121">
        <ele>1397.64</ele>
        <time>2016-07-02T11:16:12Z</time>
      </trkpt>
      <trkpt lat="46.43478" lon="6.09125">
        <ele>1397.75</ele>
        <time>2016-07-02T11:16:19Z</time>
      </trkpt>
      <trkpt lat="46.43472" lon="6.09167">
        <ele>1403.5</ele>
        <time>2016-07-02T11:16:57Z</time>
      </trkpt>
      <trkpt lat="46.43465" lon="6.09189">
        <ele>1406.54</ele>
        <time>2016-07-02T11:17:17Z</time>
      </trkpt>
      <trkpt lat="46.43471" lon="6.09206">
        <ele>1408.66</ele>
        <time>2016-07-02T11:17:39Z</time>
      </trkpt>
      <trkpt lat="46.43471" lon="6.09207">
        <ele>1408.66</ele>
        <time>2016-07-02T11:17:41Z</time>
      </trkpt>
      <trkpt lat="46.43458" lon="6.09268">
        <ele>1417.73</ele>
        <time>2016-07-02T11:18:43Z</time>
      </trkpt>
      <trkpt lat="46.43447" lon="6.09289">
        <ele>1420.78</ele>
        <time>2016-07-02T11:19:04Z</time>
      </trkpt>
      <trkpt lat="46.43437" lon="6.09313">
        <ele>1423.86</ele>
        <time>2016-07-02T11:19:26Z</time>
      </trkpt>
      <trkpt lat="46.43426" lon="6.09343">
        <ele>1426.58</ele>
        <time>2016-07-02T11:19:51Z</time>
      </trkpt>
      <trkpt lat="46.43418" lon="6.09376">
        <ele>1429.03</ele>
        <time>2016-07-02T11:20:17Z</time>
      </trkpt>
      <trkpt lat="46.43404" lon="6.09412">
        <ele>1431.25</ele>
        <time>2016-07-02T11:20:45Z</time>
      </trkpt>
      <trkpt lat="46.43394" lon="6.09438">
        <ele>1433.17</ele>
        <time>2016-07-02T11:21:08Z</time>
      </trkpt>
      <trkpt lat="46.43382" lon="6.09444">
        <ele>1434.43</ele>
        <time>2016-07-02T11:21:17Z</time>
      </trkpt>
      <trkpt lat="46.43369" lon="6.09456">
        <ele>1437.13</ele>
        <time>2016-07-02T11:21:31Z</time>
      </trkpt>
      <trkpt lat="46.43376" lon="6.09473">
        <ele>1439.21</ele>
        <time>2016-07-02T11:21:45Z</time>
      </trkpt>
      <trkpt lat="46.43369" lon="6.09512">
        <ele>1437.17</ele>
        <time>2016-07-02T11:22:11Z</time>
      </trkpt>
      <trkpt lat="46.4337" lon="6.09513">
        <ele>1437.16</ele>
        <time>2016-07-02T11:22:14Z</time>
      </trkpt>
      <trkpt lat="46.4338" lon="6.09522">
        <ele>1437.13</ele>
        <time>2016-07-02T11:23:46Z</time>
      </trkpt>
      <trkpt lat="46.43402" lon="6.09545">
        <ele>1434.53</ele>
        <time>2016-07-02T11:24:09Z</time>
      </trkpt>
      <trkpt lat="46.43413" lon="6.09579">
        <ele>1432.37</ele>
        <time>2016-07-02T11:24:33Z</time>
      </trkpt>
      <trkpt lat="46.43419" lon="6.09597">
        <ele>1430.25</ele>
        <time>2016-07-02T11:24:52Z</time>
      </trkpt>
      <trkpt lat="46.43435" lon="6.09613">
        <ele>1426.23</ele>
        <time>2016-07-02T11:25:16Z</time>
      </trkpt>
      <trkpt lat="46.43458" lon="6.09611">
        <ele>1424.09</ele>
        <time>2016-07-02T11:25:42Z</time>
      </trkpt>
      <trkpt lat="46.43462" lon="6.09611">
        <ele>1424.05</ele>
        <time>2016-07-02T11:25:52Z</time>
      </trkpt>
      <trkpt lat="46.43477" lon="6.09623">
        <ele>1423.9</ele>
        <time>2016-07-02T11:26:29Z</time>
      </trkpt>
      <trkpt lat="46.43483" lon="6.0964">
        <ele>1423.48</ele>
        <time>2016-07-02T11:26:45Z</time>
      </trkpt>
      <trkpt lat="46.43471" lon="6.09664">
        <ele>1424.21</ele>
        <time>2016-07-02T11:27:01Z</time>
      </trkpt>
      <trkpt lat="46.43463" lon="6.09681">
        <ele>1426.59</ele>
        <time>2016-07-02T11:27:16Z</time>
      </trkpt>
      <trkpt lat="46.43457" lon="6.09703">
        <ele>1429.63</ele>
        <time>2016-07-02T11:27:36Z</time>
      </trkpt>
      <trkpt lat="46.43447" lon="6.09725">
        <ele>1432.68</ele>
        <time>2016-07-02T11:27:56Z</time>
      </trkpt>
      <trkpt lat="46.43444" lon="6.09736">
        <ele>1434.7</ele>
        <time>2016-07-02T11:28:09Z</time>
      </trkpt>
      <trkpt lat="46.43429" lon="6.09764">
        <ele>1440.59</ele>
        <time>2016-07-02T11:28:40Z</time>
      </trkpt>
      <trkpt lat="46.43425" lon="6.09785">
        <ele>1443.63</ele>
        <time>2016-07-02T11:29:00Z</time>
      </trkpt>
      <trkpt lat="46.43424" lon="6.09788">
        <ele>1444.37</ele>
        <time>2016-07-02T11:29:06Z</time>
      </trkpt>
      <trkpt lat="46.43426" lon="6.09823">
        <ele>1448.05</ele>
        <time>2016-07-02T11:29:41Z</time>
      </trkpt>
      <trkpt lat="46.43431" lon="6.09831">
        <ele>1448.66</ele>
        <time>2016-07-02T11:29:48Z</time>
      </trkpt>
      <trkpt lat="46.43435" lon="6.09853">
        <ele>1450.04</ele>
        <time>2016-07-02T11:30:05Z</time>
      </trkpt>
      <trkpt lat="46.43435" lon="6.09865">
        <ele>1451.24</ele>
        <time>2016-07-02T11:30:18Z</time>
      </trkpt>
      <trkpt lat="46.43436" lon="6.09872">
        <ele>1451.74</ele>
        <time>2016-07-02T11:31:05Z</time>
      </trkpt>
      <trkpt lat="46.43438" lon="6.09873">
        <ele>1451.56</ele>
        <time>2016-07-02T11:31:07Z</time>
      </trkpt>
      <trkpt lat="46.43441" lon="6.0988">
        <ele>1452.46</ele>
        <time>2016-07-02T11:31:17Z</time>
      </trkpt>
      <trkpt lat="46.4343" lon="6.09889">
        <ele>1454.41</ele>
        <time>2016-07-02T11:31:41Z</time>
      </trkpt>
      <trkpt lat="46.43423" lon="6.09895">
        <ele>1455.25</ele>
        <time>2016-07-02T11:31:56Z</time>
      </trkpt>
      <trkpt lat="46.43407" lon="6.09919">
        <ele>1461.07</ele>
        <time>2016-07-02T11:32:38Z</time>
      </trkpt>
      <trkpt lat="46.43396" lon="6.09927">
        <ele>1464.25</ele>
        <time>2016-07-02T11:32:54Z</time>
      </trkpt>
      <trkpt lat="46.43387" lon="6.0994">
        <ele>1466.91</ele>
        <time>2016-07-02T11:33:10Z</time>
      </trkpt>
      <trkpt lat="46.43376" lon="6.09961">
        <ele>1470.25</ele>
        <time>2016-07-02T11:33:29Z</time>
      </trkpt>
      <trkpt lat="46.43366" lon="6.09982">
        <ele>1473.39</ele>
        <time>2016-07-02T11:33:45Z</time>
      </trkpt>
      <trkpt lat="46.43357" lon="6.1">
        <ele>1475.86</ele>
        <time>2016-07-02T11:34:02Z</time>
      </trkpt>
      <trkpt lat="46.43345" lon="6.10016">
        <ele>1478.1</ele>
        <time>2016-07-02T11:34:22Z</time>
      </trkpt>
      <trkpt lat="46.43345" lon="6.10023">
        <ele>1479.73</ele>
        <time>2016-07-02T11:34:30Z</time>
      </trkpt>
      <trkpt lat="46.43337" lon="6.10058">
        <ele>1487.08</ele>
        <time>2016-07-02T11:35:40Z</time>
      </trkpt>
      <trkpt lat="46.43336" lon="6.10061">
        <ele>1488.21</ele>
        <time>2016-07-02T11:35:45Z</time>
      </trkpt>
      <trkpt lat="46.43326" lon="6.10074">
        <ele>1491.24</ele>
        <time>2016-07-02T11:36:07Z</time>
      </trkpt>
      <trkpt lat="46.43318" lon="6.10099">
        <ele>1494.55</ele>
        <time>2016-07-02T11:36:27Z</time>
      </trkpt>
      <trkpt lat="46.43312" lon="6.10116">
        <ele>1497.58</ele>
        <time>2016-07-02T11:36:42Z</time>
      </trkpt>
      <trkpt lat="46.4331" lon="6.10132">
        <ele>1500.71</ele>
        <time>2016-07-02T11:36:59Z</time>
      </trkpt>
      <trkpt lat="46.43307" lon="6.1014">
        <ele>1502.76</ele>
        <time>2016-07-02T11:37:09Z</time>
      </trkpt>
      <trkpt lat="46.4327" lon="6.10266">
        <ele>1527.98</ele>
        <time>2016-07-02T11:39:48Z</time>
      </trkpt>
      <trkpt lat="46.43267" lon="6.10278">
        <ele>1531.06</ele>
        <time>2016-07-02T11:40:00Z</time>
      </trkpt>
      <trkpt lat="46.43267" lon="6.10293">
        <ele>1534.07</ele>
        <time>2016-07-02T11:40:13Z</time>
      </trkpt>
      <trkpt lat="46.43265" lon="6.10304">
        <ele>1537.07</ele>
        <time>2016-07-02T11:40:25Z</time>
      </trkpt>
      <trkpt lat="46.43266" lon="6.10318">
        <ele>1539.28</ele>
        <time>2016-07-02T11:40:39Z</time>
      </trkpt>
      <trkpt lat="46.43261" lon="6.10316">
        <ele>1540.16</ele>
        <time>2016-07-02T11:40:55Z</time>
      </trkpt>
      <trkpt lat="46.43252" lon="6.10319">
        <ele>1543.31</ele>
        <time>2016-07-02T11:41:06Z</time>
      </trkpt>
      <trkpt lat="46.43251" lon="6.1032">
        <ele>1544.08</ele>
        <time>2016-07-02T11:41:09Z</time>
      </trkpt>
      <trkpt lat="46.43252" lon="6.10331">
        <ele>1545.78</ele>
        <time>2016-07-02T11:41:28Z</time>
      </trkpt>
      <trkpt lat="46.43262" lon="6.10347">
        <ele>1547.23</ele>
        <time>2016-07-02T11:41:45Z</time>
      </trkpt>
      <trkpt lat="46.43262" lon="6.10353">
        <ele>1547.01</ele>
        <time>2016-07-02T11:41:53Z</time>
      </trkpt>
      <trkpt lat="46.43265" lon="6.10353">
        <ele>1547.45</ele>
        <time>2016-07-02T11:43:08Z</time>
      </trkpt>
      <trkpt lat="46.43267" lon="6.10369">
        <ele>1547.16</ele>
        <time>2016-07-02T11:43:24Z</time>
      </trkpt>
      <trkpt lat="46.43268" lon="6.10378">
        <ele>1549.65</ele>
        <time>2016-07-02T11:43:34Z</time>
      </trkpt>
      <trkpt lat="46.43274" lon="6.10396">
        <ele>1551.97</ele>
        <time>2016-07-02T11:43:51Z</time>
      </trkpt>
      <trkpt lat="46.43281" lon="6.10411">
        <ele>1553.71</ele>
        <time>2016-07-02T11:44:05Z</time>
      </trkpt>
      <trkpt lat="46.43282" lon="6.1043">
        <ele>1552.41</ele>
        <time>2016-07-02T11:44:17Z</time>
      </trkpt>
      <trkpt lat="46.43282" lon="6.10447">
        <ele>1551.08</ele>
        <time>2016-07-02T11:44:30Z</time>
      </trkpt>
      <trkpt lat="46.43283" lon="6.10449">
        <ele>1551.65</ele>
        <time>2016-07-02T11:44:37Z</time>
      </trkpt>
      <trkpt lat="46.43285" lon="6.10459">
        <ele>1551.99</ele>
        <time>2016-07-02T11:45:03Z</time>
      </trkpt>
      <trkpt lat="46.43285" lon="6.1046">
        <ele>1551.74</ele>
        <time>2016-07-02T11:45:07Z</time>
      </trkpt>
      <trkpt lat="46.43284" lon="6.10452">
        <ele>1555.84</ele>
        <time>2016-07-02T11:56:07Z</time>
      </trkpt>
      <trkpt lat="46.43283" lon="6.10451">
        <ele>1555.64</ele>
        <time>2016-07-02T11:56:12Z</time>
      </trkpt>
      <trkpt lat="46.4328" lon="6.1045">
        <ele>1557.27</ele>
        <time>2016-07-02T11:57:59Z</time>
      </trkpt>
      <trkpt lat="46.43278" lon="6.10451">
        <ele>1557.26</ele>
        <time>2016-07-02T11:58:07Z</time>
      </trkpt>
      <trkpt lat="46.43288" lon="6.10449">
        <ele>1557.54</ele>
        <time>2016-07-02T11:59:03Z</time>
      </trkpt>
      <trkpt lat="46.43289" lon="6.10448">
        <ele>1557.58</ele>
        <time>2016-07-02T11:59:08Z</time>
      </trkpt>
      <trkpt lat="46.43292" lon="6.10433">
        <ele>1561.92</ele>
        <time>2016-07-02T12:36:06Z</time>
      </trkpt>
      <trkpt lat="46.43289" lon="6.10433">
        <ele>1562.05</ele>
        <time>2016-07-02T12:36:16Z</time>
      </trkpt>
      <trkpt lat="46.43277" lon="6.10421">
        <ele>1561.42</ele>
        <time>2016-07-02T12:39:20Z</time>
      </trkpt>
      <trkpt lat="46.4327" lon="6.10394">
        <ele>1561.44</ele>
        <time>2016-07-02T12:39:40Z</time>
      </trkpt>
      <trkpt lat="46.43263" lon="6.10384">
        <ele>1559.67</ele>
        <time>2016-07-02T12:39:57Z</time>
      </trkpt>
      <trkpt lat="46.43257" lon="6.10363">
        <ele>1556.63</ele>
        <time>2016-07-02T12:40:17Z</time>
      </trkpt>
      <trkpt lat="46.43256" lon="6.10356">
        <ele>1555.95</ele>
        <time>2016-07-02T12:40:27Z</time>
      </trkpt>
      <trkpt lat="46.43256" lon="6.10344">
        <ele>1556.54</ele>
        <time>2016-07-02T12:40:37Z</time>
      </trkpt>
      <trkpt lat="46.43255" lon="6.10339">
        <ele>1556.53</ele>
        <time>2016-07-02T12:40:44Z</time>
      </trkpt>
      <trkpt lat="46.43249" lon="6.10333">
        <ele>1555.71</ele>
        <time>2016-07-02T12:40:52Z</time>
      </trkpt>
      <trkpt lat="46.43242" lon="6.10322">
        <ele>1555.18</ele>
        <time>2016-07-02T12:41:05Z</time>
      </trkpt>
      <trkpt lat="46.43221" lon="6.10336">
        <ele>1561.4</ele>
        <time>2016-07-02T12:41:58Z</time>
      </trkpt>
      <trkpt lat="46.4322" lon="6.10336">
        <ele>1561.45</ele>
        <time>2016-07-02T12:42:02Z</time>
      </trkpt>
      <trkpt lat="46.43162" lon="6.10268">
        <ele>1581.8</ele>
        <time>2016-07-02T12:46:37Z</time>
      </trkpt>
      <trkpt lat="46.43153" lon="6.1026">
        <ele>1584.89</ele>
        <time>2016-07-02T12:46:49Z</time>
      </trkpt>
      <trkpt lat="46.43148" lon="6.1026">
        <ele>1587.1</ele>
        <time>2016-07-02T12:47:01Z</time>
      </trkpt>
      <trkpt lat="46.43033" lon="6.10224">
        <ele>1611.09</ele>
        <time>2016-07-02T12:50:28Z</time>
      </trkpt>
      <trkpt lat="46.43024" lon="6.10214">
        <ele>1612.95</ele>
        <time>2016-07-02T12:50:44Z</time>
      </trkpt>
      <trkpt lat="46.43014" lon="6.10208">
        <ele>1613.84</ele>
        <time>2016-07-02T12:51:01Z</time>
      </trkpt>
      <trkpt lat="46.43012" lon="6.10205">
        <ele>1614.56</ele>
        <time>2016-07-02T12:51:07Z</time>
      </trkpt>
      <trkpt lat="46.42983" lon="6.10184">
        <ele>1613.28</ele>
        <time>2016-07-02T12:51:40Z</time>
      </trkpt>
      <trkpt lat="46.42969" lon="6.10173">
        <ele>1615.34</ele>
        <time>2016-07-02T12:51:56Z</time>
      </trkpt>
      <trkpt lat="46.42965" lon="6.1017">
        <ele>1616.13</ele>
        <time>2016-07-02T12:51:59Z</time>
      </trkpt>
      <trkpt lat="46.42959" lon="6.10168">
        <ele>1617.46</ele>
        <time>2016-07-02T12:52:05Z</time>
      </trkpt>
      <trkpt lat="46.42953" lon="6.10166">
        <ele>1618.16</ele>
        <time>2016-07-02T12:52:09Z</time>
      </trkpt>
      <trkpt lat="46.42936" lon="6.10161">
        <ele>1621.24</ele>
        <time>2016-07-02T12:52:26Z</time>
      </trkpt>
      <trkpt lat="46.42927" lon="6.10155">
        <ele>1624.41</ele>
        <time>2016-07-02T12:52:40Z</time>
      </trkpt>
      <trkpt lat="46.42904" lon="6.10138">
        <ele>1626.96</ele>
        <time>2016-07-02T12:53:05Z</time>
      </trkpt>
      <trkpt lat="46.42897" lon="6.10137">
        <ele>1627.8</ele>
        <time>2016-07-02T12:53:15Z</time>
      </trkpt>
      <trkpt lat="46.42888" lon="6.10136">
        <ele>1628.17</ele>
        <time>2016-07-02T12:53:27Z</time>
      </trkpt>
      <trkpt lat="46.4287" lon="6.10124">
        <ele>1629.89</ele>
        <time>2016-07-02T12:53:49Z</time>
      </trkpt>
      <trkpt lat="46.4287" lon="6.10124">
        <ele>1629.93</ele>
        <time>2016-07-02T12:53:50Z</time>
      </trkpt>
      <trkpt lat="46.4286" lon="6.10121">
        <ele>1630.48</ele>
        <time>2016-07-02T12:54:03Z</time>
      </trkpt>
      <trkpt lat="46.42845" lon="6.10113">
        <ele>1633.54</ele>
        <time>2016-07-02T12:54:19Z</time>
      </trkpt>
      <trkpt lat="46.42843" lon="6.10113">
        <ele>1633.96</ele>
        <time>2016-07-02T12:54:21Z</time>
      </trkpt>
      <trkpt lat="46.42831" lon="6.10112">
        <ele>1637.28</ele>
        <time>2016-07-02T12:54:35Z</time>
      </trkpt>
      <trkpt lat="46.42814" lon="6.10105">
        <ele>1640.31</ele>
        <time>2016-07-02T12:54:52Z</time>
      </trkpt>
      <trkpt lat="46.42797" lon="6.10102">
        <ele>1642.86</ele>
        <time>2016-07-02T12:55:16Z</time>
      </trkpt>
      <trkpt lat="46.42782" lon="6.10099">
        <ele>1643.43</ele>
        <time>2016-07-02T12:55:36Z</time>
      </trkpt>
      <trkpt lat="46.42765" lon="6.10091">
        <ele>1646.61</ele>
        <time>2016-07-02T12:55:57Z</time>
      </trkpt>
      <trkpt lat="46.42741" lon="6.10082">
        <ele>1649.26</ele>
        <time>2016-07-02T12:56:19Z</time>
      </trkpt>
      <trkpt lat="46.42717" lon="6.10071">
        <ele>1650.09</ele>
        <time>2016-07-02T12:56:42Z</time>
      </trkpt>
      <trkpt lat="46.42702" lon="6.1006">
        <ele>1650.98</ele>
        <time>2016-07-02T12:56:59Z</time>
      </trkpt>
      <trkpt lat="46.42688" lon="6.10055">
        <ele>1651.61</ele>
        <time>2016-07-02T12:57:15Z</time>
      </trkpt>
      <trkpt lat="46.42673" lon="6.1005">
        <ele>1654.66</ele>
        <time>2016-07-02T12:57:31Z</time>
      </trkpt>
      <trkpt lat="46.42665" lon="6.10045">
        <ele>1655.63</ele>
        <time>2016-07-02T12:57:40Z</time>
      </trkpt>
      <trkpt lat="46.42647" lon="6.10037">
        <ele>1656.91</ele>
        <time>2016-07-02T12:58:00Z</time>
      </trkpt>
      <trkpt lat="46.42633" lon="6.10029">
        <ele>1657.53</ele>
        <time>2016-07-02T12:58:14Z</time>
      </trkpt>
      <trkpt lat="46.42618" lon="6.1002">
        <ele>1659.25</ele>
        <time>2016-07-02T12:58:31Z</time>
      </trkpt>
      <trkpt lat="46.42602" lon="6.10022">
        <ele>1659.17</ele>
        <time>2016-07-02T12:58:48Z</time>
      </trkpt>
      <trkpt lat="46.42584" lon="6.10022">
        <ele>1660.57</ele>
        <time>2016-07-02T12:59:07Z</time>
      </trkpt>
      <trkpt lat="46.42567" lon="6.1001">
        <ele>1662.21</ele>
        <time>2016-07-02T12:59:28Z</time>
      </trkpt>
      <trkpt lat="46.42564" lon="6.10002">
        <ele>1662.66</ele>
        <time>2016-07-02T12:59:37Z</time>
      </trkpt>
      <trkpt lat="46.42559" lon="6.09991">
        <ele>1664.6</ele>
        <time>2016-07-02T13:01:17Z</time>
      </trkpt>
      <trkpt lat="46.42541" lon="6.09991">
        <ele>1663.81</ele>
        <time>2016-07-02T13:01:34Z</time>
      </trkpt>
      <trkpt lat="46.42527" lon="6.09997">
        <ele>1662.79</ele>
        <time>2016-07-02T13:01:44Z</time>
      </trkpt>
      <trkpt lat="46.42521" lon="6.10003">
        <ele>1661.7</ele>
        <time>2016-07-02T13:01:55Z</time>
      </trkpt>
      <trkpt lat="46.42504" lon="6.09985">
        <ele>1662.16</ele>
        <time>2016-07-02T13:02:59Z</time>
      </trkpt>
      <trkpt lat="46.42492" lon="6.09969">
        <ele>1661.57</ele>
        <time>2016-07-02T13:03:11Z</time>
      </trkpt>
      <trkpt lat="46.42481" lon="6.09947">
        <ele>1661.98</ele>
        <time>2016-07-02T13:03:27Z</time>
      </trkpt>
      <trkpt lat="46.4248" lon="6.09946">
        <ele>1662.05</ele>
        <time>2016-07-02T13:03:33Z</time>
      </trkpt>
      <trkpt lat="46.42488" lon="6.09935">
        <ele>1663.45</ele>
        <time>2016-07-02T13:03:49Z</time>
      </trkpt>
      <trkpt lat="46.42489" lon="6.09925">
        <ele>1666.76</ele>
        <time>2016-07-02T13:04:00Z</time>
      </trkpt>
      <trkpt lat="46.42489" lon="6.09925">
        <ele>1666.96</ele>
        <time>2016-07-02T13:04:01Z</time>
      </trkpt>
      <trkpt lat="46.42489" lon="6.09925">
        <ele>1666.7</ele>
        <time>2016-07-02T13:04:03Z</time>
      </trkpt>
      <trkpt lat="46.42481" lon="6.09929">
        <ele>1665.06</ele>
        <time>2016-07-02T13:04:09Z</time>
      </trkpt>
      <trkpt lat="46.42477" lon="6.09931">
        <ele>1664.73</ele>
        <time>2016-07-02T13:04:10Z</time>
      </trkpt>
      <trkpt lat="46.42469" lon="6.0993">
        <ele>1664.13</ele>
        <time>2016-07-02T13:04:15Z</time>
      </trkpt>
      <trkpt lat="46.42457" lon="6.09932">
        <ele>1660.56</ele>
        <time>2016-07-02T13:04:27Z</time>
      </trkpt>
      <trkpt lat="46.42453" lon="6.09932">
        <ele>1659.71</ele>
        <time>2016-07-02T13:04:30Z</time>
      </trkpt>
      <trkpt lat="46.42442" lon="6.0992">
        <ele>1657.3</ele>
        <time>2016-07-02T13:04:43Z</time>
      </trkpt>
      <trkpt lat="46.42429" lon="6.09904">
        <ele>1654.94</ele>
        <time>2016-07-02T13:04:55Z</time>
      </trkpt>
      <trkpt lat="46.42422" lon="6.09896">
        <ele>1654.75</ele>
        <time>2016-07-02T13:05:02Z</time>
      </trkpt>
      <trkpt lat="46.42411" lon="6.09881">
        <ele>1653.52</ele>
        <time>2016-07-02T13:05:14Z</time>
      </trkpt>
      <trkpt lat="46.42397" lon="6.09869">
        <ele>1650.31</ele>
        <time>2016-07-02T13:05:26Z</time>
      </trkpt>
      <trkpt lat="46.42396" lon="6.09868">
        <ele>1650.26</ele>
        <time>2016-07-02T13:05:27Z</time>
      </trkpt>
      <trkpt lat="46.42384" lon="6.09848">
        <ele>1647.3</ele>
        <time>2016-07-02T13:05:41Z</time>
      </trkpt>
      <trkpt lat="46.42374" lon="6.09834">
        <ele>1644.15</ele>
        <time>2016-07-02T13:05:52Z</time>
      </trkpt>
      <trkpt lat="46.42362" lon="6.09817">
        <ele>1641.68</ele>
        <time>2016-07-02T13:06:06Z</time>
      </trkpt>
      <trkpt lat="46.42351" lon="6.098">
        <ele>1639.65</ele>
        <time>2016-07-02T13:06:21Z</time>
      </trkpt>
      <trkpt lat="46.42348" lon="6.09796">
        <ele>1638.38</ele>
        <time>2016-07-02T13:06:24Z</time>
      </trkpt>
      <trkpt lat="46.42346" lon="6.09794">
        <ele>1637.73</ele>
        <time>2016-07-02T13:06:26Z</time>
      </trkpt>
      <trkpt lat="46.42335" lon="6.09777">
        <ele>1635.17</ele>
        <time>2016-07-02T13:06:39Z</time>
      </trkpt>
      <trkpt lat="46.42332" lon="6.09774">
        <ele>1634.21</ele>
        <time>2016-07-02T13:06:42Z</time>
      </trkpt>
      <trkpt lat="46.42329" lon="6.09769">
        <ele>1633.48</ele>
        <time>2016-07-02T13:06:46Z</time>
      </trkpt>
      <trkpt lat="46.42319" lon="6.09758">
        <ele>1630.18</ele>
        <time>2016-07-02T13:06:56Z</time>
      </trkpt>
      <trkpt lat="46.42318" lon="6.09756">
        <ele>1629.85</ele>
        <time>2016-07-02T13:06:57Z</time>
      </trkpt>
      <trkpt lat="46.42303" lon="6.09744">
        <ele>1628.77</ele>
        <time>2016-07-02T13:07:11Z</time>
      </trkpt>
      <trkpt lat="46.4229" lon="6.09733">
        <ele>1627.44</ele>
        <time>2016-07-02T13:07:26Z</time>
      </trkpt>
      <trkpt lat="46.42286" lon="6.09727">
        <ele>1626.42</ele>
        <time>2016-07-02T13:07:29Z</time>
      </trkpt>
      <trkpt lat="46.42284" lon="6.09723">
        <ele>1625.15</ele>
        <time>2016-07-02T13:07:32Z</time>
      </trkpt>
      <trkpt lat="46.42282" lon="6.09721">
        <ele>1624.51</ele>
        <time>2016-07-02T13:07:34Z</time>
      </trkpt>
      <trkpt lat="46.42278" lon="6.09718">
        <ele>1624.54</ele>
        <time>2016-07-02T13:07:38Z</time>
      </trkpt>
      <trkpt lat="46.42273" lon="6.09714">
        <ele>1627.28</ele>
        <time>2016-07-02T13:07:47Z</time>
      </trkpt>
      <trkpt lat="46.42257" lon="6.09701">
        <ele>1624.18</ele>
        <time>2016-07-02T13:08:32Z</time>
      </trkpt>
      <trkpt lat="46.42231" lon="6.09688">
        <ele>1622.15</ele>
        <time>2016-07-02T13:08:56Z</time>
      </trkpt>
      <trkpt lat="46.42228" lon="6.09686">
        <ele>1622.16</ele>
        <time>2016-07-02T13:08:58Z</time>
      </trkpt>
      <trkpt lat="46.42215" lon="6.09679">
        <ele>1620.21</ele>
        <time>2016-07-02T13:09:12Z</time>
      </trkpt>
      <trkpt lat="46.42208" lon="6.09683">
        <ele>1617.96</ele>
        <time>2016-07-02T13:09:23Z</time>
      </trkpt>
      <trkpt lat="46.42207" lon="6.09683">
        <ele>1617.46</ele>
        <time>2016-07-02T13:09:24Z</time>
      </trkpt>
      <trkpt lat="46.42198" lon="6.09687">
        <ele>1613.97</ele>
        <time>2016-07-02T13:09:32Z</time>
      </trkpt>
      <trkpt lat="46.42197" lon="6.09687">
        <ele>1613.34</ele>
        <time>2016-07-02T13:09:33Z</time>
      </trkpt>
      <trkpt lat="46.42184" lon="6.09694">
        <ele>1610.19</ele>
        <time>2016-07-02T13:09:48Z</time>
      </trkpt>
      <trkpt lat="46.42184" lon="6.09694">
        <ele>1609.97</ele>
        <time>2016-07-02T13:09:49Z</time>
      </trkpt>
      <trkpt lat="46.42178" lon="6.09697">
        <ele>1608.77</ele>
        <time>2016-07-02T13:10:00Z</time>
      </trkpt>
      <trkpt lat="46.42164" lon="6.09702">
        <ele>1605.52</ele>
        <time>2016-07-02T13:10:12Z</time>
      </trkpt>
      <trkpt lat="46.42159" lon="6.09703">
        <ele>1603.82</ele>
        <time>2016-07-02T13:10:17Z</time>
      </trkpt>
      <trkpt lat="46.42156" lon="6.09704">
        <ele>1602.93</ele>
        <time>2016-07-02T13:10:20Z</time>
      </trkpt>
      <trkpt lat="46.42148" lon="6.09711">
        <ele>1599.47</ele>
        <time>2016-07-02T13:10:28Z</time>
      </trkpt>
      <trkpt lat="46.42144" lon="6.09713">
        <ele>1597.58</ele>
        <time>2016-07-02T13:10:34Z</time>
      </trkpt>
      <trkpt lat="46.42129" lon="6.09714">
        <ele>1594.17</ele>
        <time>2016-07-02T13:10:47Z</time>
      </trkpt>
      <trkpt lat="46.42121" lon="6.09713">
        <ele>1591.63</ele>
        <time>2016-07-02T13:10:54Z</time>
      </trkpt>
      <trkpt lat="46.4212" lon="6.0971">
        <ele>1591.14</ele>
        <time>2016-07-02T13:10:56Z</time>
      </trkpt>
      <trkpt lat="46.42115" lon="6.0971">
        <ele>1589.66</ele>
        <time>2016-07-02T13:11:00Z</time>
      </trkpt>
      <trkpt lat="46.42107" lon="6.0971">
        <ele>1587.36</ele>
        <time>2016-07-02T13:11:06Z</time>
      </trkpt>
      <trkpt lat="46.42091" lon="6.09709">
        <ele>1584.1</ele>
        <time>2016-07-02T13:11:19Z</time>
      </trkpt>
      <trkpt lat="46.42071" lon="6.09712">
        <ele>1582</ele>
        <time>2016-07-02T13:11:34Z</time>
      </trkpt>
      <trkpt lat="46.42069" lon="6.09712">
        <ele>1582.13</ele>
        <time>2016-07-02T13:11:35Z</time>
      </trkpt>
      <trkpt lat="46.42064" lon="6.09718">
        <ele>1582.87</ele>
        <time>2016-07-02T13:11:39Z</time>
      </trkpt>
      <trkpt lat="46.42058" lon="6.09728">
        <ele>1581.52</ele>
        <time>2016-07-02T13:11:46Z</time>
      </trkpt>
      <trkpt lat="46.42053" lon="6.09736">
        <ele>1579.7</ele>
        <time>2016-07-02T13:11:55Z</time>
      </trkpt>
      <trkpt lat="46.42045" lon="6.09748">
        <ele>1575.94</ele>
        <time>2016-07-02T13:12:06Z</time>
      </trkpt>
      <trkpt lat="46.42033" lon="6.09761">
        <ele>1572.87</ele>
        <time>2016-07-02T13:12:21Z</time>
      </trkpt>
      <trkpt lat="46.42031" lon="6.09767">
        <ele>1572.02</ele>
        <time>2016-07-02T13:12:26Z</time>
      </trkpt>
      <trkpt lat="46.42028" lon="6.09796">
        <ele>1569.36</ele>
        <time>2016-07-02T13:12:41Z</time>
      </trkpt>
      <trkpt lat="46.42036" lon="6.09821">
        <ele>1567.14</ele>
        <time>2016-07-02T13:12:56Z</time>
      </trkpt>
      <trkpt lat="46.42039" lon="6.09828">
        <ele>1566.3</ele>
        <time>2016-07-02T13:13:01Z</time>
      </trkpt>
      <trkpt lat="46.4204" lon="6.09832">
        <ele>1565.47</ele>
        <time>2016-07-02T13:13:03Z</time>
      </trkpt>
      <trkpt lat="46.42046" lon="6.0985">
        <ele>1561.69</ele>
        <time>2016-07-02T13:13:15Z</time>
      </trkpt>
      <trkpt lat="46.42049" lon="6.09864">
        <ele>1558.5</ele>
        <time>2016-07-02T13:13:24Z</time>
      </trkpt>
      <trkpt lat="46.42039" lon="6.09882">
        <ele>1555.56</ele>
        <time>2016-07-02T13:13:44Z</time>
      </trkpt>
      <trkpt lat="46.42038" lon="6.09894">
        <ele>1552.3</ele>
        <time>2016-07-02T13:13:54Z</time>
      </trkpt>
      <trkpt lat="46.42036" lon="6.09907">
        <ele>1549.31</ele>
        <time>2016-07-02T13:14:07Z</time>
      </trkpt>
      <trkpt lat="46.4203" lon="6.09915">
        <ele>1546.38</ele>
        <time>2016-07-02T13:14:22Z</time>
      </trkpt>
      <trkpt lat="46.42028" lon="6.09916">
        <ele>1545.52</ele>
        <time>2016-07-02T13:14:24Z</time>
      </trkpt>
      <trkpt lat="46.4202" lon="6.09922">
        <ele>1542.14</ele>
        <time>2016-07-02T13:14:34Z</time>
      </trkpt>
      <trkpt lat="46.42013" lon="6.09932">
        <ele>1539.68</ele>
        <time>2016-07-02T13:14:48Z</time>
      </trkpt>
      <trkpt lat="46.42007" lon="6.0994">
        <ele>1538.05</ele>
        <time>2016-07-02T13:14:55Z</time>
      </trkpt>
      <trkpt lat="46.42001" lon="6.09957">
        <ele>1537.41</ele>
        <time>2016-07-02T13:15:06Z</time>
      </trkpt>
      <trkpt lat="46.41991" lon="6.09967">
        <ele>1538.69</ele>
        <time>2016-07-02T13:15:17Z</time>
      </trkpt>
      <trkpt lat="46.41987" lon="6.09974">
        <ele>1539.76</ele>
        <time>2016-07-02T13:15:22Z</time>
      </trkpt>
      <trkpt lat="46.4198" lon="6.09992">
        <ele>1539.3</ele>
        <time>2016-07-02T13:15:34Z</time>
      </trkpt>
      <trkpt lat="46.41978" lon="6.09994">
        <ele>1539.24</ele>
        <time>2016-07-02T13:15:36Z</time>
      </trkpt>
      <trkpt lat="46.41976" lon="6.09997">
        <ele>1538.7</ele>
        <time>2016-07-02T13:15:38Z</time>
      </trkpt>
      <trkpt lat="46.41977" lon="6.10005">
        <ele>1537.5</ele>
        <time>2016-07-02T13:15:44Z</time>
      </trkpt>
      <trkpt lat="46.41982" lon="6.10032">
        <ele>1537.66</ele>
        <time>2016-07-02T13:16:01Z</time>
      </trkpt>
      <trkpt lat="46.41984" lon="6.10039">
        <ele>1538.39</ele>
        <time>2016-07-02T13:16:06Z</time>
      </trkpt>
      <trkpt lat="46.41995" lon="6.10059">
        <ele>1539.96</ele>
        <time>2016-07-02T13:16:22Z</time>
      </trkpt>
      <trkpt lat="46.41996" lon="6.10068">
        <ele>1539.06</ele>
        <time>2016-07-02T13:16:27Z</time>
      </trkpt>
      <trkpt lat="46.41998" lon="6.10075">
        <ele>1538.16</ele>
        <time>2016-07-02T13:16:32Z</time>
      </trkpt>
      <trkpt lat="46.41999" lon="6.10096">
        <ele>1535.07</ele>
        <time>2016-07-02T13:16:47Z</time>
      </trkpt>
      <trkpt lat="46.41998" lon="6.10104">
        <ele>1533.74</ele>
        <time>2016-07-02T13:16:52Z</time>
      </trkpt>
      <trkpt lat="46.41997" lon="6.10115">
        <ele>1532.74</ele>
        <time>2016-07-02T13:16:59Z</time>
      </trkpt>
      <trkpt lat="46.41998" lon="6.10136">
        <ele>1533.09</ele>
        <time>2016-07-02T13:17:13Z</time>
      </trkpt>
      <trkpt lat="46.42005" lon="6.10152">
        <ele>1533.56</ele>
        <time>2016-07-02T13:17:30Z</time>
      </trkpt>
      <trkpt lat="46.42014" lon="6.10166">
        <ele>1535.84</ele>
        <time>2016-07-02T13:17:42Z</time>
      </trkpt>
      <trkpt lat="46.42017" lon="6.1018">
        <ele>1535.76</ele>
        <time>2016-07-02T13:17:51Z</time>
      </trkpt>
      <trkpt lat="46.42021" lon="6.10187">
        <ele>1535.65</ele>
        <time>2016-07-02T13:17:57Z</time>
      </trkpt>
      <trkpt lat="46.42017" lon="6.10212">
        <ele>1535.44</ele>
        <time>2016-07-02T13:18:11Z</time>
      </trkpt>
      <trkpt lat="46.42016" lon="6.10216">
        <ele>1534.72</ele>
        <time>2016-07-02T13:18:14Z</time>
      </trkpt>
      <trkpt lat="46.42016" lon="6.10219">
        <ele>1534.27</ele>
        <time>2016-07-02T13:18:16Z</time>
      </trkpt>
      <trkpt lat="46.42016" lon="6.10227">
        <ele>1533.54</ele>
        <time>2016-07-02T13:18:21Z</time>
      </trkpt>
      <trkpt lat="46.42014" lon="6.10234">
        <ele>1533.32</ele>
        <time>2016-07-02T13:18:26Z</time>
      </trkpt>
      <trkpt lat="46.42014" lon="6.10243">
        <ele>1534.03</ele>
        <time>2016-07-02T13:18:33Z</time>
      </trkpt>
      <trkpt lat="46.42016" lon="6.10258">
        <ele>1535.54</ele>
        <time>2016-07-02T13:18:45Z</time>
      </trkpt>
      <trkpt lat="46.42026" lon="6.10276">
        <ele>1536.44</ele>
        <time>2016-07-02T13:19:01Z</time>
      </trkpt>
      <trkpt lat="46.42028" lon="6.10281">
        <ele>1536.49</ele>
        <time>2016-07-02T13:19:04Z</time>
      </trkpt>
      <trkpt lat="46.42033" lon="6.10288">
        <ele>1536.4</ele>
        <time>2016-07-02T13:19:10Z</time>
      </trkpt>
      <trkpt lat="46.42041" lon="6.103">
        <ele>1536.42</ele>
        <time>2016-07-02T13:19:20Z</time>
      </trkpt>
      <trkpt lat="46.42045" lon="6.10309">
        <ele>1536.06</ele>
        <time>2016-07-02T13:19:26Z</time>
      </trkpt>
      <trkpt lat="46.4205" lon="6.1033">
        <ele>1535.71</ele>
        <time>2016-07-02T13:19:39Z</time>
      </trkpt>
      <trkpt lat="46.42052" lon="6.10333">
        <ele>1535.81</ele>
        <time>2016-07-02T13:19:41Z</time>
      </trkpt>
      <trkpt lat="46.42055" lon="6.10342">
        <ele>1534.86</ele>
        <time>2016-07-02T13:19:47Z</time>
      </trkpt>
      <trkpt lat="46.42062" lon="6.10367">
        <ele>1535.41</ele>
        <time>2016-07-02T13:20:02Z</time>
      </trkpt>
      <trkpt lat="46.42069" lon="6.10384">
        <ele>1534.85</ele>
        <time>2016-07-02T13:20:15Z</time>
      </trkpt>
      <trkpt lat="46.42079" lon="6.10399">
        <ele>1531.67</ele>
        <time>2016-07-02T13:20:26Z</time>
      </trkpt>
      <trkpt lat="46.4208" lon="6.10401">
        <ele>1531.38</ele>
        <time>2016-07-02T13:20:27Z</time>
      </trkpt>
      <trkpt lat="46.4209" lon="6.10416">
        <ele>1528.36</ele>
        <time>2016-07-02T13:20:38Z</time>
      </trkpt>
      <trkpt lat="46.42099" lon="6.1043">
        <ele>1525.19</ele>
        <time>2016-07-02T13:20:48Z</time>
      </trkpt>
      <trkpt lat="46.42106" lon="6.10444">
        <ele>1523.23</ele>
        <time>2016-07-02T13:21:00Z</time>
      </trkpt>
      <trkpt lat="46.42108" lon="6.10459">
        <ele>1521.43</ele>
        <time>2016-07-02T13:21:15Z</time>
      </trkpt>
      <trkpt lat="46.42108" lon="6.10458">
        <ele>1521.1</ele>
        <time>2016-07-02T13:21:18Z</time>
      </trkpt>
      <trkpt lat="46.4212" lon="6.10469">
        <ele>1518.2</ele>
        <time>2016-07-02T13:21:56Z</time>
      </trkpt>
      <trkpt lat="46.42122" lon="6.10471">
        <ele>1517.71</ele>
        <time>2016-07-02T13:21:58Z</time>
      </trkpt>
      <trkpt lat="46.42125" lon="6.10475">
        <ele>1516.48</ele>
        <time>2016-07-02T13:22:01Z</time>
      </trkpt>
      <trkpt lat="46.42129" lon="6.10489">
        <ele>1516.2</ele>
        <time>2016-07-02T13:22:13Z</time>
      </trkpt>
      <trkpt lat="46.42133" lon="6.10497">
        <ele>1513.16</ele>
        <time>2016-07-02T13:22:21Z</time>
      </trkpt>
      <trkpt lat="46.42135" lon="6.105">
        <ele>1511.85</ele>
        <time>2016-07-02T13:22:24Z</time>
      </trkpt>
      <trkpt lat="46.42137" lon="6.10511">
        <ele>1508.84</ele>
        <time>2016-07-02T13:22:34Z</time>
      </trkpt>
      <trkpt lat="46.42136" lon="6.10516">
        <ele>1506.67</ele>
        <time>2016-07-02T13:22:42Z</time>
      </trkpt>
      <trkpt lat="46.42142" lon="6.10514">
        <ele>1506.14</ele>
        <time>2016-07-02T13:22:51Z</time>
      </trkpt>
      <trkpt lat="46.42148" lon="6.10514">
        <ele>1504.95</ele>
        <time>2016-07-02T13:22:59Z</time>
      </trkpt>
      <trkpt lat="46.4215" lon="6.10517">
        <ele>1504.1</ele>
        <time>2016-07-02T13:23:05Z</time>
      </trkpt>
      <trkpt lat="46.42172" lon="6.10532">
        <ele>1498.12</ele>
        <time>2016-07-02T13:23:42Z</time>
      </trkpt>
      <trkpt lat="46.42173" lon="6.10532">
        <ele>1498.03</ele>
        <time>2016-07-02T13:23:43Z</time>
      </trkpt>
      <trkpt lat="46.42178" lon="6.10533">
        <ele>1497.08</ele>
        <time>2016-07-02T13:23:52Z</time>
      </trkpt>
      <trkpt lat="46.42187" lon="6.10537">
        <ele>1490.67</ele>
        <time>2016-07-02T13:24:25Z</time>
      </trkpt>
      <trkpt lat="46.42189" lon="6.10537">
        <ele>1489.94</ele>
        <time>2016-07-02T13:24:27Z</time>
      </trkpt>
      <trkpt lat="46.42197" lon="6.10532">
        <ele>1488.15</ele>
        <time>2016-07-02T13:24:36Z</time>
      </trkpt>
      <trkpt lat="46.42205" lon="6.10527">
        <ele>1484.63</ele>
        <time>2016-07-02T13:24:48Z</time>
      </trkpt>
      <trkpt lat="46.42205" lon="6.10526">
        <ele>1484.27</ele>
        <time>2016-07-02T13:24:50Z</time>
      </trkpt>
      <trkpt lat="46.42214" lon="6.10465">
        <ele>1470.27</ele>
        <time>2016-07-02T13:26:02Z</time>
      </trkpt>
      <trkpt lat="46.42213" lon="6.1046">
        <ele>1469.74</ele>
        <time>2016-07-02T13:26:05Z</time>
      </trkpt>
      <trkpt lat="46.42214" lon="6.10456">
        <ele>1469.1</ele>
        <time>2016-07-02T13:26:07Z</time>
      </trkpt>
      <trkpt lat="46.42212" lon="6.10448">
        <ele>1466.99</ele>
        <time>2016-07-02T13:26:11Z</time>
      </trkpt>
      <trkpt lat="46.42216" lon="6.10438">
        <ele>1466.49</ele>
        <time>2016-07-02T13:26:19Z</time>
      </trkpt>
      <trkpt lat="46.42223" lon="6.10436">
        <ele>1464.72</ele>
        <time>2016-07-02T13:26:30Z</time>
      </trkpt>
      <trkpt lat="46.42233" lon="6.10429">
        <ele>1462.36</ele>
        <time>2016-07-02T13:27:33Z</time>
      </trkpt>
      <trkpt lat="46.42241" lon="6.10416">
        <ele>1459.31</ele>
        <time>2016-07-02T13:27:43Z</time>
      </trkpt>
      <trkpt lat="46.42248" lon="6.10401">
        <ele>1456.24</ele>
        <time>2016-07-02T13:27:56Z</time>
      </trkpt>
      <trkpt lat="46.42257" lon="6.10393">
        <ele>1453.69</ele>
        <time>2016-07-02T13:28:05Z</time>
      </trkpt>
      <trkpt lat="46.42268" lon="6.10393">
        <ele>1450.04</ele>
        <time>2016-07-02T13:28:16Z</time>
      </trkpt>
      <trkpt lat="46.42273" lon="6.10396">
        <ele>1447.12</ele>
        <time>2016-07-02T13:28:23Z</time>
      </trkpt>
      <trkpt lat="46.42274" lon="6.10396">
        <ele>1446.85</ele>
        <time>2016-07-02T13:28:26Z</time>
      </trkpt>
      <trkpt lat="46.42283" lon="6.10391">
        <ele>1444.88</ele>
        <time>2016-07-02T13:28:37Z</time>
      </trkpt>
      <trkpt lat="46.42287" lon="6.10385">
        <ele>1444.02</ele>
        <time>2016-07-02T13:28:43Z</time>
      </trkpt>
      <trkpt lat="46.42301" lon="6.10377">
        <ele>1440.94</ele>
        <time>2016-07-02T13:28:56Z</time>
      </trkpt>
      <trkpt lat="46.42304" lon="6.10378">
        <ele>1440.78</ele>
        <time>2016-07-02T13:28:59Z</time>
      </trkpt>
      <trkpt lat="46.4232" lon="6.10385">
        <ele>1439.56</ele>
        <time>2016-07-02T13:29:13Z</time>
      </trkpt>
      <trkpt lat="46.42326" lon="6.1039">
        <ele>1438.29</ele>
        <time>2016-07-02T13:29:21Z</time>
      </trkpt>
      <trkpt lat="46.42329" lon="6.10396">
        <ele>1437.82</ele>
        <time>2016-07-02T13:29:25Z</time>
      </trkpt>
      <trkpt lat="46.42337" lon="6.10403">
        <ele>1436.64</ele>
        <time>2016-07-02T13:29:33Z</time>
      </trkpt>
      <trkpt lat="46.42351" lon="6.1042">
        <ele>1435</ele>
        <time>2016-07-02T13:29:46Z</time>
      </trkpt>
      <trkpt lat="46.42357" lon="6.10428">
        <ele>1433.8</ele>
        <time>2016-07-02T13:29:54Z</time>
      </trkpt>
      <trkpt lat="46.42362" lon="6.10441">
        <ele>1432.31</ele>
        <time>2016-07-02T13:30:02Z</time>
      </trkpt>
      <trkpt lat="46.42368" lon="6.10451">
        <ele>1431.72</ele>
        <time>2016-07-02T13:30:08Z</time>
      </trkpt>
      <trkpt lat="46.42379" lon="6.1047">
        <ele>1431.23</ele>
        <time>2016-07-02T13:30:23Z</time>
      </trkpt>
      <trkpt lat="46.4239" lon="6.10476">
        <ele>1430.03</ele>
        <time>2016-07-02T13:30:35Z</time>
      </trkpt>
      <trkpt lat="46.42401" lon="6.10489">
        <ele>1429.57</ele>
        <time>2016-07-02T13:30:47Z</time>
      </trkpt>
      <trkpt lat="46.42405" lon="6.10495">
        <ele>1429.35</ele>
        <time>2016-07-02T13:30:52Z</time>
      </trkpt>
      <trkpt lat="46.42418" lon="6.10508">
        <ele>1429.28</ele>
        <time>2016-07-02T13:31:07Z</time>
      </trkpt>
      <trkpt lat="46.42427" lon="6.10513">
        <ele>1431.34</ele>
        <time>2016-07-02T13:31:17Z</time>
      </trkpt>
      <trkpt lat="46.42444" lon="6.10516">
        <ele>1432.31</ele>
        <time>2016-07-02T13:31:33Z</time>
      </trkpt>
      <trkpt lat="46.42454" lon="6.10526">
        <ele>1435.32</ele>
        <time>2016-07-02T13:31:46Z</time>
      </trkpt>
      <trkpt lat="46.4246" lon="6.10531">
        <ele>1436.1</ele>
        <time>2016-07-02T13:31:51Z</time>
      </trkpt>
      <trkpt lat="46.42476" lon="6.10538">
        <ele>1437.98</ele>
        <time>2016-07-02T13:32:08Z</time>
      </trkpt>
      <trkpt lat="46.42491" lon="6.10522">
        <ele>1439.65</ele>
        <time>2016-07-02T13:32:32Z</time>
      </trkpt>
      <trkpt lat="46.42493" lon="6.1052">
        <ele>1439.35</ele>
        <time>2016-07-02T13:32:34Z</time>
      </trkpt>
      <trkpt lat="46.42519" lon="6.10526">
        <ele>1442.95</ele>
        <time>2016-07-02T13:32:54Z</time>
      </trkpt>
      <trkpt lat="46.42536" lon="6.10556">
        <ele>1444.79</ele>
        <time>2016-07-02T13:33:16Z</time>
      </trkpt>
      <trkpt lat="46.42547" lon="6.10582">
        <ele>1444.22</ele>
        <time>2016-07-02T13:33:33Z</time>
      </trkpt>
      <trkpt lat="46.42553" lon="6.10614">
        <ele>1443.01</ele>
        <time>2016-07-02T13:33:49Z</time>
      </trkpt>
      <trkpt lat="46.42554" lon="6.10616">
        <ele>1442.92</ele>
        <time>2016-07-02T13:33:50Z</time>
      </trkpt>
      <trkpt lat="46.42553" lon="6.10624">
        <ele>1443.51</ele>
        <time>2016-07-02T13:33:54Z</time>
      </trkpt>
      <trkpt lat="46.4255" lon="6.1065">
        <ele>1443.87</ele>
        <time>2016-07-02T13:34:08Z</time>
      </trkpt>
      <trkpt lat="46.42559" lon="6.10671">
        <ele>1440.81</ele>
        <time>2016-07-02T13:34:22Z</time>
      </trkpt>
      <trkpt lat="46.42565" lon="6.10697">
        <ele>1439.66</ele>
        <time>2016-07-02T13:34:38Z</time>
      </trkpt>
      <trkpt lat="46.4256" lon="6.1071">
        <ele>1439.11</ele>
        <time>2016-07-02T13:34:51Z</time>
      </trkpt>
      <trkpt lat="46.4256" lon="6.10711">
        <ele>1439.01</ele>
        <time>2016-07-02T13:34:54Z</time>
      </trkpt>
      <trkpt lat="46.42558" lon="6.1072">
        <ele>1440.95</ele>
        <time>2016-07-02T13:35:55Z</time>
      </trkpt>
      <trkpt lat="46.42565" lon="6.10696">
        <ele>1437.85</ele>
        <time>2016-07-02T13:36:11Z</time>
      </trkpt>
      <trkpt lat="46.42573" lon="6.10685">
        <ele>1434.71</ele>
        <time>2016-07-02T13:36:22Z</time>
      </trkpt>
      <trkpt lat="46.42577" lon="6.10683">
        <ele>1434.1</ele>
        <time>2016-07-02T13:36:25Z</time>
      </trkpt>
      <trkpt lat="46.42581" lon="6.10681">
        <ele>1433.23</ele>
        <time>2016-07-02T13:36:29Z</time>
      </trkpt>
      <trkpt lat="46.42597" lon="6.10652">
        <ele>1429.88</ele>
        <time>2016-07-02T13:36:53Z</time>
      </trkpt>
      <trkpt lat="46.42608" lon="6.10636">
        <ele>1427.16</ele>
        <time>2016-07-02T13:37:07Z</time>
      </trkpt>
      <trkpt lat="46.42624" lon="6.10628">
        <ele>1423.91</ele>
        <time>2016-07-02T13:37:21Z</time>
      </trkpt>
      <trkpt lat="46.42632" lon="6.10631">
        <ele>1424.18</ele>
        <time>2016-07-02T13:37:29Z</time>
      </trkpt>
      <trkpt lat="46.42637" lon="6.10635">
        <ele>1424.57</ele>
        <time>2016-07-02T13:37:33Z</time>
      </trkpt>
      <trkpt lat="46.42649" lon="6.1065">
        <ele>1424</ele>
        <time>2016-07-02T13:37:47Z</time>
      </trkpt>
      <trkpt lat="46.42661" lon="6.10661">
        <ele>1424.36</ele>
        <time>2016-07-02T13:38:02Z</time>
      </trkpt>
      <trkpt lat="46.42668" lon="6.10667">
        <ele>1423.35</ele>
        <time>2016-07-02T13:38:13Z</time>
      </trkpt>
      <trkpt lat="46.42675" lon="6.10669">
        <ele>1423.24</ele>
        <time>2016-07-02T13:38:19Z</time>
      </trkpt>
      <trkpt lat="46.42686" lon="6.10675">
        <ele>1422.21</ele>
        <time>2016-07-02T13:38:30Z</time>
      </trkpt>
      <trkpt lat="46.42693" lon="6.1069">
        <ele>1419.86</ele>
        <time>2016-07-02T13:38:42Z</time>
      </trkpt>
      <trkpt lat="46.42693" lon="6.10691">
        <ele>1419.99</ele>
        <time>2016-07-02T13:38:43Z</time>
      </trkpt>
      <trkpt lat="46.42694" lon="6.10694">
        <ele>1420.28</ele>
        <time>2016-07-02T13:38:45Z</time>
      </trkpt>
      <trkpt lat="46.42695" lon="6.10696">
        <ele>1420.81</ele>
        <time>2016-07-02T13:38:47Z</time>
      </trkpt>
      <trkpt lat="46.42706" lon="6.10706">
        <ele>1419.89</ele>
        <time>2016-07-02T13:39:00Z</time>
      </trkpt>
      <trkpt lat="46.4271" lon="6.10712">
        <ele>1419.15</ele>
        <time>2016-07-02T13:39:04Z</time>
      </trkpt>
      <trkpt lat="46.42712" lon="6.10715">
        <ele>1417.37</ele>
        <time>2016-07-02T13:39:07Z</time>
      </trkpt>
      <trkpt lat="46.42728" lon="6.10729">
        <ele>1418.27</ele>
        <time>2016-07-02T13:39:24Z</time>
      </trkpt>
      <trkpt lat="46.42735" lon="6.10736">
        <ele>1416.37</ele>
        <time>2016-07-02T13:39:31Z</time>
      </trkpt>
      <trkpt lat="46.42744" lon="6.10745">
        <ele>1413.96</ele>
        <time>2016-07-02T13:39:40Z</time>
      </trkpt>
      <trkpt lat="46.4275" lon="6.1075">
        <ele>1412.62</ele>
        <time>2016-07-02T13:39:45Z</time>
      </trkpt>
      <trkpt lat="46.42763" lon="6.10765">
        <ele>1414.36</ele>
        <time>2016-07-02T13:40:00Z</time>
      </trkpt>
      <trkpt lat="46.4278" lon="6.10782">
        <ele>1414.65</ele>
        <time>2016-07-02T13:40:17Z</time>
      </trkpt>
      <trkpt lat="46.4279" lon="6.1079">
        <ele>1413.88</ele>
        <time>2016-07-02T13:40:27Z</time>
      </trkpt>
      <trkpt lat="46.42804" lon="6.10805">
        <ele>1413.19</ele>
        <time>2016-07-02T13:40:41Z</time>
      </trkpt>
      <trkpt lat="46.42814" lon="6.10815">
        <ele>1413.31</ele>
        <time>2016-07-02T13:40:51Z</time>
      </trkpt>
      <trkpt lat="46.42818" lon="6.10818">
        <ele>1413.75</ele>
        <time>2016-07-02T13:40:54Z</time>
      </trkpt>
      <trkpt lat="46.4282" lon="6.10824">
        <ele>1412.62</ele>
        <time>2016-07-02T13:40:58Z</time>
      </trkpt>
      <trkpt lat="46.42825" lon="6.10831">
        <ele>1410.88</ele>
        <time>2016-07-02T13:41:05Z</time>
      </trkpt>
      <trkpt lat="46.42839" lon="6.10842">
        <ele>1411.03</ele>
        <time>2016-07-02T13:41:18Z</time>
      </trkpt>
      <trkpt lat="46.4285" lon="6.10855">
        <ele>1410.41</ele>
        <time>2016-07-02T13:41:30Z</time>
      </trkpt>
      <trkpt lat="46.42863" lon="6.10867">
        <ele>1412.13</ele>
        <time>2016-07-02T13:41:44Z</time>
      </trkpt>
      <trkpt lat="46.42872" lon="6.10872">
        <ele>1413.48</ele>
        <time>2016-07-02T13:41:53Z</time>
      </trkpt>
      <trkpt lat="46.42876" lon="6.10873">
        <ele>1413.71</ele>
        <time>2016-07-02T13:42:01Z</time>
      </trkpt>
      <trkpt lat="46.42882" lon="6.10879">
        <ele>1414.83</ele>
        <time>2016-07-02T13:42:11Z</time>
      </trkpt>
      <trkpt lat="46.42886" lon="6.10887">
        <ele>1416.11</ele>
        <time>2016-07-02T13:42:19Z</time>
      </trkpt>
      <trkpt lat="46.4289" lon="6.10893">
        <ele>1416.51</ele>
        <time>2016-07-02T13:42:24Z</time>
      </trkpt>
      <trkpt lat="46.42895" lon="6.10907">
        <ele>1417.21</ele>
        <time>2016-07-02T13:42:34Z</time>
      </trkpt>
      <trkpt lat="46.42899" lon="6.10913">
        <ele>1417.32</ele>
        <time>2016-07-02T13:42:38Z</time>
      </trkpt>
      <trkpt lat="46.42908" lon="6.10929">
        <ele>1418.45</ele>
        <time>2016-07-02T13:42:49Z</time>
      </trkpt>
      <trkpt lat="46.42909" lon="6.10935">
        <ele>1418.33</ele>
        <time>2016-07-02T13:42:53Z</time>
      </trkpt>
      <trkpt lat="46.42911" lon="6.10939">
        <ele>1418.94</ele>
        <time>2016-07-02T13:42:56Z</time>
      </trkpt>
      <trkpt lat="46.42918" lon="6.10956">
        <ele>1422.1</ele>
        <time>2016-07-02T13:43:10Z</time>
      </trkpt>
      <trkpt lat="46.4293" lon="6.10975">
        <ele>1424.97</ele>
        <time>2016-07-02T13:43:30Z</time>
      </trkpt>
      <trkpt lat="46.42933" lon="6.10976">
        <ele>1425.49</ele>
        <time>2016-07-02T13:43:33Z</time>
      </trkpt>
      <trkpt lat="46.42948" lon="6.10991">
        <ele>1428.93</ele>
        <time>2016-07-02T13:43:56Z</time>
      </trkpt>
      <trkpt lat="46.42948" lon="6.10992">
        <ele>1429.28</ele>
        <time>2016-07-02T13:43:57Z</time>
      </trkpt>
      <trkpt lat="46.43029" lon="6.11061">
        <ele>1459.49</ele>
        <time>2016-07-02T13:49:17Z</time>
      </trkpt>
      <trkpt lat="46.43013" lon="6.11069">
        <ele>1458.85</ele>
        <time>2016-07-02T13:49:32Z</time>
      </trkpt>
      <trkpt lat="46.43008" lon="6.11072">
        <ele>1459.51</ele>
        <time>2016-07-02T13:49:39Z</time>
      </trkpt>
      <trkpt lat="46.43" lon="6.11081">
        <ele>1460.15</ele>
        <time>2016-07-02T13:49:48Z</time>
      </trkpt>
      <trkpt lat="46.42988" lon="6.11091">
        <ele>1459.12</ele>
        <time>2016-07-02T13:50:01Z</time>
      </trkpt>
      <trkpt lat="46.42978" lon="6.11099">
        <ele>1458.54</ele>
        <time>2016-07-02T13:50:15Z</time>
      </trkpt>
      <trkpt lat="46.42971" lon="6.11106">
        <ele>1459.5</ele>
        <time>2016-07-02T13:50:29Z</time>
      </trkpt>
      <trkpt lat="46.42962" lon="6.11113">
        <ele>1459.99</ele>
        <time>2016-07-02T13:50:37Z</time>
      </trkpt>
      <trkpt lat="46.42961" lon="6.11119">
        <ele>1460.23</ele>
        <time>2016-07-02T13:50:41Z</time>
      </trkpt>
      <trkpt lat="46.42959" lon="6.11133">
        <ele>1460.27</ele>
        <time>2016-07-02T13:50:48Z</time>
      </trkpt>
      <trkpt lat="46.42956" lon="6.11138">
        <ele>1460.51</ele>
        <time>2016-07-02T13:50:52Z</time>
      </trkpt>
      <trkpt lat="46.42952" lon="6.11143">
        <ele>1461.01</ele>
        <time>2016-07-02T13:50:56Z</time>
      </trkpt>
      <trkpt lat="46.42951" lon="6.11149">
        <ele>1461.55</ele>
        <time>2016-07-02T13:51:00Z</time>
      </trkpt>
      <trkpt lat="46.42946" lon="6.11153">
        <ele>1461.88</ele>
        <time>2016-07-02T13:51:06Z</time>
      </trkpt>
      <trkpt lat="46.42942" lon="6.11163">
        <ele>1462.72</ele>
        <time>2016-07-02T13:51:17Z</time>
      </trkpt>
      <trkpt lat="46.42939" lon="6.11187">
        <ele>1462.53</ele>
        <time>2016-07-02T13:51:32Z</time>
      </trkpt>
      <trkpt lat="46.42937" lon="6.11192">
        <ele>1462.41</ele>
        <time>2016-07-02T13:51:35Z</time>
      </trkpt>
      <trkpt lat="46.42935" lon="6.11197">
        <ele>1462.12</ele>
        <time>2016-07-02T13:51:40Z</time>
      </trkpt>
      <trkpt lat="46.42931" lon="6.11221">
        <ele>1461.53</ele>
        <time>2016-07-02T13:51:54Z</time>
      </trkpt>
      <trkpt lat="46.42927" lon="6.11242">
        <ele>1463.18</ele>
        <time>2016-07-02T13:52:10Z</time>
      </trkpt>
      <trkpt lat="46.42929" lon="6.11251">
        <ele>1464.23</ele>
        <time>2016-07-02T13:52:20Z</time>
      </trkpt>
      <trkpt lat="46.42929" lon="6.11256">
        <ele>1464.22</ele>
        <time>2016-07-02T13:52:27Z</time>
      </trkpt>
      <trkpt lat="46.4293" lon="6.11264">
        <ele>1463.95</ele>
        <time>2016-07-02T13:52:32Z</time>
      </trkpt>
      <trkpt lat="46.42931" lon="6.11286">
        <ele>1463.17</ele>
        <time>2016-07-02T13:52:45Z</time>
      </trkpt>
      <trkpt lat="46.42929" lon="6.11311">
        <ele>1462.6</ele>
        <time>2016-07-02T13:53:00Z</time>
      </trkpt>
      <trkpt lat="46.42924" lon="6.11331">
        <ele>1464.68</ele>
        <time>2016-07-02T13:53:14Z</time>
      </trkpt>
      <trkpt lat="46.42923" lon="6.11344">
        <ele>1466.52</ele>
        <time>2016-07-02T13:53:27Z</time>
      </trkpt>
      <trkpt lat="46.42923" lon="6.11349">
        <ele>1466.67</ele>
        <time>2016-07-02T13:53:30Z</time>
      </trkpt>
      <trkpt lat="46.42924" lon="6.11358">
        <ele>1467.51</ele>
        <time>2016-07-02T13:53:39Z</time>
      </trkpt>
      <trkpt lat="46.42924" lon="6.11363">
        <ele>1468.13</ele>
        <time>2016-07-02T13:53:42Z</time>
      </trkpt>
      <trkpt lat="46.42924" lon="6.11383">
        <ele>1470.12</ele>
        <time>2016-07-02T13:53:58Z</time>
      </trkpt>
      <trkpt lat="46.42924" lon="6.11384">
        <ele>1470.63</ele>
        <time>2016-07-02T13:54:01Z</time>
      </trkpt>
      <trkpt lat="46.42936" lon="6.11428">
        <ele>1478.29</ele>
        <time>2016-07-02T13:54:55Z</time>
      </trkpt>
      <trkpt lat="46.42942" lon="6.11448">
        <ele>1481.26</ele>
        <time>2016-07-02T13:55:15Z</time>
      </trkpt>
      <trkpt lat="46.42943" lon="6.11451">
        <ele>1481.64</ele>
        <time>2016-07-02T13:55:17Z</time>
      </trkpt>
      <trkpt lat="46.42955" lon="6.11469">
        <ele>1483.06</ele>
        <time>2016-07-02T13:55:37Z</time>
      </trkpt>
      <trkpt lat="46.42959" lon="6.11474">
        <ele>1483.37</ele>
        <time>2016-07-02T13:55:42Z</time>
      </trkpt>
      <trkpt lat="46.42971" lon="6.1149">
        <ele>1484.4</ele>
        <time>2016-07-02T13:55:56Z</time>
      </trkpt>
      <trkpt lat="46.42984" lon="6.11505">
        <ele>1485.11</ele>
        <time>2016-07-02T13:56:11Z</time>
      </trkpt>
      <trkpt lat="46.4299" lon="6.1152">
        <ele>1485.37</ele>
        <time>2016-07-02T13:56:25Z</time>
      </trkpt>
      <trkpt lat="46.42992" lon="6.11538">
        <ele>1485.8</ele>
        <time>2016-07-02T13:56:37Z</time>
      </trkpt>
      <trkpt lat="46.42998" lon="6.11553">
        <ele>1485.42</ele>
        <time>2016-07-02T13:56:48Z</time>
      </trkpt>
      <trkpt lat="46.43" lon="6.11577">
        <ele>1484.7</ele>
        <time>2016-07-02T13:57:02Z</time>
      </trkpt>
      <trkpt lat="46.42997" lon="6.11605">
        <ele>1484.67</ele>
        <time>2016-07-02T13:57:18Z</time>
      </trkpt>
      <trkpt lat="46.42998" lon="6.11618">
        <ele>1485.58</ele>
        <time>2016-07-02T13:57:31Z</time>
      </trkpt>
      <trkpt lat="46.42986" lon="6.1163">
        <ele>1486.68</ele>
        <time>2016-07-02T13:57:54Z</time>
      </trkpt>
      <trkpt lat="46.42977" lon="6.11646">
        <ele>1489.74</ele>
        <time>2016-07-02T13:58:08Z</time>
      </trkpt>
      <trkpt lat="46.4297" lon="6.11664">
        <ele>1492.93</ele>
        <time>2016-07-02T13:58:23Z</time>
      </trkpt>
      <trkpt lat="46.42969" lon="6.11672">
        <ele>1494.13</ele>
        <time>2016-07-02T13:58:28Z</time>
      </trkpt>
      <trkpt lat="46.42968" lon="6.11678">
        <ele>1494.31</ele>
        <time>2016-07-02T13:58:33Z</time>
      </trkpt>
      <trkpt lat="46.42964" lon="6.11688">
        <ele>1496.26</ele>
        <time>2016-07-02T13:58:45Z</time>
      </trkpt>
      <trkpt lat="46.42951" lon="6.11745">
        <ele>1500.27</ele>
        <time>2016-07-02T13:59:39Z</time>
      </trkpt>
      <trkpt lat="46.42949" lon="6.11773">
        <ele>1502.51</ele>
        <time>2016-07-02T13:59:58Z</time>
      </trkpt>
      <trkpt lat="46.42943" lon="6.11794">
        <ele>1505.8</ele>
        <time>2016-07-02T14:00:17Z</time>
      </trkpt>
      <trkpt lat="46.42937" lon="6.11821">
        <ele>1507.29</ele>
        <time>2016-07-02T14:00:38Z</time>
      </trkpt>
      <trkpt lat="46.42929" lon="6.11849">
        <ele>1510.39</ele>
        <time>2016-07-02T14:00:59Z</time>
      </trkpt>
      <trkpt lat="46.42922" lon="6.11878">
        <ele>1510.5</ele>
        <time>2016-07-02T14:01:18Z</time>
      </trkpt>
      <trkpt lat="46.42921" lon="6.11882">
        <ele>1510.39</ele>
        <time>2016-07-02T14:01:20Z</time>
      </trkpt>
      <trkpt lat="46.42918" lon="6.11905">
        <ele>1510.85</ele>
        <time>2016-07-02T14:01:33Z</time>
      </trkpt>
      <trkpt lat="46.42921" lon="6.11932">
        <ele>1512.67</ele>
        <time>2016-07-02T14:01:47Z</time>
      </trkpt>
      <trkpt lat="46.42921" lon="6.11959">
        <ele>1513.67</ele>
        <time>2016-07-02T14:02:03Z</time>
      </trkpt>
      <trkpt lat="46.42918" lon="6.11974">
        <ele>1514.28</ele>
        <time>2016-07-02T14:02:17Z</time>
      </trkpt>
      <trkpt lat="46.42917" lon="6.11983">
        <ele>1514.88</ele>
        <time>2016-07-02T14:02:24Z</time>
      </trkpt>
      <trkpt lat="46.42922" lon="6.12014">
        <ele>1514.76</ele>
        <time>2016-07-02T14:02:44Z</time>
      </trkpt>
      <trkpt lat="46.42926" lon="6.12036">
        <ele>1514.6</ele>
        <time>2016-07-02T14:02:59Z</time>
      </trkpt>
      <trkpt lat="46.42927" lon="6.12039">
        <ele>1514.52</ele>
        <time>2016-07-02T14:03:01Z</time>
      </trkpt>
      <trkpt lat="46.42929" lon="6.12059">
        <ele>1513.69</ele>
        <time>2016-07-02T14:03:15Z</time>
      </trkpt>
      <trkpt lat="46.42931" lon="6.12076">
        <ele>1512.72</ele>
        <time>2016-07-02T14:03:26Z</time>
      </trkpt>
      <trkpt lat="46.42936" lon="6.12094">
        <ele>1512.97</ele>
        <time>2016-07-02T14:03:40Z</time>
      </trkpt>
      <trkpt lat="46.42937" lon="6.12105">
        <ele>1513.42</ele>
        <time>2016-07-02T14:03:48Z</time>
      </trkpt>
      <trkpt lat="46.42936" lon="6.12124">
        <ele>1512.56</ele>
        <time>2016-07-02T14:04:01Z</time>
      </trkpt>
      <trkpt lat="46.42939" lon="6.12132">
        <ele>1512.94</ele>
        <time>2016-07-02T14:04:06Z</time>
      </trkpt>
      <trkpt lat="46.42941" lon="6.12154">
        <ele>1512.65</ele>
        <time>2016-07-02T14:04:21Z</time>
      </trkpt>
      <trkpt lat="46.42946" lon="6.1217">
        <ele>1512.88</ele>
        <time>2016-07-02T14:04:35Z</time>
      </trkpt>
      <trkpt lat="46.42951" lon="6.12186">
        <ele>1513.19</ele>
        <time>2016-07-02T14:04:48Z</time>
      </trkpt>
      <trkpt lat="46.42951" lon="6.12193">
        <ele>1513.07</ele>
        <time>2016-07-02T14:04:58Z</time>
      </trkpt>
      <trkpt lat="46.42951" lon="6.12201">
        <ele>1513.34</ele>
        <time>2016-07-02T14:05:05Z</time>
      </trkpt>
      <trkpt lat="46.42956" lon="6.12209">
        <ele>1513.35</ele>
        <time>2016-07-02T14:05:11Z</time>
      </trkpt>
      <trkpt lat="46.42961" lon="6.1222">
        <ele>1513.61</ele>
        <time>2016-07-02T14:05:22Z</time>
      </trkpt>
      <trkpt lat="46.4297" lon="6.12241">
        <ele>1514.26</ele>
        <time>2016-07-02T14:05:40Z</time>
      </trkpt>
      <trkpt lat="46.42972" lon="6.1225">
        <ele>1514.65</ele>
        <time>2016-07-02T14:05:47Z</time>
      </trkpt>
      <trkpt lat="46.42965" lon="6.12273">
        <ele>1515.36</ele>
        <time>2016-07-02T14:06:01Z</time>
      </trkpt>
      <trkpt lat="46.4296" lon="6.1229">
        <ele>1515.34</ele>
        <time>2016-07-02T14:06:12Z</time>
      </trkpt>
      <trkpt lat="46.42959" lon="6.12307">
        <ele>1515.81</ele>
        <time>2016-07-02T14:06:23Z</time>
      </trkpt>
      <trkpt lat="46.42958" lon="6.12329">
        <ele>1515.71</ele>
        <time>2016-07-02T14:06:38Z</time>
      </trkpt>
      <trkpt lat="46.42958" lon="6.12331">
        <ele>1515.71</ele>
        <time>2016-07-02T14:06:39Z</time>
      </trkpt>
      <trkpt lat="46.4296" lon="6.12339">
        <ele>1515.96</ele>
        <time>2016-07-02T14:06:44Z</time>
      </trkpt>
      <trkpt lat="46.42958" lon="6.12365">
        <ele>1516.6</ele>
        <time>2016-07-02T14:07:00Z</time>
      </trkpt>
      <trkpt lat="46.42959" lon="6.12395">
        <ele>1516.98</ele>
        <time>2016-07-02T14:07:18Z</time>
      </trkpt>
      <trkpt lat="46.42957" lon="6.12407">
        <ele>1518.1</ele>
        <time>2016-07-02T14:07:30Z</time>
      </trkpt>
      <trkpt lat="46.4296" lon="6.12457">
        <ele>1518.87</ele>
        <time>2016-07-02T14:08:32Z</time>
      </trkpt>
      <trkpt lat="46.42961" lon="6.12471">
        <ele>1519.34</ele>
        <time>2016-07-02T14:08:41Z</time>
      </trkpt>
      <trkpt lat="46.42962" lon="6.12482">
        <ele>1519.51</ele>
        <time>2016-07-02T14:08:47Z</time>
      </trkpt>
      <trkpt lat="46.42962" lon="6.12488">
        <ele>1519.31</ele>
        <time>2016-07-02T14:08:55Z</time>
      </trkpt>
      <trkpt lat="46.42967" lon="6.12515">
        <ele>1521.45</ele>
        <time>2016-07-02T14:09:20Z</time>
      </trkpt>
      <trkpt lat="46.4297" lon="6.12534">
        <ele>1522.98</ele>
        <time>2016-07-02T14:09:32Z</time>
      </trkpt>
      <trkpt lat="46.4297" lon="6.12541">
        <ele>1522.71</ele>
        <time>2016-07-02T14:09:42Z</time>
      </trkpt>
      <trkpt lat="46.4297" lon="6.12549">
        <ele>1521.88</ele>
        <time>2016-07-02T14:09:51Z</time>
      </trkpt>
      <trkpt lat="46.4297" lon="6.12551">
        <ele>1522.07</ele>
        <time>2016-07-02T14:09:52Z</time>
      </trkpt>
      <trkpt lat="46.42978" lon="6.12572">
        <ele>1522.18</ele>
        <time>2016-07-02T14:10:08Z</time>
      </trkpt>
      <trkpt lat="46.42979" lon="6.12574">
        <ele>1522.01</ele>
        <time>2016-07-02T14:10:10Z</time>
      </trkpt>
      <trkpt lat="46.4298" lon="6.12579">
        <ele>1521.84</ele>
        <time>2016-07-02T14:10:17Z</time>
      </trkpt>
      <trkpt lat="46.42981" lon="6.12574">
        <ele>1521.18</ele>
        <time>2016-07-02T14:12:47Z</time>
      </trkpt>
      <trkpt lat="46.42973" lon="6.12547">
        <ele>1520.23</ele>
        <time>2016-07-02T14:13:04Z</time>
      </trkpt>
      <trkpt lat="46.42955" lon="6.12543">
        <ele>1519.7</ele>
        <time>2016-07-02T14:13:19Z</time>
      </trkpt>
      <trkpt lat="46.42946" lon="6.12547">
        <ele>1517.11</ele>
        <time>2016-07-02T14:13:28Z</time>
      </trkpt>
      <trkpt lat="46.42941" lon="6.12544">
        <ele>1515.57</ele>
        <time>2016-07-02T14:13:33Z</time>
      </trkpt>
      <trkpt lat="46.42928" lon="6.12544">
        <ele>1513.81</ele>
        <time>2016-07-02T14:13:42Z</time>
      </trkpt>
      <trkpt lat="46.42921" lon="6.12542">
        <ele>1511.48</ele>
        <time>2016-07-02T14:13:50Z</time>
      </trkpt>
      <trkpt lat="46.42923" lon="6.12581">
        <ele>1508.2</ele>
        <time>2016-07-02T14:14:16Z</time>
      </trkpt>
      <trkpt lat="46.42931" lon="6.12605">
        <ele>1506.34</ele>
        <time>2016-07-02T14:14:32Z</time>
      </trkpt>
      <trkpt lat="46.42932" lon="6.12608">
        <ele>1506.2</ele>
        <time>2016-07-02T14:14:34Z</time>
      </trkpt>
      <trkpt lat="46.42937" lon="6.1262">
        <ele>1506.06</ele>
        <time>2016-07-02T14:14:41Z</time>
      </trkpt>
      <trkpt lat="46.42941" lon="6.12627">
        <ele>1505.22</ele>
        <time>2016-07-02T14:14:46Z</time>
      </trkpt>
      <trkpt lat="46.4295" lon="6.1264">
        <ele>1504.85</ele>
        <time>2016-07-02T14:14:57Z</time>
      </trkpt>
      <trkpt lat="46.4296" lon="6.12661">
        <ele>1502.41</ele>
        <time>2016-07-02T14:15:12Z</time>
      </trkpt>
      <trkpt lat="46.42961" lon="6.12663">
        <ele>1502.4</ele>
        <time>2016-07-02T14:15:13Z</time>
      </trkpt>
      <trkpt lat="46.42963" lon="6.12681">
        <ele>1501.64</ele>
        <time>2016-07-02T14:15:24Z</time>
      </trkpt>
      <trkpt lat="46.42967" lon="6.12696">
        <ele>1499.88</ele>
        <time>2016-07-02T14:15:32Z</time>
      </trkpt>
      <trkpt lat="46.42981" lon="6.12723">
        <ele>1497.29</ele>
        <time>2016-07-02T14:15:50Z</time>
      </trkpt>
      <trkpt lat="46.42996" lon="6.12743">
        <ele>1494.94</ele>
        <time>2016-07-02T14:16:06Z</time>
      </trkpt>
      <trkpt lat="46.43011" lon="6.12759">
        <ele>1493.02</ele>
        <time>2016-07-02T14:16:21Z</time>
      </trkpt>
      <trkpt lat="46.4302" lon="6.12766">
        <ele>1491.62</ele>
        <time>2016-07-02T14:16:29Z</time>
      </trkpt>
      <trkpt lat="46.43028" lon="6.12777">
        <ele>1489.72</ele>
        <time>2016-07-02T14:16:38Z</time>
      </trkpt>
      <trkpt lat="46.4303" lon="6.12779">
        <ele>1489.69</ele>
        <time>2016-07-02T14:16:40Z</time>
      </trkpt>
      <trkpt lat="46.43038" lon="6.12793">
        <ele>1488.9</ele>
        <time>2016-07-02T14:16:48Z</time>
      </trkpt>
      <trkpt lat="46.43046" lon="6.12803">
        <ele>1488.17</ele>
        <time>2016-07-02T14:16:56Z</time>
      </trkpt>
      <trkpt lat="46.43061" lon="6.12821">
        <ele>1485.61</ele>
        <time>2016-07-02T14:17:13Z</time>
      </trkpt>
      <trkpt lat="46.43068" lon="6.12846">
        <ele>1482.93</ele>
        <time>2016-07-02T14:17:29Z</time>
      </trkpt>
      <trkpt lat="46.43069" lon="6.12851">
        <ele>1482.56</ele>
        <time>2016-07-02T14:17:32Z</time>
      </trkpt>
      <trkpt lat="46.43066" lon="6.12877">
        <ele>1481.33</ele>
        <time>2016-07-02T14:17:47Z</time>
      </trkpt>
      <trkpt lat="46.43069" lon="6.12893">
        <ele>1481.09</ele>
        <time>2016-07-02T14:17:58Z</time>
      </trkpt>
      <trkpt lat="46.43071" lon="6.12896">
        <ele>1481.18</ele>
        <time>2016-07-02T14:18:01Z</time>
      </trkpt>
      <trkpt lat="46.43078" lon="6.12902">
        <ele>1480.2</ele>
        <time>2016-07-02T14:18:12Z</time>
      </trkpt>
      <trkpt lat="46.43089" lon="6.12917">
        <ele>1479.99</ele>
        <time>2016-07-02T14:18:28Z</time>
      </trkpt>
      <trkpt lat="46.431" lon="6.12932">
        <ele>1478.47</ele>
        <time>2016-07-02T14:18:42Z</time>
      </trkpt>
      <trkpt lat="46.43103" lon="6.12935">
        <ele>1477.72</ele>
        <time>2016-07-02T14:18:45Z</time>
      </trkpt>
      <trkpt lat="46.43101" lon="6.12951">
        <ele>1474.19</ele>
        <time>2016-07-02T14:18:57Z</time>
      </trkpt>
      <trkpt lat="46.431" lon="6.12961">
        <ele>1472.49</ele>
        <time>2016-07-02T14:19:10Z</time>
      </trkpt>
      <trkpt lat="46.43108" lon="6.12982">
        <ele>1470.64</ele>
        <time>2016-07-02T14:19:27Z</time>
      </trkpt>
      <trkpt lat="46.43111" lon="6.12985">
        <ele>1469.28</ele>
        <time>2016-07-02T14:19:33Z</time>
      </trkpt>
      <trkpt lat="46.43127" lon="6.13026">
        <ele>1469.06</ele>
        <time>2016-07-02T14:20:23Z</time>
      </trkpt>
      <trkpt lat="46.43125" lon="6.1303">
        <ele>1468.96</ele>
        <time>2016-07-02T14:20:28Z</time>
      </trkpt>
      <trkpt lat="46.43127" lon="6.13048">
        <ele>1467.9</ele>
        <time>2016-07-02T14:20:42Z</time>
      </trkpt>
      <trkpt lat="46.43131" lon="6.13053">
        <ele>1467.54</ele>
        <time>2016-07-02T14:20:46Z</time>
      </trkpt>
      <trkpt lat="46.43141" lon="6.13065">
        <ele>1465.44</ele>
        <time>2016-07-02T14:21:01Z</time>
      </trkpt>
      <trkpt lat="46.43141" lon="6.13065">
        <ele>1465.53</ele>
        <time>2016-07-02T14:21:04Z</time>
      </trkpt>
      <trkpt lat="46.43153" lon="6.13071">
        <ele>1464.95</ele>
        <time>2016-07-02T14:21:35Z</time>
      </trkpt>
      <trkpt lat="46.43178" lon="6.13063">
        <ele>1461.81</ele>
        <time>2016-07-02T14:21:57Z</time>
      </trkpt>
      <trkpt lat="46.43208" lon="6.13068">
        <ele>1458.96</ele>
        <time>2016-07-02T14:22:18Z</time>
      </trkpt>
      <trkpt lat="46.43224" lon="6.13077">
        <ele>1457.55</ele>
        <time>2016-07-02T14:22:32Z</time>
      </trkpt>
      <trkpt lat="46.43237" lon="6.13089">
        <ele>1456.69</ele>
        <time>2016-07-02T14:22:47Z</time>
      </trkpt>
      <trkpt lat="46.43254" lon="6.13098">
        <ele>1456.47</ele>
        <time>2016-07-02T14:23:02Z</time>
      </trkpt>
      <trkpt lat="46.43263" lon="6.13119">
        <ele>1454.8</ele>
        <time>2016-07-02T14:23:13Z</time>
      </trkpt>
      <trkpt lat="46.43264" lon="6.13126">
        <ele>1455.07</ele>
        <time>2016-07-02T14:23:17Z</time>
      </trkpt>
      <trkpt lat="46.4327" lon="6.13151">
        <ele>1454.71</ele>
        <time>2016-07-02T14:23:30Z</time>
      </trkpt>
      <trkpt lat="46.43273" lon="6.13158">
        <ele>1456.29</ele>
        <time>2016-07-02T14:23:34Z</time>
      </trkpt>
      <trkpt lat="46.43273" lon="6.1317">
        <ele>1456.66</ele>
        <time>2016-07-02T14:23:40Z</time>
      </trkpt>
      <trkpt lat="46.43276" lon="6.13198">
        <ele>1456.27</ele>
        <time>2016-07-02T14:23:56Z</time>
      </trkpt>
      <trkpt lat="46.43276" lon="6.13202">
        <ele>1456.66</ele>
        <time>2016-07-02T14:23:58Z</time>
      </trkpt>
      <trkpt lat="46.43278" lon="6.13219">
        <ele>1457.4</ele>
        <time>2016-07-02T14:24:10Z</time>
      </trkpt>
      <trkpt lat="46.43278" lon="6.1322">
        <ele>1457.38</ele>
        <time>2016-07-02T14:24:11Z</time>
      </trkpt>
      <trkpt lat="46.43276" lon="6.13233">
        <ele>1457.26</ele>
        <time>2016-07-02T14:24:19Z</time>
      </trkpt>
      <trkpt lat="46.43272" lon="6.13248">
        <ele>1457.3</ele>
        <time>2016-07-02T14:24:28Z</time>
      </trkpt>
      <trkpt lat="46.43272" lon="6.13252">
        <ele>1457.27</ele>
        <time>2016-07-02T14:24:31Z</time>
      </trkpt>
      <trkpt lat="46.4326" lon="6.13276">
        <ele>1455.46</ele>
        <time>2016-07-02T14:24:49Z</time>
      </trkpt>
      <trkpt lat="46.43259" lon="6.13279">
        <ele>1454.99</ele>
        <time>2016-07-02T14:24:51Z</time>
      </trkpt>
      <trkpt lat="46.43257" lon="6.13287">
        <ele>1453.28</ele>
        <time>2016-07-02T14:25:00Z</time>
      </trkpt>
      <trkpt lat="46.43253" lon="6.13297">
        <ele>1452.58</ele>
        <time>2016-07-02T14:25:08Z</time>
      </trkpt>
      <trkpt lat="46.43253" lon="6.13316">
        <ele>1450.83</ele>
        <time>2016-07-02T14:25:18Z</time>
      </trkpt>
      <trkpt lat="46.43254" lon="6.13325">
        <ele>1450.47</ele>
        <time>2016-07-02T14:25:23Z</time>
      </trkpt>
      <trkpt lat="46.43256" lon="6.13339">
        <ele>1448.27</ele>
        <time>2016-07-02T14:25:34Z</time>
      </trkpt>
      <trkpt lat="46.43268" lon="6.13343">
        <ele>1447.13</ele>
        <time>2016-07-02T14:25:49Z</time>
      </trkpt>
      <trkpt lat="46.43269" lon="6.13348">
        <ele>1446.26</ele>
        <time>2016-07-02T14:25:58Z</time>
      </trkpt>
      <trkpt lat="46.43279" lon="6.13351">
        <ele>1444.89</ele>
        <time>2016-07-02T14:26:09Z</time>
      </trkpt>
      <trkpt lat="46.43292" lon="6.13367">
        <ele>1442.63</ele>
        <time>2016-07-02T14:26:22Z</time>
      </trkpt>
      <trkpt lat="46.43296" lon="6.13394">
        <ele>1439.48</ele>
        <time>2016-07-02T14:26:37Z</time>
      </trkpt>
      <trkpt lat="46.43297" lon="6.1342">
        <ele>1438.08</ele>
        <time>2016-07-02T14:26:52Z</time>
      </trkpt>
      <trkpt lat="46.43299" lon="6.13433">
        <ele>1436.53</ele>
        <time>2016-07-02T14:27:01Z</time>
      </trkpt>
      <trkpt lat="46.433" lon="6.13437">
        <ele>1435.28</ele>
        <time>2016-07-02T14:27:04Z</time>
      </trkpt>
      <trkpt lat="46.43305" lon="6.13454">
        <ele>1434.02</ele>
        <time>2016-07-02T14:27:13Z</time>
      </trkpt>
      <trkpt lat="46.43312" lon="6.13476">
        <ele>1431.49</ele>
        <time>2016-07-02T14:27:27Z</time>
      </trkpt>
      <trkpt lat="46.43322" lon="6.13494">
        <ele>1428.84</ele>
        <time>2016-07-02T14:27:41Z</time>
      </trkpt>
      <trkpt lat="46.4333" lon="6.13486">
        <ele>1428.7</ele>
        <time>2016-07-02T14:27:51Z</time>
      </trkpt>
      <trkpt lat="46.43334" lon="6.1348">
        <ele>1428.32</ele>
        <time>2016-07-02T14:27:55Z</time>
      </trkpt>
      <trkpt lat="46.43342" lon="6.13469">
        <ele>1428.09</ele>
        <time>2016-07-02T14:28:03Z</time>
      </trkpt>
      <trkpt lat="46.43358" lon="6.13445">
        <ele>1426.19</ele>
        <time>2016-07-02T14:28:18Z</time>
      </trkpt>
      <trkpt lat="46.43367" lon="6.13432">
        <ele>1424.44</ele>
        <time>2016-07-02T14:28:29Z</time>
      </trkpt>
      <trkpt lat="46.4338" lon="6.13419">
        <ele>1422.03</ele>
        <time>2016-07-02T14:28:41Z</time>
      </trkpt>
      <trkpt lat="46.43381" lon="6.13417">
        <ele>1421.43</ele>
        <time>2016-07-02T14:28:42Z</time>
      </trkpt>
      <trkpt lat="46.43386" lon="6.13407">
        <ele>1419.33</ele>
        <time>2016-07-02T14:28:48Z</time>
      </trkpt>
      <trkpt lat="46.43388" lon="6.13402">
        <ele>1418.76</ele>
        <time>2016-07-02T14:28:51Z</time>
      </trkpt>
      <trkpt lat="46.43394" lon="6.13386">
        <ele>1416.42</ele>
        <time>2016-07-02T14:29:00Z</time>
      </trkpt>
      <trkpt lat="46.43406" lon="6.13368">
        <ele>1415.8</ele>
        <time>2016-07-02T14:29:12Z</time>
      </trkpt>
      <trkpt lat="46.4341" lon="6.1336">
        <ele>1414.93</ele>
        <time>2016-07-02T14:29:20Z</time>
      </trkpt>
      <trkpt lat="46.43411" lon="6.13328">
        <ele>1412.77</ele>
        <time>2016-07-02T14:29:36Z</time>
      </trkpt>
      <trkpt lat="46.4341" lon="6.1332">
        <ele>1410.53</ele>
        <time>2016-07-02T14:29:43Z</time>
      </trkpt>
      <trkpt lat="46.43415" lon="6.13304">
        <ele>1407.43</ele>
        <time>2016-07-02T14:29:56Z</time>
      </trkpt>
      <trkpt lat="46.4342" lon="6.13294">
        <ele>1404.13</ele>
        <time>2016-07-02T14:30:06Z</time>
      </trkpt>
      <trkpt lat="46.43421" lon="6.13292">
        <ele>1403.91</ele>
        <time>2016-07-02T14:30:07Z</time>
      </trkpt>
      <trkpt lat="46.4342" lon="6.13277">
        <ele>1400.45</ele>
        <time>2016-07-02T14:30:17Z</time>
      </trkpt>
      <trkpt lat="46.43425" lon="6.1326">
        <ele>1397.12</ele>
        <time>2016-07-02T14:30:28Z</time>
      </trkpt>
      <trkpt lat="46.43432" lon="6.13249">
        <ele>1394.05</ele>
        <time>2016-07-02T14:30:36Z</time>
      </trkpt>
      <trkpt lat="46.43438" lon="6.13235">
        <ele>1390.58</ele>
        <time>2016-07-02T14:30:46Z</time>
      </trkpt>
      <trkpt lat="46.43441" lon="6.1323">
        <ele>1389.33</ele>
        <time>2016-07-02T14:30:50Z</time>
      </trkpt>
      <trkpt lat="46.43444" lon="6.13223">
        <ele>1386.76</ele>
        <time>2016-07-02T14:30:54Z</time>
      </trkpt>
      <trkpt lat="46.43452" lon="6.13207">
        <ele>1383.12</ele>
        <time>2016-07-02T14:31:01Z</time>
      </trkpt>
      <trkpt lat="46.43452" lon="6.1319">
        <ele>1381.71</ele>
        <time>2016-07-02T14:31:16Z</time>
      </trkpt>
      <trkpt lat="46.43453" lon="6.1319">
        <ele>1381.32</ele>
        <time>2016-07-02T14:31:17Z</time>
      </trkpt>
      <trkpt lat="46.43457" lon="6.13196">
        <ele>1378.95</ele>
        <time>2016-07-02T14:31:23Z</time>
      </trkpt>
      <trkpt lat="46.43464" lon="6.13204">
        <ele>1375.94</ele>
        <time>2016-07-02T14:31:35Z</time>
      </trkpt>
      <trkpt lat="46.4347" lon="6.13215">
        <ele>1372.87</ele>
        <time>2016-07-02T14:31:49Z</time>
      </trkpt>
      <trkpt lat="46.43473" lon="6.13229">
        <ele>1369.86</ele>
        <time>2016-07-02T14:32:01Z</time>
      </trkpt>
      <trkpt lat="46.43472" lon="6.13247">
        <ele>1367.59</ele>
        <time>2016-07-02T14:32:17Z</time>
      </trkpt>
      <trkpt lat="46.43475" lon="6.13263">
        <ele>1364.06</ele>
        <time>2016-07-02T14:32:27Z</time>
      </trkpt>
      <trkpt lat="46.4348" lon="6.13267">
        <ele>1360.92</ele>
        <time>2016-07-02T14:32:35Z</time>
      </trkpt>
      <trkpt lat="46.43481" lon="6.13269">
        <ele>1360.15</ele>
        <time>2016-07-02T14:32:37Z</time>
      </trkpt>
      <trkpt lat="46.43484" lon="6.13271">
        <ele>1359.23</ele>
        <time>2016-07-02T14:32:39Z</time>
      </trkpt>
      <trkpt lat="46.43492" lon="6.13273">
        <ele>1357.81</ele>
        <time>2016-07-02T14:32:46Z</time>
      </trkpt>
      <trkpt lat="46.43497" lon="6.13282">
        <ele>1355.69</ele>
        <time>2016-07-02T14:32:55Z</time>
      </trkpt>
      <trkpt lat="46.43502" lon="6.13296">
        <ele>1352.47</ele>
        <time>2016-07-02T14:33:05Z</time>
      </trkpt>
      <trkpt lat="46.43511" lon="6.13297">
        <ele>1350.75</ele>
        <time>2016-07-02T14:33:17Z</time>
      </trkpt>
      <trkpt lat="46.43523" lon="6.13314">
        <ele>1351.04</ele>
        <time>2016-07-02T14:33:31Z</time>
      </trkpt>
      <trkpt lat="46.43532" lon="6.13328">
        <ele>1348.84</ele>
        <time>2016-07-02T14:33:44Z</time>
      </trkpt>
      <trkpt lat="46.43544" lon="6.13349">
        <ele>1347.65</ele>
        <time>2016-07-02T14:34:02Z</time>
      </trkpt>
      <trkpt lat="46.4355" lon="6.13365">
        <ele>1344.63</ele>
        <time>2016-07-02T14:34:18Z</time>
      </trkpt>
      <trkpt lat="46.43557" lon="6.13371">
        <ele>1344.46</ele>
        <time>2016-07-02T14:34:25Z</time>
      </trkpt>
      <trkpt lat="46.43565" lon="6.13375">
        <ele>1343.35</ele>
        <time>2016-07-02T14:34:30Z</time>
      </trkpt>
      <trkpt lat="46.43576" lon="6.13378">
        <ele>1339.87</ele>
        <time>2016-07-02T14:34:39Z</time>
      </trkpt>
      <trkpt lat="46.43586" lon="6.13362">
        <ele>1338.7</ele>
        <time>2016-07-02T14:34:52Z</time>
      </trkpt>
      <trkpt lat="46.43592" lon="6.1335">
        <ele>1337.19</ele>
        <time>2016-07-02T14:35:01Z</time>
      </trkpt>
      <trkpt lat="46.43593" lon="6.13346">
        <ele>1336.65</ele>
        <time>2016-07-02T14:35:04Z</time>
      </trkpt>
      <trkpt lat="46.43595" lon="6.1334">
        <ele>1336.46</ele>
        <time>2016-07-02T14:35:08Z</time>
      </trkpt>
      <trkpt lat="46.43596" lon="6.13335">
        <ele>1336.27</ele>
        <time>2016-07-02T14:35:11Z</time>
      </trkpt>
      <trkpt lat="46.43598" lon="6.13333">
        <ele>1335.5</ele>
        <time>2016-07-02T14:35:13Z</time>
      </trkpt>
      <trkpt lat="46.43603" lon="6.13329">
        <ele>1334.52</ele>
        <time>2016-07-02T14:35:18Z</time>
      </trkpt>
      <trkpt lat="46.43616" lon="6.13315">
        <ele>1332.97</ele>
        <time>2016-07-02T14:35:32Z</time>
      </trkpt>
      <trkpt lat="46.43619" lon="6.13311">
        <ele>1329.68</ele>
        <time>2016-07-02T14:35:36Z</time>
      </trkpt>
      <trkpt lat="46.4362" lon="6.13309">
        <ele>1329.06</ele>
        <time>2016-07-02T14:35:38Z</time>
      </trkpt>
      <trkpt lat="46.43622" lon="6.13307">
        <ele>1328.51</ele>
        <time>2016-07-02T14:35:40Z</time>
      </trkpt>
      <trkpt lat="46.43637" lon="6.13298">
        <ele>1325.25</ele>
        <time>2016-07-02T14:35:52Z</time>
      </trkpt>
      <trkpt lat="46.43637" lon="6.13295">
        <ele>1323.85</ele>
        <time>2016-07-02T14:36:00Z</time>
      </trkpt>
      <trkpt lat="46.43638" lon="6.13282">
        <ele>1323</ele>
        <time>2016-07-02T14:36:22Z</time>
      </trkpt>
      <trkpt lat="46.43638" lon="6.13276">
        <ele>1322.68</ele>
        <time>2016-07-02T14:36:26Z</time>
      </trkpt>
      <trkpt lat="46.43637" lon="6.13265">
        <ele>1319.22</ele>
        <time>2016-07-02T14:36:31Z</time>
      </trkpt>
      <trkpt lat="46.43634" lon="6.1324">
        <ele>1317.38</ele>
        <time>2016-07-02T14:36:44Z</time>
      </trkpt>
      <trkpt lat="46.43635" lon="6.13232">
        <ele>1315.22</ele>
        <time>2016-07-02T14:36:54Z</time>
      </trkpt>
      <trkpt lat="46.43642" lon="6.13227">
        <ele>1311.76</ele>
        <time>2016-07-02T14:37:16Z</time>
      </trkpt>
      <trkpt lat="46.43648" lon="6.13221">
        <ele>1311.29</ele>
        <time>2016-07-02T14:37:21Z</time>
      </trkpt>
      <trkpt lat="46.43659" lon="6.13221">
        <ele>1308.36</ele>
        <time>2016-07-02T14:37:27Z</time>
      </trkpt>
      <trkpt lat="46.4366" lon="6.13218">
        <ele>1307.31</ele>
        <time>2016-07-02T14:37:29Z</time>
      </trkpt>
      <trkpt lat="46.43661" lon="6.13214">
        <ele>1305.95</ele>
        <time>2016-07-02T14:37:31Z</time>
      </trkpt>
      <trkpt lat="46.43671" lon="6.1321">
        <ele>1302.11</ele>
        <time>2016-07-02T14:37:39Z</time>
      </trkpt>
      <trkpt lat="46.43678" lon="6.13206">
        <ele>1298.1</ele>
        <time>2016-07-02T14:37:44Z</time>
      </trkpt>
      <trkpt lat="46.43686" lon="6.13201">
        <ele>1294.84</ele>
        <time>2016-07-02T14:37:49Z</time>
      </trkpt>
      <trkpt lat="46.43688" lon="6.13199">
        <ele>1293.83</ele>
        <time>2016-07-02T14:37:51Z</time>
      </trkpt>
      <trkpt lat="46.43693" lon="6.13199">
        <ele>1293.01</ele>
        <time>2016-07-02T14:37:53Z</time>
      </trkpt>
      <trkpt lat="46.43702" lon="6.13193">
        <ele>1291.04</ele>
        <time>2016-07-02T14:37:57Z</time>
      </trkpt>
      <trkpt lat="46.43705" lon="6.13191">
        <ele>1291.23</ele>
        <time>2016-07-02T14:37:58Z</time>
      </trkpt>
      <trkpt lat="46.43711" lon="6.13186">
        <ele>1285.96</ele>
        <time>2016-07-02T14:38:03Z</time>
      </trkpt>
      <trkpt lat="46.43714" lon="6.13186">
        <ele>1283.58</ele>
        <time>2016-07-02T14:38:07Z</time>
      </trkpt>
      <trkpt lat="46.43723" lon="6.13186">
        <ele>1280.54</ele>
        <time>2016-07-02T14:38:19Z</time>
      </trkpt>
      <trkpt lat="46.43725" lon="6.13187">
        <ele>1280.13</ele>
        <time>2016-07-02T14:38:22Z</time>
      </trkpt>
      <trkpt lat="46.4373" lon="6.13189">
        <ele>1278.76</ele>
        <time>2016-07-02T14:38:31Z</time>
      </trkpt>
      <trkpt lat="46.43735" lon="6.13187">
        <ele>1278.58</ele>
        <time>2016-07-02T14:38:53Z</time>
      </trkpt>
      <trkpt lat="46.43737" lon="6.13187">
        <ele>1278.35</ele>
        <time>2016-07-02T14:38:55Z</time>
      </trkpt>
      <trkpt lat="46.43753" lon="6.13186">
        <ele>1274.96</ele>
        <time>2016-07-02T14:39:10Z</time>
      </trkpt>
      <trkpt lat="46.43754" lon="6.13186">
        <ele>1274.65</ele>
        <time>2016-07-02T14:39:11Z</time>
      </trkpt>
      <trkpt lat="46.43766" lon="6.13192">
        <ele>1271.29</ele>
        <time>2016-07-02T14:39:25Z</time>
      </trkpt>
      <trkpt lat="46.43767" lon="6.13192">
        <ele>1270.95</ele>
        <time>2016-07-02T14:39:26Z</time>
      </trkpt>
      <trkpt lat="46.43772" lon="6.13194">
        <ele>1269.24</ele>
        <time>2016-07-02T14:39:32Z</time>
      </trkpt>
      <trkpt lat="46.43776" lon="6.13197">
        <ele>1267.86</ele>
        <time>2016-07-02T14:39:38Z</time>
      </trkpt>
      <trkpt lat="46.43793" lon="6.13204">
        <ele>1264.67</ele>
        <time>2016-07-02T14:39:50Z</time>
      </trkpt>
      <trkpt lat="46.43798" lon="6.13207">
        <ele>1263.25</ele>
        <time>2016-07-02T14:39:59Z</time>
      </trkpt>
      <trkpt lat="46.43801" lon="6.13211">
        <ele>1263</ele>
        <time>2016-07-02T14:40:01Z</time>
      </trkpt>
      <trkpt lat="46.43803" lon="6.13214">
        <ele>1261.79</ele>
        <time>2016-07-02T14:40:09Z</time>
      </trkpt>
      <trkpt lat="46.43804" lon="6.13222">
        <ele>1261.99</ele>
        <time>2016-07-02T14:40:35Z</time>
      </trkpt>
      <trkpt lat="46.4382" lon="6.13233">
        <ele>1259.55</ele>
        <time>2016-07-02T14:40:52Z</time>
      </trkpt>
      <trkpt lat="46.4382" lon="6.13235">
        <ele>1259.27</ele>
        <time>2016-07-02T14:40:54Z</time>
      </trkpt>
      <trkpt lat="46.43824" lon="6.13237">
        <ele>1258.8</ele>
        <time>2016-07-02T14:40:56Z</time>
      </trkpt>
      <trkpt lat="46.43831" lon="6.13237">
        <ele>1257.47</ele>
        <time>2016-07-02T14:41:02Z</time>
      </trkpt>
      <trkpt lat="46.43841" lon="6.13245">
        <ele>1253.78</ele>
        <time>2016-07-02T14:41:10Z</time>
      </trkpt>
      <trkpt lat="46.43843" lon="6.13247">
        <ele>1252.62</ele>
        <time>2016-07-02T14:41:12Z</time>
      </trkpt>
      <trkpt lat="46.43847" lon="6.13253">
        <ele>1250.41</ele>
        <time>2016-07-02T14:41:15Z</time>
      </trkpt>
      <trkpt lat="46.43851" lon="6.13257">
        <ele>1249.71</ele>
        <time>2016-07-02T14:41:17Z</time>
      </trkpt>
      <trkpt lat="46.43861" lon="6.13264">
        <ele>1247</ele>
        <time>2016-07-02T14:41:21Z</time>
      </trkpt>
      <trkpt lat="46.43867" lon="6.13271">
        <ele>1245.75</ele>
        <time>2016-07-02T14:41:24Z</time>
      </trkpt>
      <trkpt lat="46.43869" lon="6.13274">
        <ele>1243.88</ele>
        <time>2016-07-02T14:41:31Z</time>
      </trkpt>
      <trkpt lat="46.43869" lon="6.13269">
        <ele>1242.67</ele>
        <time>2016-07-02T14:42:32Z</time>
      </trkpt>
      <trkpt lat="46.43867" lon="6.13272">
        <ele>1242.44</ele>
        <time>2016-07-02T14:42:46Z</time>
      </trkpt>
      <trkpt lat="46.43876" lon="6.13271">
        <ele>1241.06</ele>
        <time>2016-07-02T14:42:56Z</time>
      </trkpt>
      <trkpt lat="46.43881" lon="6.13269">
        <ele>1240.62</ele>
        <time>2016-07-02T14:43:00Z</time>
      </trkpt>
      <trkpt lat="46.439" lon="6.13273">
        <ele>1238.23</ele>
        <time>2016-07-02T14:43:16Z</time>
      </trkpt>
      <trkpt lat="46.43908" lon="6.13278">
        <ele>1234.78</ele>
        <time>2016-07-02T14:43:26Z</time>
      </trkpt>
      <trkpt lat="46.43911" lon="6.13279">
        <ele>1233.3</ele>
        <time>2016-07-02T14:43:34Z</time>
      </trkpt>
      <trkpt lat="46.43919" lon="6.13285">
        <ele>1231.19</ele>
        <time>2016-07-02T14:43:53Z</time>
      </trkpt>
      <trkpt lat="46.43923" lon="6.13285">
        <ele>1230.52</ele>
        <time>2016-07-02T14:44:03Z</time>
      </trkpt>
      <trkpt lat="46.43939" lon="6.13287">
        <ele>1227.41</ele>
        <time>2016-07-02T14:44:28Z</time>
      </trkpt>
      <trkpt lat="46.43947" lon="6.13291">
        <ele>1225.7</ele>
        <time>2016-07-02T14:44:36Z</time>
      </trkpt>
      <trkpt lat="46.43958" lon="6.13293">
        <ele>1223.79</ele>
        <time>2016-07-02T14:44:47Z</time>
      </trkpt>
      <trkpt lat="46.43964" lon="6.13295">
        <ele>1223.1</ele>
        <time>2016-07-02T14:44:52Z</time>
      </trkpt>
      <trkpt lat="46.43973" lon="6.13297">
        <ele>1219.13</ele>
        <time>2016-07-02T14:44:57Z</time>
      </trkpt>
      <trkpt lat="46.43985" lon="6.13297">
        <ele>1216.68</ele>
        <time>2016-07-02T14:45:02Z</time>
      </trkpt>
      <trkpt lat="46.43986" lon="6.13299">
        <ele>1214.77</ele>
        <time>2016-07-02T14:45:09Z</time>
      </trkpt>
      <trkpt lat="46.44" lon="6.13305">
        <ele>1213.84</ele>
        <time>2016-07-02T14:47:07Z</time>
      </trkpt>
      <trkpt lat="46.44025" lon="6.13307">
        <ele>1210.69</ele>
        <time>2016-07-02T14:47:29Z</time>
      </trkpt>
      <trkpt lat="46.44036" lon="6.13308">
        <ele>1207.36</ele>
        <time>2016-07-02T14:47:39Z</time>
      </trkpt>
      <trkpt lat="46.4405" lon="6.13305">
        <ele>1204.17</ele>
        <time>2016-07-02T14:47:50Z</time>
      </trkpt>
      <trkpt lat="46.44073" lon="6.13316">
        <ele>1201.09</ele>
        <time>2016-07-02T14:48:04Z</time>
      </trkpt>
      <trkpt lat="46.44086" lon="6.13317">
        <ele>1197.96</ele>
        <time>2016-07-02T14:48:13Z</time>
      </trkpt>
      <trkpt lat="46.44107" lon="6.13321">
        <ele>1194.93</ele>
        <time>2016-07-02T14:48:28Z</time>
      </trkpt>
      <trkpt lat="46.4411" lon="6.13323">
        <ele>1194.15</ele>
        <time>2016-07-02T14:48:32Z</time>
      </trkpt>
      <trkpt lat="46.4413" lon="6.13325">
        <ele>1191.05</ele>
        <time>2016-07-02T14:48:46Z</time>
      </trkpt>
      <trkpt lat="46.44143" lon="6.13328">
        <ele>1188.22</ele>
        <time>2016-07-02T14:48:57Z</time>
      </trkpt>
      <trkpt lat="46.4415" lon="6.13329">
        <ele>1186.83</ele>
        <time>2016-07-02T14:49:00Z</time>
      </trkpt>
      <trkpt lat="46.44155" lon="6.13331">
        <ele>1184.93</ele>
        <time>2016-07-02T14:49:10Z</time>
      </trkpt>
      <trkpt lat="46.44167" lon="6.13333">
        <ele>1183.54</ele>
        <time>2016-07-02T14:49:22Z</time>
      </trkpt>
      <trkpt lat="46.44168" lon="6.13334">
        <ele>1183.27</ele>
        <time>2016-07-02T14:49:23Z</time>
      </trkpt>
      <trkpt lat="46.44171" lon="6.1333">
        <ele>1183.64</ele>
        <time>2016-07-02T14:49:27Z</time>
      </trkpt>
      <trkpt lat="46.44187" lon="6.13324">
        <ele>1182.53</ele>
        <time>2016-07-02T14:49:41Z</time>
      </trkpt>
      <trkpt lat="46.44189" lon="6.13325">
        <ele>1182.91</ele>
        <time>2016-07-02T14:49:44Z</time>
      </trkpt>
      <trkpt lat="46.44201" lon="6.13323">
        <ele>1181.83</ele>
        <time>2016-07-02T14:49:52Z</time>
      </trkpt>
      <trkpt lat="46.44215" lon="6.13324">
        <ele>1178.38</ele>
        <time>2016-07-02T14:50:04Z</time>
      </trkpt>
      <trkpt lat="46.44227" lon="6.13328">
        <ele>1176.21</ele>
        <time>2016-07-02T14:50:16Z</time>
      </trkpt>
      <trkpt lat="46.44228" lon="6.13328">
        <ele>1176.02</ele>
        <time>2016-07-02T14:50:17Z</time>
      </trkpt>
      <trkpt lat="46.44229" lon="6.1333">
        <ele>1175.22</ele>
        <time>2016-07-02T14:50:19Z</time>
      </trkpt>
      <trkpt lat="46.44239" lon="6.13339">
        <ele>1174.03</ele>
        <time>2016-07-02T14:50:26Z</time>
      </trkpt>
      <trkpt lat="46.44258" lon="6.13346">
        <ele>1171.56</ele>
        <time>2016-07-02T14:50:41Z</time>
      </trkpt>
      <trkpt lat="46.44263" lon="6.1335">
        <ele>1170.96</ele>
        <time>2016-07-02T14:50:47Z</time>
      </trkpt>
      <trkpt lat="46.44271" lon="6.13352">
        <ele>1170.54</ele>
        <time>2016-07-02T14:50:52Z</time>
      </trkpt>
      <trkpt lat="46.44275" lon="6.13353">
        <ele>1170.12</ele>
        <time>2016-07-02T14:50:55Z</time>
      </trkpt>
      <trkpt lat="46.44286" lon="6.13362">
        <ele>1168.73</ele>
        <time>2016-07-02T14:51:10Z</time>
      </trkpt>
      <trkpt lat="46.44296" lon="6.13372">
        <ele>1167.85</ele>
        <time>2016-07-02T14:51:27Z</time>
      </trkpt>
      <trkpt lat="46.44304" lon="6.13375">
        <ele>1168.71</ele>
        <time>2016-07-02T14:51:35Z</time>
      </trkpt>
      <trkpt lat="46.44312" lon="6.13372">
        <ele>1166.77</ele>
        <time>2016-07-02T14:51:43Z</time>
      </trkpt>
      <trkpt lat="46.4434" lon="6.13361">
        <ele>1166.03</ele>
        <time>2016-07-02T14:52:06Z</time>
      </trkpt>
      <trkpt lat="46.44341" lon="6.1336">
        <ele>1166.25</ele>
        <time>2016-07-02T14:52:07Z</time>
      </trkpt>
      <trkpt lat="46.44361" lon="6.13351">
        <ele>1164.95</ele>
        <time>2016-07-02T14:52:22Z</time>
      </trkpt>
      <trkpt lat="46.44378" lon="6.13346">
        <ele>1163.18</ele>
        <time>2016-07-02T14:52:35Z</time>
      </trkpt>
      <trkpt lat="46.44391" lon="6.1335">
        <ele>1162.45</ele>
        <time>2016-07-02T14:52:45Z</time>
      </trkpt>
      <trkpt lat="46.44406" lon="6.13362">
        <ele>1161.82</ele>
        <time>2016-07-02T14:52:59Z</time>
      </trkpt>
      <trkpt lat="46.44419" lon="6.13371">
        <ele>1161.1</ele>
        <time>2016-07-02T14:53:10Z</time>
      </trkpt>
      <trkpt lat="46.44432" lon="6.13379">
        <ele>1161.09</ele>
        <time>2016-07-02T14:53:24Z</time>
      </trkpt>
      <trkpt lat="46.44439" lon="6.1339">
        <ele>1161.33</ele>
        <time>2016-07-02T14:53:36Z</time>
      </trkpt>
      <trkpt lat="46.44449" lon="6.13401">
        <ele>1160.41</ele>
        <time>2016-07-02T14:53:49Z</time>
      </trkpt>
      <trkpt lat="46.4445" lon="6.13402">
        <ele>1160.25</ele>
        <time>2016-07-02T14:53:50Z</time>
      </trkpt>
      <trkpt lat="46.44473" lon="6.13412">
        <ele>1159.21</ele>
        <time>2016-07-02T14:54:04Z</time>
      </trkpt>
      <trkpt lat="46.44487" lon="6.1342">
        <ele>1157.31</ele>
        <time>2016-07-02T14:54:18Z</time>
      </trkpt>
      <trkpt lat="46.44491" lon="6.13427">
        <ele>1156.4</ele>
        <time>2016-07-02T14:54:24Z</time>
      </trkpt>
      <trkpt lat="46.44497" lon="6.13452">
        <ele>1153.2</ele>
        <time>2016-07-02T14:54:40Z</time>
      </trkpt>
      <trkpt lat="46.44505" lon="6.13472">
        <ele>1150.75</ele>
        <time>2016-07-02T14:55:02Z</time>
      </trkpt>
      <trkpt lat="46.44516" lon="6.13483">
        <ele>1148.65</ele>
        <time>2016-07-02T14:55:16Z</time>
      </trkpt>
      <trkpt lat="46.44538" lon="6.13513">
        <ele>1146.55</ele>
        <time>2016-07-02T14:55:42Z</time>
      </trkpt>
      <trkpt lat="46.44544" lon="6.13536">
        <ele>1143.46</ele>
        <time>2016-07-02T14:55:58Z</time>
      </trkpt>
      <trkpt lat="46.44561" lon="6.13563">
        <ele>1140.85</ele>
        <time>2016-07-02T14:56:23Z</time>
      </trkpt>
      <trkpt lat="46.44568" lon="6.13568">
        <ele>1140.27</ele>
        <time>2016-07-02T14:56:28Z</time>
      </trkpt>
      <trkpt lat="46.44571" lon="6.13572">
        <ele>1139.33</ele>
        <time>2016-07-02T14:56:32Z</time>
      </trkpt>
      <trkpt lat="46.44581" lon="6.13586">
        <ele>1137.4</ele>
        <time>2016-07-02T14:56:45Z</time>
      </trkpt>
      <trkpt lat="46.44582" lon="6.13589">
        <ele>1136.71</ele>
        <time>2016-07-02T14:56:47Z</time>
      </trkpt>
      <trkpt lat="46.44583" lon="6.13592">
        <ele>1136.45</ele>
        <time>2016-07-02T14:56:49Z</time>
      </trkpt>
      <trkpt lat="46.446" lon="6.13618">
        <ele>1133.32</ele>
        <time>2016-07-02T14:57:08Z</time>
      </trkpt>
      <trkpt lat="46.44606" lon="6.13635">
        <ele>1132.01</ele>
        <time>2016-07-02T14:57:20Z</time>
      </trkpt>
      <trkpt lat="46.4461" lon="6.13647">
        <ele>1131.07</ele>
        <time>2016-07-02T14:57:27Z</time>
      </trkpt>
      <trkpt lat="46.44613" lon="6.13668">
        <ele>1128.72</ele>
        <time>2016-07-02T14:57:40Z</time>
      </trkpt>
      <trkpt lat="46.44614" lon="6.13671">
        <ele>1128.78</ele>
        <time>2016-07-02T14:57:42Z</time>
      </trkpt>
      <trkpt lat="46.44617" lon="6.13681">
        <ele>1128.15</ele>
        <time>2016-07-02T14:57:49Z</time>
      </trkpt>
      <trkpt lat="46.44619" lon="6.13696">
        <ele>1127.16</ele>
        <time>2016-07-02T14:57:57Z</time>
      </trkpt>
      <trkpt lat="46.44616" lon="6.13705">
        <ele>1126.98</ele>
        <time>2016-07-02T14:58:01Z</time>
      </trkpt>
      <trkpt lat="46.44616" lon="6.13709">
        <ele>1126.59</ele>
        <time>2016-07-02T14:58:04Z</time>
      </trkpt>
      <trkpt lat="46.44618" lon="6.13725">
        <ele>1126.09</ele>
        <time>2016-07-02T14:58:13Z</time>
      </trkpt>
      <trkpt lat="46.44619" lon="6.1373">
        <ele>1125.63</ele>
        <time>2016-07-02T14:58:16Z</time>
      </trkpt>
      <trkpt lat="46.44623" lon="6.1375">
        <ele>1124.82</ele>
        <time>2016-07-02T14:58:27Z</time>
      </trkpt>
      <trkpt lat="46.44624" lon="6.13755">
        <ele>1124.68</ele>
        <time>2016-07-02T14:58:30Z</time>
      </trkpt>
      <trkpt lat="46.44627" lon="6.13787">
        <ele>1124</ele>
        <time>2016-07-02T14:58:48Z</time>
      </trkpt>
      <trkpt lat="46.44627" lon="6.13789">
        <ele>1124</ele>
        <time>2016-07-02T14:58:49Z</time>
      </trkpt>
      <trkpt lat="46.44627" lon="6.13814">
        <ele>1123.88</ele>
        <time>2016-07-02T14:59:04Z</time>
      </trkpt>
      <trkpt lat="46.44628" lon="6.13822">
        <ele>1123.56</ele>
        <time>2016-07-02T14:59:09Z</time>
      </trkpt>
      <trkpt lat="46.44628" lon="6.13828">
        <ele>1123.08</ele>
        <time>2016-07-02T14:59:13Z</time>
      </trkpt>
      <trkpt lat="46.4463" lon="6.13848">
        <ele>1121.8</ele>
        <time>2016-07-02T14:59:25Z</time>
      </trkpt>
      <trkpt lat="46.44631" lon="6.1385">
        <ele>1121.81</ele>
        <time>2016-07-02T14:59:26Z</time>
      </trkpt>
      <trkpt lat="46.44635" lon="6.13874">
        <ele>1121.85</ele>
        <time>2016-07-02T14:59:41Z</time>
      </trkpt>
      <trkpt lat="46.44638" lon="6.13879">
        <ele>1121.95</ele>
        <time>2016-07-02T14:59:45Z</time>
      </trkpt>
      <trkpt lat="46.44644" lon="6.13893">
        <ele>1122.44</ele>
        <time>2016-07-02T14:59:54Z</time>
      </trkpt>
      <trkpt lat="46.44651" lon="6.13911">
        <ele>1122.13</ele>
        <time>2016-07-02T15:00:06Z</time>
      </trkpt>
      <trkpt lat="46.44654" lon="6.13938">
        <ele>1122.32</ele>
        <time>2016-07-02T15:00:21Z</time>
      </trkpt>
      <trkpt lat="46.44652" lon="6.13959">
        <ele>1122.15</ele>
        <time>2016-07-02T15:00:33Z</time>
      </trkpt>
      <trkpt lat="46.44652" lon="6.13977">
        <ele>1122.47</ele>
        <time>2016-07-02T15:00:44Z</time>
      </trkpt>
      <trkpt lat="46.44653" lon="6.13996">
        <ele>1121.23</ele>
        <time>2016-07-02T15:00:56Z</time>
      </trkpt>
      <trkpt lat="46.44653" lon="6.13996">
        <ele>1121.1</ele>
        <time>2016-07-02T15:01:01Z</time>
      </trkpt>
      <trkpt lat="46.44652" lon="6.14018">
        <ele>1118.72</ele>
        <time>2016-07-02T15:01:27Z</time>
      </trkpt>
      <trkpt lat="46.44652" lon="6.14023">
        <ele>1118.44</ele>
        <time>2016-07-02T15:01:31Z</time>
      </trkpt>
      <trkpt lat="46.44653" lon="6.14028">
        <ele>1118.94</ele>
        <time>2016-07-02T15:01:35Z</time>
      </trkpt>
      <trkpt lat="46.44659" lon="6.14042">
        <ele>1116.87</ele>
        <time>2016-07-02T15:01:46Z</time>
      </trkpt>
      <trkpt lat="46.44662" lon="6.14046">
        <ele>1116.26</ele>
        <time>2016-07-02T15:01:49Z</time>
      </trkpt>
      <trkpt lat="46.44661" lon="6.14049">
        <ele>1115.02</ele>
        <time>2016-07-02T15:01:55Z</time>
      </trkpt>
      <trkpt lat="46.4466" lon="6.14058">
        <ele>1115.18</ele>
        <time>2016-07-02T15:02:03Z</time>
      </trkpt>
      <trkpt lat="46.4466" lon="6.14061">
        <ele>1115.12</ele>
        <time>2016-07-02T15:02:05Z</time>
      </trkpt>
      <trkpt lat="46.44658" lon="6.14076">
        <ele>1114.08</ele>
        <time>2016-07-02T15:02:17Z</time>
      </trkpt>
      <trkpt lat="46.44656" lon="6.14081">
        <ele>1113.82</ele>
        <time>2016-07-02T15:02:19Z</time>
      </trkpt>
      <trkpt lat="46.44653" lon="6.14101">
        <ele>1110.31</ele>
        <time>2016-07-02T15:02:28Z</time>
      </trkpt>
      <trkpt lat="46.44656" lon="6.14127">
        <ele>1109.07</ele>
        <time>2016-07-02T15:02:42Z</time>
      </trkpt>
      <trkpt lat="46.44656" lon="6.14146">
        <ele>1108.24</ele>
        <time>2016-07-02T15:02:52Z</time>
      </trkpt>
      <trkpt lat="46.44655" lon="6.14168">
        <ele>1107.6</ele>
        <time>2016-07-02T15:03:05Z</time>
      </trkpt>
      <trkpt lat="46.44652" lon="6.14189">
        <ele>1106.85</ele>
        <time>2016-07-02T15:03:17Z</time>
      </trkpt>
      <trkpt lat="46.44651" lon="6.14201">
        <ele>1106.48</ele>
        <time>2016-07-02T15:03:25Z</time>
      </trkpt>
      <trkpt lat="46.44649" lon="6.14221">
        <ele>1106.07</ele>
        <time>2016-07-02T15:03:36Z</time>
      </trkpt>
      <trkpt lat="46.44648" lon="6.14231">
        <ele>1105.76</ele>
        <time>2016-07-02T15:03:42Z</time>
      </trkpt>
      <trkpt lat="46.44646" lon="6.14255">
        <ele>1105.12</ele>
        <time>2016-07-02T15:03:56Z</time>
      </trkpt>
      <trkpt lat="46.44646" lon="6.14276">
        <ele>1104.88</ele>
        <time>2016-07-02T15:04:07Z</time>
      </trkpt>
      <trkpt lat="46.44646" lon="6.14302">
        <ele>1103.77</ele>
        <time>2016-07-02T15:04:21Z</time>
      </trkpt>
      <trkpt lat="46.44647" lon="6.14306">
        <ele>1103.78</ele>
        <time>2016-07-02T15:04:23Z</time>
      </trkpt>
      <trkpt lat="46.44646" lon="6.14309">
        <ele>1103.83</ele>
        <time>2016-07-02T15:04:25Z</time>
      </trkpt>
      <trkpt lat="46.44641" lon="6.14334">
        <ele>1103.3</ele>
        <time>2016-07-02T15:04:39Z</time>
      </trkpt>
      <trkpt lat="46.44641" lon="6.14341">
        <ele>1103.46</ele>
        <time>2016-07-02T15:04:43Z</time>
      </trkpt>
      <trkpt lat="46.44655" lon="6.14349">
        <ele>1101.54</ele>
        <time>2016-07-02T15:04:57Z</time>
      </trkpt>
      <trkpt lat="46.44667" lon="6.14367">
        <ele>1100.01</ele>
        <time>2016-07-02T15:05:17Z</time>
      </trkpt>
      <trkpt lat="46.44667" lon="6.1437">
        <ele>1100.09</ele>
        <time>2016-07-02T15:05:21Z</time>
      </trkpt>
      <trkpt lat="46.4465" lon="6.14377">
        <ele>1099.4</ele>
        <time>2016-07-02T15:06:32Z</time>
      </trkpt>
      <trkpt lat="46.4466" lon="6.14374">
        <ele>1099.3</ele>
        <time>2016-07-02T15:06:54Z</time>
      </trkpt>
      <trkpt lat="46.44664" lon="6.1438">
        <ele>1099.62</ele>
        <time>2016-07-02T15:07:19Z</time>
      </trkpt>
      <trkpt lat="46.44657" lon="6.14377">
        <ele>1099.25</ele>
        <time>2016-07-02T15:07:33Z</time>
      </trkpt>
      <trkpt lat="46.44652" lon="6.14376">
        <ele>1098.74</ele>
        <time>2016-07-02T15:08:32Z</time>
      </trkpt>
      <trkpt lat="46.44656" lon="6.14382">
        <ele>1098.68</ele>
        <time>2016-07-02T15:08:42Z</time>
      </trkpt>
      <trkpt lat="46.44659" lon="6.14396">
        <ele>1095.2</ele>
        <time>2016-07-02T15:16:01Z</time>
      </trkpt>
      <trkpt lat="46.4466" lon="6.14395">
        <ele>1094.91</ele>
        <time>2016-07-02T15:16:05Z</time>
      </trkpt>
    </trkseg>
  </trk>
</gpx>